<?xml version="1.0" encoding="UTF-8" standalone="no" ?>
<gpx xmlns="http://www.topografix.com/GPX/1/1" xmlns:xsi="http://www.w3.org/2001/XMLSchema-instance" xsi:schemaLocation="http://www.topografix.com/GPX/1/1 http://www.topografix.com/GPX/1/1/gpx.xsd" version="1.1" creator="VisuGPX - https://www.visugpx.com">
  <metadata>
    <name>Laroque</name>
    <desc><![CDATA[Randonnée dans les bois, paysage, château à faire en été ou automne ]]></desc>
  </metadata>
  <wpt lat="44.6594" lon="-0.30562">
    <ele>91.016</ele>
    <name><![CDATA[001]]></name>
    <cmt><![CDATA[D]]></cmt>
  </wpt>
  <wpt lat="44.65943" lon="-0.30456">
    <ele>48.285</ele>
    <name><![CDATA[002]]></name>
    <cmt><![CDATA[A]]></cmt>
  </wpt>
  <trk>
    <name><![CDATA[LAROQUE 05 16:13:23]]></name>
    <trkseg>
      <trkpt lat="44.6594" lon="-0.30561">
        <ele>90.98</ele>
        <time>2014-01-05T09:35:24Z</time>
      </trkpt>
      <trkpt lat="44.65941" lon="-0.30562">
        <ele>90.5</ele>
        <time>2014-01-05T09:35:53Z</time>
      </trkpt>
      <trkpt lat="44.65939" lon="-0.30559">
        <ele>90.5</ele>
        <time>2014-01-05T09:36:13Z</time>
      </trkpt>
      <trkpt lat="44.6594" lon="-0.30558">
        <ele>91.94</ele>
        <time>2014-01-05T09:36:20Z</time>
      </trkpt>
      <trkpt lat="44.65953" lon="-0.30544">
        <ele>90.98</ele>
        <time>2014-01-05T09:36:31Z</time>
      </trkpt>
      <trkpt lat="44.65954" lon="-0.30537">
        <ele>90.5</ele>
        <time>2014-01-05T09:36:34Z</time>
      </trkpt>
      <trkpt lat="44.65953" lon="-0.30528">
        <ele>90.02</ele>
        <time>2014-01-05T09:36:38Z</time>
      </trkpt>
      <trkpt lat="44.65951" lon="-0.30506">
        <ele>89.06</ele>
        <time>2014-01-05T09:36:49Z</time>
      </trkpt>
      <trkpt lat="44.65939" lon="-0.30478">
        <ele>86.18</ele>
        <time>2014-01-05T09:37:07Z</time>
      </trkpt>
      <trkpt lat="44.65937" lon="-0.30456">
        <ele>83.29</ele>
        <time>2014-01-05T09:37:21Z</time>
      </trkpt>
      <trkpt lat="44.65942" lon="-0.30443">
        <ele>82.33</ele>
        <time>2014-01-05T09:37:29Z</time>
      </trkpt>
      <trkpt lat="44.6596" lon="-0.30425">
        <ele>79.93</ele>
        <time>2014-01-05T09:37:46Z</time>
      </trkpt>
      <trkpt lat="44.65984" lon="-0.30418">
        <ele>78.48</ele>
        <time>2014-01-05T09:38:05Z</time>
      </trkpt>
      <trkpt lat="44.65997" lon="-0.30415">
        <ele>76.08</ele>
        <time>2014-01-05T09:38:20Z</time>
      </trkpt>
      <trkpt lat="44.66007" lon="-0.30412">
        <ele>73.68</ele>
        <time>2014-01-05T09:38:31Z</time>
      </trkpt>
      <trkpt lat="44.66016" lon="-0.30406">
        <ele>71.27</ele>
        <time>2014-01-05T09:38:44Z</time>
      </trkpt>
      <trkpt lat="44.66028" lon="-0.30396">
        <ele>69.35</ele>
        <time>2014-01-05T09:38:58Z</time>
      </trkpt>
      <trkpt lat="44.66035" lon="-0.30391">
        <ele>67.91</ele>
        <time>2014-01-05T09:39:05Z</time>
      </trkpt>
      <trkpt lat="44.66042" lon="-0.30379">
        <ele>66.47</ele>
        <time>2014-01-05T09:39:16Z</time>
      </trkpt>
      <trkpt lat="44.66048" lon="-0.30367">
        <ele>65.51</ele>
        <time>2014-01-05T09:39:26Z</time>
      </trkpt>
      <trkpt lat="44.66059" lon="-0.30348">
        <ele>64.55</ele>
        <time>2014-01-05T09:39:43Z</time>
      </trkpt>
      <trkpt lat="44.66065" lon="-0.30335">
        <ele>64.07</ele>
        <time>2014-01-05T09:39:56Z</time>
      </trkpt>
      <trkpt lat="44.66067" lon="-0.3033">
        <ele>64.07</ele>
        <time>2014-01-05T09:40:07Z</time>
      </trkpt>
      <trkpt lat="44.6607" lon="-0.30325">
        <ele>64.07</ele>
        <time>2014-01-05T09:40:12Z</time>
      </trkpt>
      <trkpt lat="44.66083" lon="-0.30313">
        <ele>65.51</ele>
        <time>2014-01-05T09:40:26Z</time>
      </trkpt>
      <trkpt lat="44.66094" lon="-0.30303">
        <ele>65.99</ele>
        <time>2014-01-05T09:40:40Z</time>
      </trkpt>
      <trkpt lat="44.66101" lon="-0.30295">
        <ele>67.91</ele>
        <time>2014-01-05T09:40:52Z</time>
      </trkpt>
      <trkpt lat="44.66104" lon="-0.30292">
        <ele>68.39</ele>
        <time>2014-01-05T09:40:58Z</time>
      </trkpt>
      <trkpt lat="44.6611" lon="-0.30283">
        <ele>69.35</ele>
        <time>2014-01-05T09:41:11Z</time>
      </trkpt>
      <trkpt lat="44.66114" lon="-0.3028">
        <ele>70.31</ele>
        <time>2014-01-05T09:41:16Z</time>
      </trkpt>
      <trkpt lat="44.66125" lon="-0.30272">
        <ele>71.76</ele>
        <time>2014-01-05T09:41:31Z</time>
      </trkpt>
      <trkpt lat="44.66134" lon="-0.30268">
        <ele>73.2</ele>
        <time>2014-01-05T09:41:44Z</time>
      </trkpt>
      <trkpt lat="44.66143" lon="-0.30263">
        <ele>74.64</ele>
        <time>2014-01-05T09:41:58Z</time>
      </trkpt>
      <trkpt lat="44.66153" lon="-0.30259">
        <ele>76.08</ele>
        <time>2014-01-05T09:42:12Z</time>
      </trkpt>
      <trkpt lat="44.66161" lon="-0.30255">
        <ele>77.04</ele>
        <time>2014-01-05T09:42:25Z</time>
      </trkpt>
      <trkpt lat="44.66169" lon="-0.3025">
        <ele>78.48</ele>
        <time>2014-01-05T09:42:39Z</time>
      </trkpt>
      <trkpt lat="44.66176" lon="-0.30246">
        <ele>79.93</ele>
        <time>2014-01-05T09:42:52Z</time>
      </trkpt>
      <trkpt lat="44.66187" lon="-0.30242">
        <ele>81.37</ele>
        <time>2014-01-05T09:43:06Z</time>
      </trkpt>
      <trkpt lat="44.66195" lon="-0.30235">
        <ele>82.81</ele>
        <time>2014-01-05T09:43:20Z</time>
      </trkpt>
      <trkpt lat="44.66202" lon="-0.30232">
        <ele>84.25</ele>
        <time>2014-01-05T09:43:33Z</time>
      </trkpt>
      <trkpt lat="44.66201" lon="-0.30233">
        <ele>84.25</ele>
        <time>2014-01-05T09:43:48Z</time>
      </trkpt>
      <trkpt lat="44.662" lon="-0.30237">
        <ele>83.77</ele>
        <time>2014-01-05T09:44:04Z</time>
      </trkpt>
      <trkpt lat="44.66198" lon="-0.30238">
        <ele>83.29</ele>
        <time>2014-01-05T09:44:23Z</time>
      </trkpt>
      <trkpt lat="44.66198" lon="-0.30237">
        <ele>83.29</ele>
        <time>2014-01-05T09:44:42Z</time>
      </trkpt>
      <trkpt lat="44.66201" lon="-0.30231">
        <ele>83.77</ele>
        <time>2014-01-05T09:44:51Z</time>
      </trkpt>
      <trkpt lat="44.66203" lon="-0.30216">
        <ele>84.73</ele>
        <time>2014-01-05T09:45:05Z</time>
      </trkpt>
      <trkpt lat="44.66207" lon="-0.30205">
        <ele>85.21</ele>
        <time>2014-01-05T09:45:17Z</time>
      </trkpt>
      <trkpt lat="44.66208" lon="-0.30203">
        <ele>85.21</ele>
        <time>2014-01-05T09:45:20Z</time>
      </trkpt>
      <trkpt lat="44.66208" lon="-0.30198">
        <ele>85.69</ele>
        <time>2014-01-05T09:45:24Z</time>
      </trkpt>
      <trkpt lat="44.66212" lon="-0.30185">
        <ele>86.18</ele>
        <time>2014-01-05T09:45:37Z</time>
      </trkpt>
      <trkpt lat="44.66212" lon="-0.30184">
        <ele>86.18</ele>
        <time>2014-01-05T09:45:38Z</time>
      </trkpt>
      <trkpt lat="44.66213" lon="-0.30181">
        <ele>86.18</ele>
        <time>2014-01-05T09:45:40Z</time>
      </trkpt>
      <trkpt lat="44.66217" lon="-0.30163">
        <ele>87.14</ele>
        <time>2014-01-05T09:45:55Z</time>
      </trkpt>
      <trkpt lat="44.6622" lon="-0.30149">
        <ele>88.1</ele>
        <time>2014-01-05T09:46:07Z</time>
      </trkpt>
      <trkpt lat="44.66225" lon="-0.30132">
        <ele>88.58</ele>
        <time>2014-01-05T09:46:22Z</time>
      </trkpt>
      <trkpt lat="44.66229" lon="-0.30126">
        <ele>89.06</ele>
        <time>2014-01-05T09:46:28Z</time>
      </trkpt>
      <trkpt lat="44.66242" lon="-0.30115">
        <ele>90.98</ele>
        <time>2014-01-05T09:46:43Z</time>
      </trkpt>
      <trkpt lat="44.66242" lon="-0.30115">
        <ele>91.94</ele>
        <time>2014-01-05T09:46:44Z</time>
      </trkpt>
      <trkpt lat="44.66246" lon="-0.30101">
        <ele>92.9</ele>
        <time>2014-01-05T09:46:57Z</time>
      </trkpt>
      <trkpt lat="44.66246" lon="-0.301">
        <ele>92.9</ele>
        <time>2014-01-05T09:46:58Z</time>
      </trkpt>
      <trkpt lat="44.66246" lon="-0.30097">
        <ele>92.42</ele>
        <time>2014-01-05T09:47:01Z</time>
      </trkpt>
      <trkpt lat="44.66248" lon="-0.30081">
        <ele>94.35</ele>
        <time>2014-01-05T09:47:15Z</time>
      </trkpt>
      <trkpt lat="44.66247" lon="-0.30064">
        <ele>95.79</ele>
        <time>2014-01-05T09:47:30Z</time>
      </trkpt>
      <trkpt lat="44.66252" lon="-0.30053">
        <ele>96.75</ele>
        <time>2014-01-05T09:47:42Z</time>
      </trkpt>
      <trkpt lat="44.66265" lon="-0.30045">
        <ele>98.19</ele>
        <time>2014-01-05T09:47:55Z</time>
      </trkpt>
      <trkpt lat="44.66274" lon="-0.30041">
        <ele>100.6</ele>
        <time>2014-01-05T09:48:09Z</time>
      </trkpt>
      <trkpt lat="44.66283" lon="-0.30037">
        <ele>102.52</ele>
        <time>2014-01-05T09:48:25Z</time>
      </trkpt>
      <trkpt lat="44.66291" lon="-0.3003">
        <ele>103.48</ele>
        <time>2014-01-05T09:48:39Z</time>
      </trkpt>
      <trkpt lat="44.66291" lon="-0.30019">
        <ele>103.96</ele>
        <time>2014-01-05T09:48:52Z</time>
      </trkpt>
      <trkpt lat="44.66289" lon="-0.30004">
        <ele>104.44</ele>
        <time>2014-01-05T09:49:05Z</time>
      </trkpt>
      <trkpt lat="44.66288" lon="-0.2999">
        <ele>105.4</ele>
        <time>2014-01-05T09:49:19Z</time>
      </trkpt>
      <trkpt lat="44.66289" lon="-0.29989">
        <ele>105.88</ele>
        <time>2014-01-05T09:49:20Z</time>
      </trkpt>
      <trkpt lat="44.66297" lon="-0.29981">
        <ele>107.32</ele>
        <time>2014-01-05T09:49:32Z</time>
      </trkpt>
      <trkpt lat="44.663" lon="-0.29979">
        <ele>107.81</ele>
        <time>2014-01-05T09:49:35Z</time>
      </trkpt>
      <trkpt lat="44.66313" lon="-0.2997">
        <ele>109.25</ele>
        <time>2014-01-05T09:49:50Z</time>
      </trkpt>
      <trkpt lat="44.66316" lon="-0.29961">
        <ele>109.25</ele>
        <time>2014-01-05T09:50:02Z</time>
      </trkpt>
      <trkpt lat="44.66313" lon="-0.29954">
        <ele>107.81</ele>
        <time>2014-01-05T09:50:11Z</time>
      </trkpt>
      <trkpt lat="44.66312" lon="-0.29952">
        <ele>108.29</ele>
        <time>2014-01-05T09:50:13Z</time>
      </trkpt>
      <trkpt lat="44.66302" lon="-0.29938">
        <ele>106.36</ele>
        <time>2014-01-05T09:50:30Z</time>
      </trkpt>
      <trkpt lat="44.66291" lon="-0.29922">
        <ele>104.92</ele>
        <time>2014-01-05T09:50:47Z</time>
      </trkpt>
      <trkpt lat="44.66282" lon="-0.2991">
        <ele>103.48</ele>
        <time>2014-01-05T09:51:02Z</time>
      </trkpt>
      <trkpt lat="44.66279" lon="-0.29895">
        <ele>102.04</ele>
        <time>2014-01-05T09:51:15Z</time>
      </trkpt>
      <trkpt lat="44.66277" lon="-0.29879">
        <ele>101.08</ele>
        <time>2014-01-05T09:51:29Z</time>
      </trkpt>
      <trkpt lat="44.66277" lon="-0.29873">
        <ele>101.08</ele>
        <time>2014-01-05T09:51:34Z</time>
      </trkpt>
      <trkpt lat="44.66272" lon="-0.2985">
        <ele>99.15</ele>
        <time>2014-01-05T09:51:50Z</time>
      </trkpt>
      <trkpt lat="44.6627" lon="-0.29833">
        <ele>97.23</ele>
        <time>2014-01-05T09:52:03Z</time>
      </trkpt>
      <trkpt lat="44.66269" lon="-0.29813">
        <ele>95.31</ele>
        <time>2014-01-05T09:52:18Z</time>
      </trkpt>
      <trkpt lat="44.66269" lon="-0.29803">
        <ele>93.87</ele>
        <time>2014-01-05T09:52:27Z</time>
      </trkpt>
      <trkpt lat="44.66269" lon="-0.29795">
        <ele>93.39</ele>
        <time>2014-01-05T09:52:33Z</time>
      </trkpt>
      <trkpt lat="44.66271" lon="-0.29774">
        <ele>91.46</ele>
        <time>2014-01-05T09:52:49Z</time>
      </trkpt>
      <trkpt lat="44.66271" lon="-0.29754">
        <ele>89.06</ele>
        <time>2014-01-05T09:53:04Z</time>
      </trkpt>
      <trkpt lat="44.66272" lon="-0.29743">
        <ele>88.58</ele>
        <time>2014-01-05T09:53:12Z</time>
      </trkpt>
      <trkpt lat="44.66273" lon="-0.2974">
        <ele>88.1</ele>
        <time>2014-01-05T09:53:14Z</time>
      </trkpt>
      <trkpt lat="44.66273" lon="-0.29737">
        <ele>88.1</ele>
        <time>2014-01-05T09:53:16Z</time>
      </trkpt>
      <trkpt lat="44.66274" lon="-0.29734">
        <ele>87.62</ele>
        <time>2014-01-05T09:53:19Z</time>
      </trkpt>
      <trkpt lat="44.66276" lon="-0.29714">
        <ele>85.69</ele>
        <time>2014-01-05T09:53:34Z</time>
      </trkpt>
      <trkpt lat="44.66276" lon="-0.29712">
        <ele>85.69</ele>
        <time>2014-01-05T09:53:35Z</time>
      </trkpt>
      <trkpt lat="44.66276" lon="-0.29708">
        <ele>85.69</ele>
        <time>2014-01-05T09:53:38Z</time>
      </trkpt>
      <trkpt lat="44.66279" lon="-0.29686">
        <ele>83.29</ele>
        <time>2014-01-05T09:53:55Z</time>
      </trkpt>
      <trkpt lat="44.66281" lon="-0.29685">
        <ele>82.81</ele>
        <time>2014-01-05T09:53:57Z</time>
      </trkpt>
      <trkpt lat="44.66283" lon="-0.29681">
        <ele>82.81</ele>
        <time>2014-01-05T09:54:00Z</time>
      </trkpt>
      <trkpt lat="44.66283" lon="-0.29664">
        <ele>82.33</ele>
        <time>2014-01-05T09:54:15Z</time>
      </trkpt>
      <trkpt lat="44.66283" lon="-0.29649">
        <ele>81.85</ele>
        <time>2014-01-05T09:54:29Z</time>
      </trkpt>
      <trkpt lat="44.66294" lon="-0.29637">
        <ele>81.85</ele>
        <time>2014-01-05T09:54:44Z</time>
      </trkpt>
      <trkpt lat="44.66305" lon="-0.29628">
        <ele>80.89</ele>
        <time>2014-01-05T09:54:59Z</time>
      </trkpt>
      <trkpt lat="44.66314" lon="-0.29613">
        <ele>79.45</ele>
        <time>2014-01-05T09:55:14Z</time>
      </trkpt>
      <trkpt lat="44.66315" lon="-0.29611">
        <ele>78.97</ele>
        <time>2014-01-05T09:55:16Z</time>
      </trkpt>
      <trkpt lat="44.66318" lon="-0.29607">
        <ele>78.48</ele>
        <time>2014-01-05T09:55:21Z</time>
      </trkpt>
      <trkpt lat="44.6632" lon="-0.29606">
        <ele>78.97</ele>
        <time>2014-01-05T09:55:23Z</time>
      </trkpt>
      <trkpt lat="44.66329" lon="-0.29594">
        <ele>77.52</ele>
        <time>2014-01-05T09:55:35Z</time>
      </trkpt>
      <trkpt lat="44.66342" lon="-0.29584">
        <ele>75.6</ele>
        <time>2014-01-05T09:55:52Z</time>
      </trkpt>
      <trkpt lat="44.66355" lon="-0.29575">
        <ele>73.68</ele>
        <time>2014-01-05T09:56:07Z</time>
      </trkpt>
      <trkpt lat="44.66371" lon="-0.2957">
        <ele>71.76</ele>
        <time>2014-01-05T09:56:24Z</time>
      </trkpt>
      <trkpt lat="44.66381" lon="-0.2957">
        <ele>70.31</ele>
        <time>2014-01-05T09:56:37Z</time>
      </trkpt>
      <trkpt lat="44.66404" lon="-0.2956">
        <ele>67.91</ele>
        <time>2014-01-05T09:56:53Z</time>
      </trkpt>
      <trkpt lat="44.66418" lon="-0.29561">
        <ele>65.03</ele>
        <time>2014-01-05T09:57:12Z</time>
      </trkpt>
      <trkpt lat="44.66428" lon="-0.29557">
        <ele>63.58</ele>
        <time>2014-01-05T09:57:29Z</time>
      </trkpt>
      <trkpt lat="44.66434" lon="-0.29562">
        <ele>62.14</ele>
        <time>2014-01-05T09:57:43Z</time>
      </trkpt>
      <trkpt lat="44.66442" lon="-0.29564">
        <ele>60.22</ele>
        <time>2014-01-05T09:57:59Z</time>
      </trkpt>
      <trkpt lat="44.66448" lon="-0.29563">
        <ele>58.78</ele>
        <time>2014-01-05T09:58:13Z</time>
      </trkpt>
      <trkpt lat="44.66457" lon="-0.29559">
        <ele>57.34</ele>
        <time>2014-01-05T09:58:27Z</time>
      </trkpt>
      <trkpt lat="44.66467" lon="-0.29555">
        <ele>55.41</ele>
        <time>2014-01-05T09:58:42Z</time>
      </trkpt>
      <trkpt lat="44.66473" lon="-0.29554">
        <ele>53.97</ele>
        <time>2014-01-05T09:58:56Z</time>
      </trkpt>
      <trkpt lat="44.66484" lon="-0.29549">
        <ele>52.53</ele>
        <time>2014-01-05T09:59:09Z</time>
      </trkpt>
      <trkpt lat="44.66489" lon="-0.29562">
        <ele>52.53</ele>
        <time>2014-01-05T09:59:35Z</time>
      </trkpt>
      <trkpt lat="44.66488" lon="-0.29562">
        <ele>53.01</ele>
        <time>2014-01-05T09:59:51Z</time>
      </trkpt>
      <trkpt lat="44.6649" lon="-0.29552">
        <ele>53.01</ele>
        <time>2014-01-05T10:00:18Z</time>
      </trkpt>
      <trkpt lat="44.66496" lon="-0.29555">
        <ele>53.01</ele>
        <time>2014-01-05T10:00:45Z</time>
      </trkpt>
      <trkpt lat="44.66491" lon="-0.29558">
        <ele>53.97</ele>
        <time>2014-01-05T10:01:05Z</time>
      </trkpt>
      <trkpt lat="44.66488" lon="-0.29558">
        <ele>53.97</ele>
        <time>2014-01-05T10:01:24Z</time>
      </trkpt>
      <trkpt lat="44.66482" lon="-0.29548">
        <ele>54.93</ele>
        <time>2014-01-05T10:01:40Z</time>
      </trkpt>
      <trkpt lat="44.66476" lon="-0.29538">
        <ele>55.89</ele>
        <time>2014-01-05T10:01:55Z</time>
      </trkpt>
      <trkpt lat="44.66468" lon="-0.29528">
        <ele>56.86</ele>
        <time>2014-01-05T10:02:08Z</time>
      </trkpt>
      <trkpt lat="44.66461" lon="-0.29517">
        <ele>58.3</ele>
        <time>2014-01-05T10:02:19Z</time>
      </trkpt>
      <trkpt lat="44.66453" lon="-0.29506">
        <ele>59.26</ele>
        <time>2014-01-05T10:02:32Z</time>
      </trkpt>
      <trkpt lat="44.66445" lon="-0.29502">
        <ele>60.22</ele>
        <time>2014-01-05T10:02:44Z</time>
      </trkpt>
      <trkpt lat="44.66431" lon="-0.29495">
        <ele>61.66</ele>
        <time>2014-01-05T10:02:59Z</time>
      </trkpt>
      <trkpt lat="44.66428" lon="-0.29494">
        <ele>62.62</ele>
        <time>2014-01-05T10:03:05Z</time>
      </trkpt>
      <trkpt lat="44.66412" lon="-0.29493">
        <ele>63.58</ele>
        <time>2014-01-05T10:03:19Z</time>
      </trkpt>
      <trkpt lat="44.66397" lon="-0.29497">
        <ele>65.03</ele>
        <time>2014-01-05T10:03:34Z</time>
      </trkpt>
      <trkpt lat="44.66387" lon="-0.295">
        <ele>65.99</ele>
        <time>2014-01-05T10:03:46Z</time>
      </trkpt>
      <trkpt lat="44.66376" lon="-0.29496">
        <ele>67.43</ele>
        <time>2014-01-05T10:03:58Z</time>
      </trkpt>
      <trkpt lat="44.66363" lon="-0.29495">
        <ele>68.87</ele>
        <time>2014-01-05T10:04:11Z</time>
      </trkpt>
      <trkpt lat="44.66353" lon="-0.29489">
        <ele>70.31</ele>
        <time>2014-01-05T10:04:25Z</time>
      </trkpt>
      <trkpt lat="44.66345" lon="-0.29494">
        <ele>71.27</ele>
        <time>2014-01-05T10:04:38Z</time>
      </trkpt>
      <trkpt lat="44.66328" lon="-0.29498">
        <ele>72.24</ele>
        <time>2014-01-05T10:04:53Z</time>
      </trkpt>
      <trkpt lat="44.66315" lon="-0.2951">
        <ele>72.24</ele>
        <time>2014-01-05T10:05:07Z</time>
      </trkpt>
      <trkpt lat="44.66295" lon="-0.29517">
        <ele>71.27</ele>
        <time>2014-01-05T10:05:22Z</time>
      </trkpt>
      <trkpt lat="44.66288" lon="-0.29522">
        <ele>70.79</ele>
        <time>2014-01-05T10:05:27Z</time>
      </trkpt>
      <trkpt lat="44.66286" lon="-0.29523">
        <ele>70.79</ele>
        <time>2014-01-05T10:05:29Z</time>
      </trkpt>
      <trkpt lat="44.66263" lon="-0.29539">
        <ele>70.31</ele>
        <time>2014-01-05T10:05:45Z</time>
      </trkpt>
      <trkpt lat="44.66246" lon="-0.2955">
        <ele>69.35</ele>
        <time>2014-01-05T10:06:01Z</time>
      </trkpt>
      <trkpt lat="44.66231" lon="-0.29559">
        <ele>68.87</ele>
        <time>2014-01-05T10:06:14Z</time>
      </trkpt>
      <trkpt lat="44.66224" lon="-0.29561">
        <ele>68.39</ele>
        <time>2014-01-05T10:06:21Z</time>
      </trkpt>
      <trkpt lat="44.66208" lon="-0.29561">
        <ele>68.39</ele>
        <time>2014-01-05T10:06:36Z</time>
      </trkpt>
      <trkpt lat="44.66203" lon="-0.29551">
        <ele>67.91</ele>
        <time>2014-01-05T10:06:40Z</time>
      </trkpt>
      <trkpt lat="44.66189" lon="-0.29529">
        <ele>67.91</ele>
        <time>2014-01-05T10:06:46Z</time>
      </trkpt>
      <trkpt lat="44.66183" lon="-0.29517">
        <ele>66.47</ele>
        <time>2014-01-05T10:06:52Z</time>
      </trkpt>
      <trkpt lat="44.66178" lon="-0.29504">
        <ele>65.51</ele>
        <time>2014-01-05T10:07:01Z</time>
      </trkpt>
      <trkpt lat="44.66176" lon="-0.29497">
        <ele>64.55</ele>
        <time>2014-01-05T10:07:06Z</time>
      </trkpt>
      <trkpt lat="44.66169" lon="-0.29472">
        <ele>63.1</ele>
        <time>2014-01-05T10:07:22Z</time>
      </trkpt>
      <trkpt lat="44.66164" lon="-0.29455">
        <ele>62.14</ele>
        <time>2014-01-05T10:07:33Z</time>
      </trkpt>
      <trkpt lat="44.66159" lon="-0.29437">
        <ele>61.18</ele>
        <time>2014-01-05T10:07:45Z</time>
      </trkpt>
      <trkpt lat="44.66156" lon="-0.29422">
        <ele>60.22</ele>
        <time>2014-01-05T10:07:55Z</time>
      </trkpt>
      <trkpt lat="44.66151" lon="-0.29398">
        <ele>58.3</ele>
        <time>2014-01-05T10:08:11Z</time>
      </trkpt>
      <trkpt lat="44.66149" lon="-0.2939">
        <ele>57.82</ele>
        <time>2014-01-05T10:08:18Z</time>
      </trkpt>
      <trkpt lat="44.66142" lon="-0.29375">
        <ele>56.86</ele>
        <time>2014-01-05T10:08:32Z</time>
      </trkpt>
      <trkpt lat="44.66138" lon="-0.29371">
        <ele>56.86</ele>
        <time>2014-01-05T10:08:37Z</time>
      </trkpt>
      <trkpt lat="44.66132" lon="-0.29367">
        <ele>56.86</ele>
        <time>2014-01-05T10:08:44Z</time>
      </trkpt>
      <trkpt lat="44.66121" lon="-0.29356">
        <ele>55.41</ele>
        <time>2014-01-05T10:08:59Z</time>
      </trkpt>
      <trkpt lat="44.66111" lon="-0.29344">
        <ele>53.97</ele>
        <time>2014-01-05T10:09:14Z</time>
      </trkpt>
      <trkpt lat="44.66104" lon="-0.29336">
        <ele>53.01</ele>
        <time>2014-01-05T10:09:23Z</time>
      </trkpt>
      <trkpt lat="44.66102" lon="-0.29333">
        <ele>52.53</ele>
        <time>2014-01-05T10:09:25Z</time>
      </trkpt>
      <trkpt lat="44.66092" lon="-0.29325">
        <ele>52.05</ele>
        <time>2014-01-05T10:09:37Z</time>
      </trkpt>
      <trkpt lat="44.6609" lon="-0.29324">
        <ele>52.05</ele>
        <time>2014-01-05T10:09:39Z</time>
      </trkpt>
      <trkpt lat="44.66085" lon="-0.29322">
        <ele>51.57</ele>
        <time>2014-01-05T10:09:44Z</time>
      </trkpt>
      <trkpt lat="44.6607" lon="-0.2931">
        <ele>50.61</ele>
        <time>2014-01-05T10:09:59Z</time>
      </trkpt>
      <trkpt lat="44.66067" lon="-0.29309">
        <ele>50.13</ele>
        <time>2014-01-05T10:10:02Z</time>
      </trkpt>
      <trkpt lat="44.66052" lon="-0.293">
        <ele>48.68</ele>
        <time>2014-01-05T10:10:18Z</time>
      </trkpt>
      <trkpt lat="44.66033" lon="-0.29287">
        <ele>46.28</ele>
        <time>2014-01-05T10:10:34Z</time>
      </trkpt>
      <trkpt lat="44.66027" lon="-0.29283">
        <ele>46.28</ele>
        <time>2014-01-05T10:10:37Z</time>
      </trkpt>
      <trkpt lat="44.66013" lon="-0.29273">
        <ele>44.36</ele>
        <time>2014-01-05T10:10:52Z</time>
      </trkpt>
      <trkpt lat="44.65998" lon="-0.29264">
        <ele>42.44</ele>
        <time>2014-01-05T10:11:08Z</time>
      </trkpt>
      <trkpt lat="44.65989" lon="-0.2926">
        <ele>41.47</ele>
        <time>2014-01-05T10:11:16Z</time>
      </trkpt>
      <trkpt lat="44.65983" lon="-0.29256">
        <ele>40.99</ele>
        <time>2014-01-05T10:11:22Z</time>
      </trkpt>
      <trkpt lat="44.65981" lon="-0.29255">
        <ele>40.51</ele>
        <time>2014-01-05T10:11:24Z</time>
      </trkpt>
      <trkpt lat="44.65964" lon="-0.29245">
        <ele>39.55</ele>
        <time>2014-01-05T10:11:41Z</time>
      </trkpt>
      <trkpt lat="44.65957" lon="-0.2924">
        <ele>39.55</ele>
        <time>2014-01-05T10:11:49Z</time>
      </trkpt>
      <trkpt lat="44.6595" lon="-0.29245">
        <ele>40.03</ele>
        <time>2014-01-05T10:11:57Z</time>
      </trkpt>
      <trkpt lat="44.65938" lon="-0.29258">
        <ele>40.03</ele>
        <time>2014-01-05T10:12:11Z</time>
      </trkpt>
      <trkpt lat="44.6593" lon="-0.29269">
        <ele>40.03</ele>
        <time>2014-01-05T10:12:23Z</time>
      </trkpt>
      <trkpt lat="44.65929" lon="-0.29271">
        <ele>40.51</ele>
        <time>2014-01-05T10:12:25Z</time>
      </trkpt>
      <trkpt lat="44.65917" lon="-0.29285">
        <ele>39.55</ele>
        <time>2014-01-05T10:12:40Z</time>
      </trkpt>
      <trkpt lat="44.65905" lon="-0.29294">
        <ele>39.55</ele>
        <time>2014-01-05T10:12:54Z</time>
      </trkpt>
      <trkpt lat="44.65905" lon="-0.29305">
        <ele>39.55</ele>
        <time>2014-01-05T10:13:01Z</time>
      </trkpt>
      <trkpt lat="44.65904" lon="-0.29311">
        <ele>39.07</ele>
        <time>2014-01-05T10:13:05Z</time>
      </trkpt>
      <trkpt lat="44.65902" lon="-0.29341">
        <ele>38.59</ele>
        <time>2014-01-05T10:13:22Z</time>
      </trkpt>
      <trkpt lat="44.659" lon="-0.29364">
        <ele>39.55</ele>
        <time>2014-01-05T10:13:38Z</time>
      </trkpt>
      <trkpt lat="44.65899" lon="-0.29369">
        <ele>39.55</ele>
        <time>2014-01-05T10:13:41Z</time>
      </trkpt>
      <trkpt lat="44.65891" lon="-0.29387">
        <ele>40.51</ele>
        <time>2014-01-05T10:13:58Z</time>
      </trkpt>
      <trkpt lat="44.65881" lon="-0.2939">
        <ele>40.51</ele>
        <time>2014-01-05T10:14:11Z</time>
      </trkpt>
      <trkpt lat="44.65872" lon="-0.29387">
        <ele>40.03</ele>
        <time>2014-01-05T10:14:24Z</time>
      </trkpt>
      <trkpt lat="44.65867" lon="-0.29386">
        <ele>39.55</ele>
        <time>2014-01-05T10:14:30Z</time>
      </trkpt>
      <trkpt lat="44.65852" lon="-0.29384">
        <ele>40.03</ele>
        <time>2014-01-05T10:14:44Z</time>
      </trkpt>
      <trkpt lat="44.65833" lon="-0.2938">
        <ele>39.55</ele>
        <time>2014-01-05T10:15:02Z</time>
      </trkpt>
      <trkpt lat="44.65819" lon="-0.29366">
        <ele>39.07</ele>
        <time>2014-01-05T10:15:16Z</time>
      </trkpt>
      <trkpt lat="44.65814" lon="-0.29366">
        <ele>39.07</ele>
        <time>2014-01-05T10:15:23Z</time>
      </trkpt>
      <trkpt lat="44.65805" lon="-0.29355">
        <ele>40.03</ele>
        <time>2014-01-05T10:15:32Z</time>
      </trkpt>
      <trkpt lat="44.65803" lon="-0.29336">
        <ele>39.07</ele>
        <time>2014-01-05T10:15:44Z</time>
      </trkpt>
      <trkpt lat="44.65803" lon="-0.29332">
        <ele>39.07</ele>
        <time>2014-01-05T10:15:47Z</time>
      </trkpt>
      <trkpt lat="44.65804" lon="-0.29321">
        <ele>39.07</ele>
        <time>2014-01-05T10:15:54Z</time>
      </trkpt>
      <trkpt lat="44.65806" lon="-0.29308">
        <ele>38.59</ele>
        <time>2014-01-05T10:16:03Z</time>
      </trkpt>
      <trkpt lat="44.65808" lon="-0.29283">
        <ele>38.59</ele>
        <time>2014-01-05T10:16:19Z</time>
      </trkpt>
      <trkpt lat="44.65808" lon="-0.29277">
        <ele>38.59</ele>
        <time>2014-01-05T10:16:23Z</time>
      </trkpt>
      <trkpt lat="44.6581" lon="-0.29257">
        <ele>39.07</ele>
        <time>2014-01-05T10:16:36Z</time>
      </trkpt>
      <trkpt lat="44.65813" lon="-0.29236">
        <ele>39.07</ele>
        <time>2014-01-05T10:16:51Z</time>
      </trkpt>
      <trkpt lat="44.65818" lon="-0.29213">
        <ele>37.15</ele>
        <time>2014-01-05T10:17:06Z</time>
      </trkpt>
      <trkpt lat="44.65827" lon="-0.29192">
        <ele>36.67</ele>
        <time>2014-01-05T10:17:22Z</time>
      </trkpt>
      <trkpt lat="44.65838" lon="-0.29169">
        <ele>36.67</ele>
        <time>2014-01-05T10:17:39Z</time>
      </trkpt>
      <trkpt lat="44.6585" lon="-0.29152">
        <ele>37.15</ele>
        <time>2014-01-05T10:17:53Z</time>
      </trkpt>
      <trkpt lat="44.65864" lon="-0.2914">
        <ele>37.15</ele>
        <time>2014-01-05T10:18:07Z</time>
      </trkpt>
      <trkpt lat="44.65878" lon="-0.29132">
        <ele>36.67</ele>
        <time>2014-01-05T10:18:24Z</time>
      </trkpt>
      <trkpt lat="44.65889" lon="-0.29129">
        <ele>36.19</ele>
        <time>2014-01-05T10:18:35Z</time>
      </trkpt>
      <trkpt lat="44.65906" lon="-0.29126">
        <ele>36.19</ele>
        <time>2014-01-05T10:18:50Z</time>
      </trkpt>
      <trkpt lat="44.65918" lon="-0.29123">
        <ele>36.19</ele>
        <time>2014-01-05T10:19:03Z</time>
      </trkpt>
      <trkpt lat="44.65919" lon="-0.29122">
        <ele>36.19</ele>
        <time>2014-01-05T10:19:04Z</time>
      </trkpt>
      <trkpt lat="44.65929" lon="-0.2912">
        <ele>36.19</ele>
        <time>2014-01-05T10:19:11Z</time>
      </trkpt>
      <trkpt lat="44.65941" lon="-0.29121">
        <ele>36.19</ele>
        <time>2014-01-05T10:19:25Z</time>
      </trkpt>
      <trkpt lat="44.65956" lon="-0.29116">
        <ele>36.67</ele>
        <time>2014-01-05T10:19:40Z</time>
      </trkpt>
      <trkpt lat="44.6596" lon="-0.29117">
        <ele>37.15</ele>
        <time>2014-01-05T10:19:52Z</time>
      </trkpt>
      <trkpt lat="44.6597" lon="-0.29121">
        <ele>38.11</ele>
        <time>2014-01-05T10:20:06Z</time>
      </trkpt>
      <trkpt lat="44.65983" lon="-0.29123">
        <ele>40.03</ele>
        <time>2014-01-05T10:20:21Z</time>
      </trkpt>
      <trkpt lat="44.65994" lon="-0.29125">
        <ele>41.47</ele>
        <time>2014-01-05T10:20:36Z</time>
      </trkpt>
      <trkpt lat="44.66029" lon="-0.29109">
        <ele>41.95</ele>
        <time>2014-01-05T10:20:52Z</time>
      </trkpt>
      <trkpt lat="44.66043" lon="-0.29116">
        <ele>41.95</ele>
        <time>2014-01-05T10:21:08Z</time>
      </trkpt>
      <trkpt lat="44.66055" lon="-0.29125">
        <ele>41.47</ele>
        <time>2014-01-05T10:21:23Z</time>
      </trkpt>
      <trkpt lat="44.66067" lon="-0.29128">
        <ele>41.47</ele>
        <time>2014-01-05T10:21:37Z</time>
      </trkpt>
      <trkpt lat="44.66083" lon="-0.29139">
        <ele>40.03</ele>
        <time>2014-01-05T10:21:52Z</time>
      </trkpt>
      <trkpt lat="44.66092" lon="-0.29147">
        <ele>39.07</ele>
        <time>2014-01-05T10:22:04Z</time>
      </trkpt>
      <trkpt lat="44.66102" lon="-0.29158">
        <ele>37.63</ele>
        <time>2014-01-05T10:22:17Z</time>
      </trkpt>
      <trkpt lat="44.66106" lon="-0.2916">
        <ele>37.63</ele>
        <time>2014-01-05T10:22:21Z</time>
      </trkpt>
      <trkpt lat="44.66112" lon="-0.29165">
        <ele>37.63</ele>
        <time>2014-01-05T10:22:29Z</time>
      </trkpt>
      <trkpt lat="44.66124" lon="-0.29169">
        <ele>39.07</ele>
        <time>2014-01-05T10:22:44Z</time>
      </trkpt>
      <trkpt lat="44.66135" lon="-0.29166">
        <ele>40.03</ele>
        <time>2014-01-05T10:23:00Z</time>
      </trkpt>
      <trkpt lat="44.66138" lon="-0.29166">
        <ele>40.03</ele>
        <time>2014-01-05T10:23:03Z</time>
      </trkpt>
      <trkpt lat="44.66148" lon="-0.29159">
        <ele>41.95</ele>
        <time>2014-01-05T10:23:17Z</time>
      </trkpt>
      <trkpt lat="44.66158" lon="-0.29152">
        <ele>42.44</ele>
        <time>2014-01-05T10:23:29Z</time>
      </trkpt>
      <trkpt lat="44.66166" lon="-0.29145">
        <ele>42.92</ele>
        <time>2014-01-05T10:23:42Z</time>
      </trkpt>
      <trkpt lat="44.66178" lon="-0.29137">
        <ele>43.4</ele>
        <time>2014-01-05T10:23:56Z</time>
      </trkpt>
      <trkpt lat="44.6619" lon="-0.29127">
        <ele>43.4</ele>
        <time>2014-01-05T10:24:08Z</time>
      </trkpt>
      <trkpt lat="44.66204" lon="-0.29118">
        <ele>42.92</ele>
        <time>2014-01-05T10:24:24Z</time>
      </trkpt>
      <trkpt lat="44.66216" lon="-0.29113">
        <ele>42.92</ele>
        <time>2014-01-05T10:24:38Z</time>
      </trkpt>
      <trkpt lat="44.66218" lon="-0.29101">
        <ele>43.88</ele>
        <time>2014-01-05T10:24:51Z</time>
      </trkpt>
      <trkpt lat="44.66218" lon="-0.29098">
        <ele>43.4</ele>
        <time>2014-01-05T10:24:54Z</time>
      </trkpt>
      <trkpt lat="44.66223" lon="-0.29079">
        <ele>44.84</ele>
        <time>2014-01-05T10:25:11Z</time>
      </trkpt>
      <trkpt lat="44.66226" lon="-0.29064">
        <ele>45.32</ele>
        <time>2014-01-05T10:25:24Z</time>
      </trkpt>
      <trkpt lat="44.66238" lon="-0.29055">
        <ele>45.32</ele>
        <time>2014-01-05T10:25:33Z</time>
      </trkpt>
      <trkpt lat="44.6625" lon="-0.29055">
        <ele>44.84</ele>
        <time>2014-01-05T10:25:42Z</time>
      </trkpt>
      <trkpt lat="44.66263" lon="-0.29052">
        <ele>44.36</ele>
        <time>2014-01-05T10:25:56Z</time>
      </trkpt>
      <trkpt lat="44.6628" lon="-0.2905">
        <ele>43.88</ele>
        <time>2014-01-05T10:26:13Z</time>
      </trkpt>
      <trkpt lat="44.66291" lon="-0.29048">
        <ele>43.4</ele>
        <time>2014-01-05T10:26:29Z</time>
      </trkpt>
      <trkpt lat="44.6629" lon="-0.29045">
        <ele>43.88</ele>
        <time>2014-01-05T10:26:32Z</time>
      </trkpt>
      <trkpt lat="44.66289" lon="-0.29027">
        <ele>44.36</ele>
        <time>2014-01-05T10:26:48Z</time>
      </trkpt>
      <trkpt lat="44.66288" lon="-0.29005">
        <ele>45.8</ele>
        <time>2014-01-05T10:27:05Z</time>
      </trkpt>
      <trkpt lat="44.66286" lon="-0.28983">
        <ele>46.28</ele>
        <time>2014-01-05T10:27:20Z</time>
      </trkpt>
      <trkpt lat="44.66285" lon="-0.28964">
        <ele>46.76</ele>
        <time>2014-01-05T10:27:33Z</time>
      </trkpt>
      <trkpt lat="44.66282" lon="-0.28943">
        <ele>47.24</ele>
        <time>2014-01-05T10:27:49Z</time>
      </trkpt>
      <trkpt lat="44.66281" lon="-0.2894">
        <ele>47.24</ele>
        <time>2014-01-05T10:27:51Z</time>
      </trkpt>
      <trkpt lat="44.66278" lon="-0.28918">
        <ele>47.24</ele>
        <time>2014-01-05T10:28:06Z</time>
      </trkpt>
      <trkpt lat="44.66277" lon="-0.28897">
        <ele>46.76</ele>
        <time>2014-01-05T10:28:20Z</time>
      </trkpt>
      <trkpt lat="44.66277" lon="-0.28876">
        <ele>46.28</ele>
        <time>2014-01-05T10:28:33Z</time>
      </trkpt>
      <trkpt lat="44.66276" lon="-0.28851">
        <ele>46.28</ele>
        <time>2014-01-05T10:28:50Z</time>
      </trkpt>
      <trkpt lat="44.66275" lon="-0.28843">
        <ele>45.8</ele>
        <time>2014-01-05T10:28:55Z</time>
      </trkpt>
      <trkpt lat="44.66276" lon="-0.28829">
        <ele>45.32</ele>
        <time>2014-01-05T10:29:05Z</time>
      </trkpt>
      <trkpt lat="44.66274" lon="-0.28825">
        <ele>45.8</ele>
        <time>2014-01-05T10:29:19Z</time>
      </trkpt>
      <trkpt lat="44.66269" lon="-0.28824">
        <ele>46.28</ele>
        <time>2014-01-05T10:29:29Z</time>
      </trkpt>
      <trkpt lat="44.66266" lon="-0.28824">
        <ele>46.76</ele>
        <time>2014-01-05T10:29:34Z</time>
      </trkpt>
      <trkpt lat="44.66253" lon="-0.28832">
        <ele>47.72</ele>
        <time>2014-01-05T10:29:49Z</time>
      </trkpt>
      <trkpt lat="44.66242" lon="-0.28836">
        <ele>48.2</ele>
        <time>2014-01-05T10:30:03Z</time>
      </trkpt>
      <trkpt lat="44.66231" lon="-0.28837">
        <ele>49.65</ele>
        <time>2014-01-05T10:30:16Z</time>
      </trkpt>
      <trkpt lat="44.66222" lon="-0.28836">
        <ele>49.65</ele>
        <time>2014-01-05T10:30:29Z</time>
      </trkpt>
      <trkpt lat="44.6622" lon="-0.28833">
        <ele>49.65</ele>
        <time>2014-01-05T10:30:33Z</time>
      </trkpt>
      <trkpt lat="44.66213" lon="-0.28822">
        <ele>49.16</ele>
        <time>2014-01-05T10:30:44Z</time>
      </trkpt>
      <trkpt lat="44.66215" lon="-0.28819">
        <ele>48.68</ele>
        <time>2014-01-05T10:30:55Z</time>
      </trkpt>
      <trkpt lat="44.66222" lon="-0.28817">
        <ele>47.72</ele>
        <time>2014-01-05T10:31:04Z</time>
      </trkpt>
      <trkpt lat="44.66235" lon="-0.28815">
        <ele>46.28</ele>
        <time>2014-01-05T10:31:18Z</time>
      </trkpt>
      <trkpt lat="44.66244" lon="-0.28815">
        <ele>44.84</ele>
        <time>2014-01-05T10:31:27Z</time>
      </trkpt>
      <trkpt lat="44.66259" lon="-0.28814">
        <ele>43.4</ele>
        <time>2014-01-05T10:31:43Z</time>
      </trkpt>
      <trkpt lat="44.66271" lon="-0.28815">
        <ele>41.47</ele>
        <time>2014-01-05T10:31:58Z</time>
      </trkpt>
      <trkpt lat="44.66282" lon="-0.28808">
        <ele>39.55</ele>
        <time>2014-01-05T10:32:12Z</time>
      </trkpt>
      <trkpt lat="44.66289" lon="-0.28802">
        <ele>39.07</ele>
        <time>2014-01-05T10:32:23Z</time>
      </trkpt>
      <trkpt lat="44.66304" lon="-0.28794">
        <ele>38.11</ele>
        <time>2014-01-05T10:32:38Z</time>
      </trkpt>
      <trkpt lat="44.66315" lon="-0.28791">
        <ele>36.67</ele>
        <time>2014-01-05T10:32:52Z</time>
      </trkpt>
      <trkpt lat="44.66321" lon="-0.28782">
        <ele>35.71</ele>
        <time>2014-01-05T10:33:04Z</time>
      </trkpt>
      <trkpt lat="44.66329" lon="-0.28775">
        <ele>35.23</ele>
        <time>2014-01-05T10:33:16Z</time>
      </trkpt>
      <trkpt lat="44.66337" lon="-0.28769">
        <ele>35.71</ele>
        <time>2014-01-05T10:33:30Z</time>
      </trkpt>
      <trkpt lat="44.6634" lon="-0.28786">
        <ele>36.19</ele>
        <time>2014-01-05T10:33:44Z</time>
      </trkpt>
      <trkpt lat="44.66335" lon="-0.288">
        <ele>37.15</ele>
        <time>2014-01-05T10:34:00Z</time>
      </trkpt>
      <trkpt lat="44.66333" lon="-0.28799">
        <ele>38.59</ele>
        <time>2014-01-05T10:34:13Z</time>
      </trkpt>
      <trkpt lat="44.66322" lon="-0.28805">
        <ele>40.51</ele>
        <time>2014-01-05T10:34:28Z</time>
      </trkpt>
      <trkpt lat="44.66314" lon="-0.28798">
        <ele>41.95</ele>
        <time>2014-01-05T10:34:40Z</time>
      </trkpt>
      <trkpt lat="44.66309" lon="-0.28786">
        <ele>43.88</ele>
        <time>2014-01-05T10:34:55Z</time>
      </trkpt>
      <trkpt lat="44.66298" lon="-0.2879">
        <ele>45.32</ele>
        <time>2014-01-05T10:35:10Z</time>
      </trkpt>
      <trkpt lat="44.66292" lon="-0.28785">
        <ele>46.28</ele>
        <time>2014-01-05T10:35:22Z</time>
      </trkpt>
      <trkpt lat="44.66281" lon="-0.28781">
        <ele>46.76</ele>
        <time>2014-01-05T10:35:35Z</time>
      </trkpt>
      <trkpt lat="44.66274" lon="-0.28778">
        <ele>47.72</ele>
        <time>2014-01-05T10:35:48Z</time>
      </trkpt>
      <trkpt lat="44.66265" lon="-0.28761">
        <ele>48.2</ele>
        <time>2014-01-05T10:36:03Z</time>
      </trkpt>
      <trkpt lat="44.6626" lon="-0.28752">
        <ele>49.16</ele>
        <time>2014-01-05T10:36:17Z</time>
      </trkpt>
      <trkpt lat="44.66255" lon="-0.28735">
        <ele>50.13</ele>
        <time>2014-01-05T10:36:32Z</time>
      </trkpt>
      <trkpt lat="44.66255" lon="-0.28725">
        <ele>50.13</ele>
        <time>2014-01-05T10:36:42Z</time>
      </trkpt>
      <trkpt lat="44.66252" lon="-0.2872">
        <ele>50.61</ele>
        <time>2014-01-05T10:36:56Z</time>
      </trkpt>
      <trkpt lat="44.66249" lon="-0.2871">
        <ele>51.09</ele>
        <time>2014-01-05T10:37:09Z</time>
      </trkpt>
      <trkpt lat="44.66251" lon="-0.28703">
        <ele>51.09</ele>
        <time>2014-01-05T10:37:32Z</time>
      </trkpt>
      <trkpt lat="44.66255" lon="-0.28698">
        <ele>50.61</ele>
        <time>2014-01-05T10:37:55Z</time>
      </trkpt>
      <trkpt lat="44.66257" lon="-0.28696">
        <ele>51.09</ele>
        <time>2014-01-05T10:37:58Z</time>
      </trkpt>
      <trkpt lat="44.6627" lon="-0.28684">
        <ele>50.13</ele>
        <time>2014-01-05T10:38:14Z</time>
      </trkpt>
      <trkpt lat="44.66281" lon="-0.28673">
        <ele>49.16</ele>
        <time>2014-01-05T10:38:30Z</time>
      </trkpt>
      <trkpt lat="44.66289" lon="-0.28659">
        <ele>48.68</ele>
        <time>2014-01-05T10:38:43Z</time>
      </trkpt>
      <trkpt lat="44.66291" lon="-0.28657">
        <ele>48.68</ele>
        <time>2014-01-05T10:38:46Z</time>
      </trkpt>
      <trkpt lat="44.66302" lon="-0.2864">
        <ele>47.72</ele>
        <time>2014-01-05T10:39:01Z</time>
      </trkpt>
      <trkpt lat="44.66308" lon="-0.2863">
        <ele>46.76</ele>
        <time>2014-01-05T10:39:10Z</time>
      </trkpt>
      <trkpt lat="44.66316" lon="-0.28616">
        <ele>45.8</ele>
        <time>2014-01-05T10:39:23Z</time>
      </trkpt>
      <trkpt lat="44.66323" lon="-0.28598">
        <ele>45.32</ele>
        <time>2014-01-05T10:39:36Z</time>
      </trkpt>
      <trkpt lat="44.66325" lon="-0.28595">
        <ele>44.84</ele>
        <time>2014-01-05T10:39:38Z</time>
      </trkpt>
      <trkpt lat="44.66331" lon="-0.2857">
        <ele>43.4</ele>
        <time>2014-01-05T10:39:55Z</time>
      </trkpt>
      <trkpt lat="44.66335" lon="-0.28548">
        <ele>42.44</ele>
        <time>2014-01-05T10:40:10Z</time>
      </trkpt>
      <trkpt lat="44.66342" lon="-0.28525">
        <ele>40.99</ele>
        <time>2014-01-05T10:40:28Z</time>
      </trkpt>
      <trkpt lat="44.66346" lon="-0.28511">
        <ele>40.51</ele>
        <time>2014-01-05T10:40:39Z</time>
      </trkpt>
      <trkpt lat="44.66347" lon="-0.285">
        <ele>40.03</ele>
        <time>2014-01-05T10:40:47Z</time>
      </trkpt>
      <trkpt lat="44.66348" lon="-0.28478">
        <ele>40.03</ele>
        <time>2014-01-05T10:41:02Z</time>
      </trkpt>
      <trkpt lat="44.66348" lon="-0.28477">
        <ele>39.55</ele>
        <time>2014-01-05T10:41:03Z</time>
      </trkpt>
      <trkpt lat="44.66353" lon="-0.2846">
        <ele>39.55</ele>
        <time>2014-01-05T10:41:16Z</time>
      </trkpt>
      <trkpt lat="44.66356" lon="-0.28451">
        <ele>39.55</ele>
        <time>2014-01-05T10:41:26Z</time>
      </trkpt>
      <trkpt lat="44.6636" lon="-0.28436">
        <ele>39.07</ele>
        <time>2014-01-05T10:41:39Z</time>
      </trkpt>
      <trkpt lat="44.66362" lon="-0.28441">
        <ele>39.07</ele>
        <time>2014-01-05T10:41:52Z</time>
      </trkpt>
      <trkpt lat="44.66359" lon="-0.28438">
        <ele>38.59</ele>
        <time>2014-01-05T10:42:14Z</time>
      </trkpt>
      <trkpt lat="44.66358" lon="-0.28437">
        <ele>38.59</ele>
        <time>2014-01-05T10:42:32Z</time>
      </trkpt>
      <trkpt lat="44.66359" lon="-0.28438">
        <ele>38.59</ele>
        <time>2014-01-05T10:42:38Z</time>
      </trkpt>
      <trkpt lat="44.66361" lon="-0.28434">
        <ele>39.55</ele>
        <time>2014-01-05T10:42:40Z</time>
      </trkpt>
      <trkpt lat="44.66358" lon="-0.2843">
        <ele>39.55</ele>
        <time>2014-01-05T10:42:51Z</time>
      </trkpt>
      <trkpt lat="44.66359" lon="-0.28405">
        <ele>39.07</ele>
        <time>2014-01-05T10:43:06Z</time>
      </trkpt>
      <trkpt lat="44.66357" lon="-0.28387">
        <ele>38.59</ele>
        <time>2014-01-05T10:43:20Z</time>
      </trkpt>
      <trkpt lat="44.66348" lon="-0.28379">
        <ele>38.59</ele>
        <time>2014-01-05T10:43:32Z</time>
      </trkpt>
      <trkpt lat="44.66338" lon="-0.28364">
        <ele>39.07</ele>
        <time>2014-01-05T10:43:46Z</time>
      </trkpt>
      <trkpt lat="44.66327" lon="-0.28348">
        <ele>39.07</ele>
        <time>2014-01-05T10:44:00Z</time>
      </trkpt>
      <trkpt lat="44.66323" lon="-0.28337">
        <ele>39.07</ele>
        <time>2014-01-05T10:44:16Z</time>
      </trkpt>
      <trkpt lat="44.66317" lon="-0.28327">
        <ele>39.07</ele>
        <time>2014-01-05T10:44:31Z</time>
      </trkpt>
      <trkpt lat="44.66311" lon="-0.28306">
        <ele>39.07</ele>
        <time>2014-01-05T10:44:45Z</time>
      </trkpt>
      <trkpt lat="44.66308" lon="-0.28294">
        <ele>39.07</ele>
        <time>2014-01-05T10:44:57Z</time>
      </trkpt>
      <trkpt lat="44.66301" lon="-0.28284">
        <ele>39.55</ele>
        <time>2014-01-05T10:45:10Z</time>
      </trkpt>
      <trkpt lat="44.66298" lon="-0.28274">
        <ele>39.55</ele>
        <time>2014-01-05T10:45:22Z</time>
      </trkpt>
      <trkpt lat="44.66293" lon="-0.28271">
        <ele>39.55</ele>
        <time>2014-01-05T10:45:34Z</time>
      </trkpt>
      <trkpt lat="44.66286" lon="-0.2826">
        <ele>39.55</ele>
        <time>2014-01-05T10:45:50Z</time>
      </trkpt>
      <trkpt lat="44.66277" lon="-0.28245">
        <ele>39.55</ele>
        <time>2014-01-05T10:46:04Z</time>
      </trkpt>
      <trkpt lat="44.66274" lon="-0.28236">
        <ele>39.55</ele>
        <time>2014-01-05T10:46:17Z</time>
      </trkpt>
      <trkpt lat="44.66266" lon="-0.28226">
        <ele>39.07</ele>
        <time>2014-01-05T10:46:33Z</time>
      </trkpt>
      <trkpt lat="44.6626" lon="-0.28217">
        <ele>39.55</ele>
        <time>2014-01-05T10:46:49Z</time>
      </trkpt>
      <trkpt lat="44.66254" lon="-0.28203">
        <ele>39.55</ele>
        <time>2014-01-05T10:47:01Z</time>
      </trkpt>
      <trkpt lat="44.66248" lon="-0.28186">
        <ele>39.55</ele>
        <time>2014-01-05T10:47:16Z</time>
      </trkpt>
      <trkpt lat="44.66244" lon="-0.28178">
        <ele>39.55</ele>
        <time>2014-01-05T10:47:25Z</time>
      </trkpt>
      <trkpt lat="44.66237" lon="-0.28165">
        <ele>39.55</ele>
        <time>2014-01-05T10:47:38Z</time>
      </trkpt>
      <trkpt lat="44.66233" lon="-0.28152">
        <ele>40.03</ele>
        <time>2014-01-05T10:47:51Z</time>
      </trkpt>
      <trkpt lat="44.66226" lon="-0.2814">
        <ele>40.03</ele>
        <time>2014-01-05T10:48:06Z</time>
      </trkpt>
      <trkpt lat="44.66216" lon="-0.28124">
        <ele>40.03</ele>
        <time>2014-01-05T10:48:21Z</time>
      </trkpt>
      <trkpt lat="44.66202" lon="-0.2811">
        <ele>40.51</ele>
        <time>2014-01-05T10:48:35Z</time>
      </trkpt>
      <trkpt lat="44.66201" lon="-0.28108">
        <ele>40.03</ele>
        <time>2014-01-05T10:48:36Z</time>
      </trkpt>
      <trkpt lat="44.66195" lon="-0.28098">
        <ele>40.03</ele>
        <time>2014-01-05T10:48:49Z</time>
      </trkpt>
      <trkpt lat="44.66185" lon="-0.28092">
        <ele>40.03</ele>
        <time>2014-01-05T10:49:02Z</time>
      </trkpt>
      <trkpt lat="44.66179" lon="-0.28082">
        <ele>40.51</ele>
        <time>2014-01-05T10:49:14Z</time>
      </trkpt>
      <trkpt lat="44.66171" lon="-0.28072">
        <ele>40.51</ele>
        <time>2014-01-05T10:49:29Z</time>
      </trkpt>
      <trkpt lat="44.66164" lon="-0.2806">
        <ele>40.51</ele>
        <time>2014-01-05T10:49:44Z</time>
      </trkpt>
      <trkpt lat="44.66158" lon="-0.28044">
        <ele>40.51</ele>
        <time>2014-01-05T10:49:59Z</time>
      </trkpt>
      <trkpt lat="44.66154" lon="-0.28036">
        <ele>40.99</ele>
        <time>2014-01-05T10:50:10Z</time>
      </trkpt>
      <trkpt lat="44.66155" lon="-0.28028">
        <ele>40.99</ele>
        <time>2014-01-05T10:50:21Z</time>
      </trkpt>
      <trkpt lat="44.66158" lon="-0.28025">
        <ele>40.51</ele>
        <time>2014-01-05T10:50:42Z</time>
      </trkpt>
      <trkpt lat="44.6616" lon="-0.28023">
        <ele>40.51</ele>
        <time>2014-01-05T10:51:08Z</time>
      </trkpt>
      <trkpt lat="44.66153" lon="-0.2802">
        <ele>40.51</ele>
        <time>2014-01-05T10:51:24Z</time>
      </trkpt>
      <trkpt lat="44.66145" lon="-0.2801">
        <ele>40.51</ele>
        <time>2014-01-05T10:51:37Z</time>
      </trkpt>
      <trkpt lat="44.6614" lon="-0.28003">
        <ele>40.99</ele>
        <time>2014-01-05T10:51:48Z</time>
      </trkpt>
      <trkpt lat="44.66134" lon="-0.27992">
        <ele>40.99</ele>
        <time>2014-01-05T10:52:00Z</time>
      </trkpt>
      <trkpt lat="44.66133" lon="-0.2798">
        <ele>40.99</ele>
        <time>2014-01-05T10:52:12Z</time>
      </trkpt>
      <trkpt lat="44.66125" lon="-0.27966">
        <ele>41.47</ele>
        <time>2014-01-05T10:52:27Z</time>
      </trkpt>
      <trkpt lat="44.66118" lon="-0.27957">
        <ele>41.47</ele>
        <time>2014-01-05T10:52:39Z</time>
      </trkpt>
      <trkpt lat="44.66118" lon="-0.27949">
        <ele>40.99</ele>
        <time>2014-01-05T10:52:46Z</time>
      </trkpt>
      <trkpt lat="44.66113" lon="-0.27934">
        <ele>40.99</ele>
        <time>2014-01-05T10:53:00Z</time>
      </trkpt>
      <trkpt lat="44.66107" lon="-0.27931">
        <ele>40.99</ele>
        <time>2014-01-05T10:53:12Z</time>
      </trkpt>
      <trkpt lat="44.66101" lon="-0.27924">
        <ele>40.51</ele>
        <time>2014-01-05T10:53:24Z</time>
      </trkpt>
      <trkpt lat="44.66098" lon="-0.27908">
        <ele>40.51</ele>
        <time>2014-01-05T10:53:38Z</time>
      </trkpt>
      <trkpt lat="44.66089" lon="-0.27892">
        <ele>40.99</ele>
        <time>2014-01-05T10:53:51Z</time>
      </trkpt>
      <trkpt lat="44.66084" lon="-0.27881">
        <ele>40.99</ele>
        <time>2014-01-05T10:54:01Z</time>
      </trkpt>
      <trkpt lat="44.66079" lon="-0.27864">
        <ele>40.99</ele>
        <time>2014-01-05T10:54:15Z</time>
      </trkpt>
      <trkpt lat="44.66079" lon="-0.2786">
        <ele>40.99</ele>
        <time>2014-01-05T10:54:18Z</time>
      </trkpt>
      <trkpt lat="44.66077" lon="-0.27843">
        <ele>41.47</ele>
        <time>2014-01-05T10:54:30Z</time>
      </trkpt>
      <trkpt lat="44.66076" lon="-0.27839">
        <ele>41.47</ele>
        <time>2014-01-05T10:54:33Z</time>
      </trkpt>
      <trkpt lat="44.66072" lon="-0.27814">
        <ele>41.47</ele>
        <time>2014-01-05T10:54:51Z</time>
      </trkpt>
      <trkpt lat="44.66074" lon="-0.27794">
        <ele>41.47</ele>
        <time>2014-01-05T10:55:05Z</time>
      </trkpt>
      <trkpt lat="44.66073" lon="-0.2778">
        <ele>40.99</ele>
        <time>2014-01-05T10:55:15Z</time>
      </trkpt>
      <trkpt lat="44.66072" lon="-0.27768">
        <ele>41.47</ele>
        <time>2014-01-05T10:55:24Z</time>
      </trkpt>
      <trkpt lat="44.66068" lon="-0.27754">
        <ele>41.47</ele>
        <time>2014-01-05T10:55:34Z</time>
      </trkpt>
      <trkpt lat="44.66067" lon="-0.27744">
        <ele>41.47</ele>
        <time>2014-01-05T10:55:41Z</time>
      </trkpt>
      <trkpt lat="44.66065" lon="-0.27737">
        <ele>41.95</ele>
        <time>2014-01-05T10:55:47Z</time>
      </trkpt>
      <trkpt lat="44.66061" lon="-0.27716">
        <ele>41.95</ele>
        <time>2014-01-05T10:56:03Z</time>
      </trkpt>
      <trkpt lat="44.6606" lon="-0.27699">
        <ele>41.95</ele>
        <time>2014-01-05T10:56:15Z</time>
      </trkpt>
      <trkpt lat="44.66059" lon="-0.27695">
        <ele>41.95</ele>
        <time>2014-01-05T10:56:18Z</time>
      </trkpt>
      <trkpt lat="44.6606" lon="-0.27692">
        <ele>41.95</ele>
        <time>2014-01-05T10:56:20Z</time>
      </trkpt>
      <trkpt lat="44.66056" lon="-0.27673">
        <ele>42.44</ele>
        <time>2014-01-05T10:56:34Z</time>
      </trkpt>
      <trkpt lat="44.6605" lon="-0.27657">
        <ele>42.44</ele>
        <time>2014-01-05T10:56:48Z</time>
      </trkpt>
      <trkpt lat="44.66051" lon="-0.2765">
        <ele>42.44</ele>
        <time>2014-01-05T10:57:03Z</time>
      </trkpt>
      <trkpt lat="44.66045" lon="-0.27639">
        <ele>42.92</ele>
        <time>2014-01-05T10:57:14Z</time>
      </trkpt>
      <trkpt lat="44.66038" lon="-0.27629">
        <ele>42.44</ele>
        <time>2014-01-05T10:57:26Z</time>
      </trkpt>
      <trkpt lat="44.66028" lon="-0.27617">
        <ele>42.92</ele>
        <time>2014-01-05T10:57:40Z</time>
      </trkpt>
      <trkpt lat="44.66021" lon="-0.27614">
        <ele>42.44</ele>
        <time>2014-01-05T10:57:48Z</time>
      </trkpt>
      <trkpt lat="44.66005" lon="-0.27615">
        <ele>43.4</ele>
        <time>2014-01-05T10:58:05Z</time>
      </trkpt>
      <trkpt lat="44.66002" lon="-0.27621">
        <ele>43.4</ele>
        <time>2014-01-05T10:58:18Z</time>
      </trkpt>
      <trkpt lat="44.65999" lon="-0.27615">
        <ele>43.4</ele>
        <time>2014-01-05T10:58:45Z</time>
      </trkpt>
      <trkpt lat="44.65998" lon="-0.27606">
        <ele>43.88</ele>
        <time>2014-01-05T10:58:59Z</time>
      </trkpt>
      <trkpt lat="44.65996" lon="-0.27604">
        <ele>43.4</ele>
        <time>2014-01-05T10:59:16Z</time>
      </trkpt>
      <trkpt lat="44.65997" lon="-0.27594">
        <ele>43.4</ele>
        <time>2014-01-05T10:59:28Z</time>
      </trkpt>
      <trkpt lat="44.65997" lon="-0.27588">
        <ele>42.92</ele>
        <time>2014-01-05T10:59:32Z</time>
      </trkpt>
      <trkpt lat="44.66001" lon="-0.27569">
        <ele>41.95</ele>
        <time>2014-01-05T10:59:48Z</time>
      </trkpt>
      <trkpt lat="44.66001" lon="-0.27563">
        <ele>41.95</ele>
        <time>2014-01-05T10:59:59Z</time>
      </trkpt>
      <trkpt lat="44.66003" lon="-0.27547">
        <ele>42.92</ele>
        <time>2014-01-05T11:00:13Z</time>
      </trkpt>
      <trkpt lat="44.66004" lon="-0.27542">
        <ele>42.92</ele>
        <time>2014-01-05T11:00:17Z</time>
      </trkpt>
      <trkpt lat="44.6601" lon="-0.27524">
        <ele>42.92</ele>
        <time>2014-01-05T11:00:31Z</time>
      </trkpt>
      <trkpt lat="44.66011" lon="-0.27508">
        <ele>42.92</ele>
        <time>2014-01-05T11:00:44Z</time>
      </trkpt>
      <trkpt lat="44.66011" lon="-0.27503">
        <ele>42.44</ele>
        <time>2014-01-05T11:00:47Z</time>
      </trkpt>
      <trkpt lat="44.66011" lon="-0.27498">
        <ele>42.92</ele>
        <time>2014-01-05T11:00:50Z</time>
      </trkpt>
      <trkpt lat="44.66011" lon="-0.27495">
        <ele>42.44</ele>
        <time>2014-01-05T11:00:52Z</time>
      </trkpt>
      <trkpt lat="44.66011" lon="-0.27473">
        <ele>42.44</ele>
        <time>2014-01-05T11:01:08Z</time>
      </trkpt>
      <trkpt lat="44.66009" lon="-0.27455">
        <ele>42.92</ele>
        <time>2014-01-05T11:01:22Z</time>
      </trkpt>
      <trkpt lat="44.66004" lon="-0.27439">
        <ele>42.44</ele>
        <time>2014-01-05T11:01:35Z</time>
      </trkpt>
      <trkpt lat="44.65995" lon="-0.27423">
        <ele>43.4</ele>
        <time>2014-01-05T11:01:50Z</time>
      </trkpt>
      <trkpt lat="44.65989" lon="-0.27408">
        <ele>42.92</ele>
        <time>2014-01-05T11:02:02Z</time>
      </trkpt>
      <trkpt lat="44.65986" lon="-0.2739">
        <ele>43.4</ele>
        <time>2014-01-05T11:02:17Z</time>
      </trkpt>
      <trkpt lat="44.65983" lon="-0.27371">
        <ele>43.4</ele>
        <time>2014-01-05T11:02:32Z</time>
      </trkpt>
      <trkpt lat="44.65981" lon="-0.27362">
        <ele>43.4</ele>
        <time>2014-01-05T11:02:38Z</time>
      </trkpt>
      <trkpt lat="44.6598" lon="-0.27351">
        <ele>43.88</ele>
        <time>2014-01-05T11:02:45Z</time>
      </trkpt>
      <trkpt lat="44.6598" lon="-0.27331">
        <ele>43.88</ele>
        <time>2014-01-05T11:03:00Z</time>
      </trkpt>
      <trkpt lat="44.65982" lon="-0.27314">
        <ele>43.88</ele>
        <time>2014-01-05T11:03:10Z</time>
      </trkpt>
      <trkpt lat="44.65983" lon="-0.27287">
        <ele>44.36</ele>
        <time>2014-01-05T11:03:28Z</time>
      </trkpt>
      <trkpt lat="44.65979" lon="-0.27273">
        <ele>44.36</ele>
        <time>2014-01-05T11:03:41Z</time>
      </trkpt>
      <trkpt lat="44.65973" lon="-0.27264">
        <ele>45.8</ele>
        <time>2014-01-05T11:03:51Z</time>
      </trkpt>
      <trkpt lat="44.65965" lon="-0.2725">
        <ele>47.72</ele>
        <time>2014-01-05T11:04:05Z</time>
      </trkpt>
      <trkpt lat="44.65965" lon="-0.2724">
        <ele>47.24</ele>
        <time>2014-01-05T11:04:27Z</time>
      </trkpt>
      <trkpt lat="44.65967" lon="-0.27226">
        <ele>45.8</ele>
        <time>2014-01-05T11:04:40Z</time>
      </trkpt>
      <trkpt lat="44.65966" lon="-0.27223">
        <ele>45.32</ele>
        <time>2014-01-05T11:04:43Z</time>
      </trkpt>
      <trkpt lat="44.65967" lon="-0.27217">
        <ele>44.84</ele>
        <time>2014-01-05T11:04:47Z</time>
      </trkpt>
      <trkpt lat="44.65963" lon="-0.27199">
        <ele>44.36</ele>
        <time>2014-01-05T11:05:01Z</time>
      </trkpt>
      <trkpt lat="44.65959" lon="-0.27186">
        <ele>44.36</ele>
        <time>2014-01-05T11:05:16Z</time>
      </trkpt>
      <trkpt lat="44.65954" lon="-0.27171">
        <ele>44.36</ele>
        <time>2014-01-05T11:05:28Z</time>
      </trkpt>
      <trkpt lat="44.6595" lon="-0.27153">
        <ele>44.36</ele>
        <time>2014-01-05T11:05:41Z</time>
      </trkpt>
      <trkpt lat="44.65949" lon="-0.27133">
        <ele>44.36</ele>
        <time>2014-01-05T11:05:53Z</time>
      </trkpt>
      <trkpt lat="44.65945" lon="-0.27111">
        <ele>44.36</ele>
        <time>2014-01-05T11:06:08Z</time>
      </trkpt>
      <trkpt lat="44.65945" lon="-0.27093">
        <ele>44.84</ele>
        <time>2014-01-05T11:06:20Z</time>
      </trkpt>
      <trkpt lat="44.65945" lon="-0.27076">
        <ele>44.36</ele>
        <time>2014-01-05T11:06:32Z</time>
      </trkpt>
      <trkpt lat="44.65947" lon="-0.27052">
        <ele>44.36</ele>
        <time>2014-01-05T11:06:48Z</time>
      </trkpt>
      <trkpt lat="44.65946" lon="-0.2705">
        <ele>44.36</ele>
        <time>2014-01-05T11:06:49Z</time>
      </trkpt>
      <trkpt lat="44.65952" lon="-0.27031">
        <ele>45.32</ele>
        <time>2014-01-05T11:07:03Z</time>
      </trkpt>
      <trkpt lat="44.65963" lon="-0.27018">
        <ele>44.84</ele>
        <time>2014-01-05T11:07:15Z</time>
      </trkpt>
      <trkpt lat="44.65966" lon="-0.27009">
        <ele>44.84</ele>
        <time>2014-01-05T11:07:28Z</time>
      </trkpt>
      <trkpt lat="44.65967" lon="-0.26997">
        <ele>44.36</ele>
        <time>2014-01-05T11:07:40Z</time>
      </trkpt>
      <trkpt lat="44.65971" lon="-0.26986">
        <ele>45.32</ele>
        <time>2014-01-05T11:07:52Z</time>
      </trkpt>
      <trkpt lat="44.6597" lon="-0.26976">
        <ele>45.32</ele>
        <time>2014-01-05T11:08:06Z</time>
      </trkpt>
      <trkpt lat="44.65972" lon="-0.26968">
        <ele>44.84</ele>
        <time>2014-01-05T11:08:22Z</time>
      </trkpt>
      <trkpt lat="44.65977" lon="-0.26964">
        <ele>45.32</ele>
        <time>2014-01-05T11:08:35Z</time>
      </trkpt>
      <trkpt lat="44.65975" lon="-0.26962">
        <ele>45.32</ele>
        <time>2014-01-05T11:08:48Z</time>
      </trkpt>
      <trkpt lat="44.65976" lon="-0.26959">
        <ele>45.8</ele>
        <time>2014-01-05T11:09:02Z</time>
      </trkpt>
      <trkpt lat="44.6597" lon="-0.26953">
        <ele>45.8</ele>
        <time>2014-01-05T11:09:19Z</time>
      </trkpt>
      <trkpt lat="44.65964" lon="-0.26943">
        <ele>45.8</ele>
        <time>2014-01-05T11:09:29Z</time>
      </trkpt>
      <trkpt lat="44.65962" lon="-0.26936">
        <ele>46.28</ele>
        <time>2014-01-05T11:09:43Z</time>
      </trkpt>
      <trkpt lat="44.65961" lon="-0.2693">
        <ele>46.28</ele>
        <time>2014-01-05T11:09:57Z</time>
      </trkpt>
      <trkpt lat="44.65957" lon="-0.26924">
        <ele>46.28</ele>
        <time>2014-01-05T11:10:09Z</time>
      </trkpt>
      <trkpt lat="44.65956" lon="-0.26912">
        <ele>45.8</ele>
        <time>2014-01-05T11:10:22Z</time>
      </trkpt>
      <trkpt lat="44.65956" lon="-0.26903">
        <ele>46.28</ele>
        <time>2014-01-05T11:10:48Z</time>
      </trkpt>
      <trkpt lat="44.65954" lon="-0.26902">
        <ele>46.76</ele>
        <time>2014-01-05T11:11:09Z</time>
      </trkpt>
      <trkpt lat="44.65958" lon="-0.26911">
        <ele>46.76</ele>
        <time>2014-01-05T11:11:32Z</time>
      </trkpt>
      <trkpt lat="44.65956" lon="-0.26908">
        <ele>47.24</ele>
        <time>2014-01-05T11:12:10Z</time>
      </trkpt>
      <trkpt lat="44.65961" lon="-0.26909">
        <ele>47.24</ele>
        <time>2014-01-05T11:12:36Z</time>
      </trkpt>
      <trkpt lat="44.65962" lon="-0.2691">
        <ele>46.76</ele>
        <time>2014-01-05T11:12:57Z</time>
      </trkpt>
      <trkpt lat="44.65961" lon="-0.26907">
        <ele>47.72</ele>
        <time>2014-01-05T11:13:18Z</time>
      </trkpt>
      <trkpt lat="44.65956" lon="-0.26907">
        <ele>47.72</ele>
        <time>2014-01-05T11:13:46Z</time>
      </trkpt>
      <trkpt lat="44.65962" lon="-0.26914">
        <ele>47.72</ele>
        <time>2014-01-05T11:14:25Z</time>
      </trkpt>
      <trkpt lat="44.65957" lon="-0.26908">
        <ele>48.2</ele>
        <time>2014-01-05T11:14:38Z</time>
      </trkpt>
      <trkpt lat="44.6595" lon="-0.2689">
        <ele>47.72</ele>
        <time>2014-01-05T11:14:52Z</time>
      </trkpt>
      <trkpt lat="44.65952" lon="-0.26873">
        <ele>48.2</ele>
        <time>2014-01-05T11:15:07Z</time>
      </trkpt>
      <trkpt lat="44.65951" lon="-0.26857">
        <ele>48.2</ele>
        <time>2014-01-05T11:15:22Z</time>
      </trkpt>
      <trkpt lat="44.65952" lon="-0.2684">
        <ele>49.16</ele>
        <time>2014-01-05T11:15:37Z</time>
      </trkpt>
      <trkpt lat="44.65952" lon="-0.26827">
        <ele>49.16</ele>
        <time>2014-01-05T11:15:47Z</time>
      </trkpt>
      <trkpt lat="44.65958" lon="-0.26809">
        <ele>50.13</ele>
        <time>2014-01-05T11:16:00Z</time>
      </trkpt>
      <trkpt lat="44.65969" lon="-0.26806">
        <ele>50.13</ele>
        <time>2014-01-05T11:16:13Z</time>
      </trkpt>
      <trkpt lat="44.65966" lon="-0.26805">
        <ele>50.13</ele>
        <time>2014-01-05T11:16:18Z</time>
      </trkpt>
      <trkpt lat="44.6595" lon="-0.26795">
        <ele>50.61</ele>
        <time>2014-01-05T11:16:35Z</time>
      </trkpt>
      <trkpt lat="44.65937" lon="-0.26782">
        <ele>52.53</ele>
        <time>2014-01-05T11:16:50Z</time>
      </trkpt>
      <trkpt lat="44.65923" lon="-0.26776">
        <ele>53.97</ele>
        <time>2014-01-05T11:17:07Z</time>
      </trkpt>
      <trkpt lat="44.65912" lon="-0.26777">
        <ele>55.41</ele>
        <time>2014-01-05T11:17:20Z</time>
      </trkpt>
      <trkpt lat="44.65902" lon="-0.26779">
        <ele>56.86</ele>
        <time>2014-01-05T11:17:33Z</time>
      </trkpt>
      <trkpt lat="44.6589" lon="-0.26781">
        <ele>59.26</ele>
        <time>2014-01-05T11:17:49Z</time>
      </trkpt>
      <trkpt lat="44.6588" lon="-0.26783">
        <ele>60.7</ele>
        <time>2014-01-05T11:18:03Z</time>
      </trkpt>
      <trkpt lat="44.6587" lon="-0.26784">
        <ele>62.14</ele>
        <time>2014-01-05T11:18:16Z</time>
      </trkpt>
      <trkpt lat="44.65862" lon="-0.26786">
        <ele>64.07</ele>
        <time>2014-01-05T11:18:26Z</time>
      </trkpt>
      <trkpt lat="44.65853" lon="-0.26789">
        <ele>65.51</ele>
        <time>2014-01-05T11:18:39Z</time>
      </trkpt>
      <trkpt lat="44.6584" lon="-0.26789">
        <ele>67.91</ele>
        <time>2014-01-05T11:18:53Z</time>
      </trkpt>
      <trkpt lat="44.65816" lon="-0.26781">
        <ele>68.39</ele>
        <time>2014-01-05T11:19:08Z</time>
      </trkpt>
      <trkpt lat="44.65817" lon="-0.2677">
        <ele>67.91</ele>
        <time>2014-01-05T11:19:22Z</time>
      </trkpt>
      <trkpt lat="44.6582" lon="-0.2676">
        <ele>67.43</ele>
        <time>2014-01-05T11:19:46Z</time>
      </trkpt>
      <trkpt lat="44.65821" lon="-0.26759">
        <ele>67.43</ele>
        <time>2014-01-05T11:19:47Z</time>
      </trkpt>
      <trkpt lat="44.65824" lon="-0.26747">
        <ele>66.95</ele>
        <time>2014-01-05T11:20:00Z</time>
      </trkpt>
      <trkpt lat="44.65822" lon="-0.26733">
        <ele>66.47</ele>
        <time>2014-01-05T11:20:12Z</time>
      </trkpt>
      <trkpt lat="44.6582" lon="-0.26718">
        <ele>65.99</ele>
        <time>2014-01-05T11:20:25Z</time>
      </trkpt>
      <trkpt lat="44.65814" lon="-0.26702">
        <ele>65.51</ele>
        <time>2014-01-05T11:20:38Z</time>
      </trkpt>
      <trkpt lat="44.6581" lon="-0.26689">
        <ele>65.51</ele>
        <time>2014-01-05T11:20:46Z</time>
      </trkpt>
      <trkpt lat="44.65804" lon="-0.26672">
        <ele>65.03</ele>
        <time>2014-01-05T11:21:00Z</time>
      </trkpt>
      <trkpt lat="44.658" lon="-0.26654">
        <ele>64.55</ele>
        <time>2014-01-05T11:21:15Z</time>
      </trkpt>
      <trkpt lat="44.65799" lon="-0.26652">
        <ele>65.03</ele>
        <time>2014-01-05T11:21:17Z</time>
      </trkpt>
      <trkpt lat="44.65795" lon="-0.26641">
        <ele>64.55</ele>
        <time>2014-01-05T11:21:25Z</time>
      </trkpt>
      <trkpt lat="44.6579" lon="-0.26618">
        <ele>64.07</ele>
        <time>2014-01-05T11:21:40Z</time>
      </trkpt>
      <trkpt lat="44.65785" lon="-0.266">
        <ele>63.58</ele>
        <time>2014-01-05T11:21:53Z</time>
      </trkpt>
      <trkpt lat="44.65778" lon="-0.2658">
        <ele>63.1</ele>
        <time>2014-01-05T11:22:09Z</time>
      </trkpt>
      <trkpt lat="44.65774" lon="-0.26565">
        <ele>62.14</ele>
        <time>2014-01-05T11:22:24Z</time>
      </trkpt>
      <trkpt lat="44.65774" lon="-0.26548">
        <ele>61.18</ele>
        <time>2014-01-05T11:22:36Z</time>
      </trkpt>
      <trkpt lat="44.65775" lon="-0.26533">
        <ele>59.26</ele>
        <time>2014-01-05T11:22:49Z</time>
      </trkpt>
      <trkpt lat="44.65771" lon="-0.26519">
        <ele>57.82</ele>
        <time>2014-01-05T11:23:03Z</time>
      </trkpt>
      <trkpt lat="44.65768" lon="-0.2651">
        <ele>56.37</ele>
        <time>2014-01-05T11:23:16Z</time>
      </trkpt>
      <trkpt lat="44.65761" lon="-0.26505">
        <ele>54.93</ele>
        <time>2014-01-05T11:23:28Z</time>
      </trkpt>
      <trkpt lat="44.65756" lon="-0.26493">
        <ele>54.45</ele>
        <time>2014-01-05T11:23:42Z</time>
      </trkpt>
      <trkpt lat="44.65755" lon="-0.26478">
        <ele>53.97</ele>
        <time>2014-01-05T11:23:56Z</time>
      </trkpt>
      <trkpt lat="44.65755" lon="-0.26462">
        <ele>54.45</ele>
        <time>2014-01-05T11:24:09Z</time>
      </trkpt>
      <trkpt lat="44.65756" lon="-0.2645">
        <ele>54.45</ele>
        <time>2014-01-05T11:24:21Z</time>
      </trkpt>
      <trkpt lat="44.65752" lon="-0.26452">
        <ele>54.93</ele>
        <time>2014-01-05T11:24:40Z</time>
      </trkpt>
      <trkpt lat="44.65756" lon="-0.26447">
        <ele>54.93</ele>
        <time>2014-01-05T11:24:55Z</time>
      </trkpt>
      <trkpt lat="44.6576" lon="-0.26462">
        <ele>54.93</ele>
        <time>2014-01-05T11:25:16Z</time>
      </trkpt>
      <trkpt lat="44.65762" lon="-0.26459">
        <ele>55.89</ele>
        <time>2014-01-05T11:25:39Z</time>
      </trkpt>
      <trkpt lat="44.65762" lon="-0.26459">
        <ele>55.89</ele>
        <time>2014-01-05T11:25:57Z</time>
      </trkpt>
      <trkpt lat="44.65759" lon="-0.2646">
        <ele>54.45</ele>
        <time>2014-01-05T11:26:12Z</time>
      </trkpt>
      <trkpt lat="44.65758" lon="-0.26463">
        <ele>54.93</ele>
        <time>2014-01-05T11:26:27Z</time>
      </trkpt>
      <trkpt lat="44.65757" lon="-0.26461">
        <ele>56.37</ele>
        <time>2014-01-05T11:26:44Z</time>
      </trkpt>
      <trkpt lat="44.65757" lon="-0.26464">
        <ele>57.34</ele>
        <time>2014-01-05T11:27:02Z</time>
      </trkpt>
      <trkpt lat="44.65753" lon="-0.26465">
        <ele>57.34</ele>
        <time>2014-01-05T11:27:22Z</time>
      </trkpt>
      <trkpt lat="44.6575" lon="-0.26465">
        <ele>58.78</ele>
        <time>2014-01-05T11:27:36Z</time>
      </trkpt>
      <trkpt lat="44.65741" lon="-0.26458">
        <ele>59.26</ele>
        <time>2014-01-05T11:27:51Z</time>
      </trkpt>
      <trkpt lat="44.65738" lon="-0.26443">
        <ele>59.26</ele>
        <time>2014-01-05T11:28:06Z</time>
      </trkpt>
      <trkpt lat="44.65735" lon="-0.26434">
        <ele>58.78</ele>
        <time>2014-01-05T11:28:18Z</time>
      </trkpt>
      <trkpt lat="44.65734" lon="-0.26429">
        <ele>58.78</ele>
        <time>2014-01-05T11:28:33Z</time>
      </trkpt>
      <trkpt lat="44.65734" lon="-0.26421">
        <ele>57.82</ele>
        <time>2014-01-05T11:28:47Z</time>
      </trkpt>
      <trkpt lat="44.65733" lon="-0.26416">
        <ele>57.34</ele>
        <time>2014-01-05T11:29:00Z</time>
      </trkpt>
      <trkpt lat="44.65733" lon="-0.26404">
        <ele>56.86</ele>
        <time>2014-01-05T11:29:18Z</time>
      </trkpt>
      <trkpt lat="44.65739" lon="-0.26402">
        <ele>56.86</ele>
        <time>2014-01-05T11:29:39Z</time>
      </trkpt>
      <trkpt lat="44.65736" lon="-0.26406">
        <ele>57.82</ele>
        <time>2014-01-05T11:29:53Z</time>
      </trkpt>
      <trkpt lat="44.65723" lon="-0.26402">
        <ele>59.74</ele>
        <time>2014-01-05T11:30:10Z</time>
      </trkpt>
      <trkpt lat="44.65721" lon="-0.26402">
        <ele>60.22</ele>
        <time>2014-01-05T11:30:24Z</time>
      </trkpt>
      <trkpt lat="44.65712" lon="-0.26396">
        <ele>62.14</ele>
        <time>2014-01-05T11:30:39Z</time>
      </trkpt>
      <trkpt lat="44.6571" lon="-0.26386">
        <ele>63.1</ele>
        <time>2014-01-05T11:30:52Z</time>
      </trkpt>
      <trkpt lat="44.65707" lon="-0.26379">
        <ele>63.58</ele>
        <time>2014-01-05T11:31:13Z</time>
      </trkpt>
      <trkpt lat="44.65706" lon="-0.2638">
        <ele>64.55</ele>
        <time>2014-01-05T11:31:27Z</time>
      </trkpt>
      <trkpt lat="44.65694" lon="-0.26383">
        <ele>66.95</ele>
        <time>2014-01-05T11:31:42Z</time>
      </trkpt>
      <trkpt lat="44.65689" lon="-0.26377">
        <ele>68.39</ele>
        <time>2014-01-05T11:31:57Z</time>
      </trkpt>
      <trkpt lat="44.65685" lon="-0.26363">
        <ele>67.91</ele>
        <time>2014-01-05T11:32:11Z</time>
      </trkpt>
      <trkpt lat="44.65685" lon="-0.26355">
        <ele>68.87</ele>
        <time>2014-01-05T11:32:25Z</time>
      </trkpt>
      <trkpt lat="44.65687" lon="-0.26365">
        <ele>70.79</ele>
        <time>2014-01-05T11:32:42Z</time>
      </trkpt>
      <trkpt lat="44.65679" lon="-0.2637">
        <ele>71.76</ele>
        <time>2014-01-05T11:32:55Z</time>
      </trkpt>
      <trkpt lat="44.65672" lon="-0.26369">
        <ele>72.72</ele>
        <time>2014-01-05T11:33:10Z</time>
      </trkpt>
      <trkpt lat="44.65664" lon="-0.2637">
        <ele>74.16</ele>
        <time>2014-01-05T11:33:22Z</time>
      </trkpt>
      <trkpt lat="44.65659" lon="-0.26373">
        <ele>76.08</ele>
        <time>2014-01-05T11:33:41Z</time>
      </trkpt>
      <trkpt lat="44.65651" lon="-0.26376">
        <ele>77.04</ele>
        <time>2014-01-05T11:33:53Z</time>
      </trkpt>
      <trkpt lat="44.65642" lon="-0.26369">
        <ele>77.52</ele>
        <time>2014-01-05T11:34:05Z</time>
      </trkpt>
      <trkpt lat="44.6563" lon="-0.26364">
        <ele>78.48</ele>
        <time>2014-01-05T11:34:19Z</time>
      </trkpt>
      <trkpt lat="44.65622" lon="-0.26352">
        <ele>78.48</ele>
        <time>2014-01-05T11:34:32Z</time>
      </trkpt>
      <trkpt lat="44.65614" lon="-0.26345">
        <ele>78.48</ele>
        <time>2014-01-05T11:34:45Z</time>
      </trkpt>
      <trkpt lat="44.65607" lon="-0.26332">
        <ele>78.48</ele>
        <time>2014-01-05T11:35:00Z</time>
      </trkpt>
      <trkpt lat="44.65608" lon="-0.26327">
        <ele>78.48</ele>
        <time>2014-01-05T11:35:16Z</time>
      </trkpt>
      <trkpt lat="44.65615" lon="-0.26311">
        <ele>77.52</ele>
        <time>2014-01-05T11:35:31Z</time>
      </trkpt>
      <trkpt lat="44.65615" lon="-0.26304">
        <ele>76.56</ele>
        <time>2014-01-05T11:35:41Z</time>
      </trkpt>
      <trkpt lat="44.65613" lon="-0.26289">
        <ele>76.56</ele>
        <time>2014-01-05T11:35:54Z</time>
      </trkpt>
      <trkpt lat="44.65612" lon="-0.26288">
        <ele>76.56</ele>
        <time>2014-01-05T11:35:55Z</time>
      </trkpt>
      <trkpt lat="44.6561" lon="-0.26277">
        <ele>75.6</ele>
        <time>2014-01-05T11:36:10Z</time>
      </trkpt>
      <trkpt lat="44.65606" lon="-0.26276">
        <ele>75.6</ele>
        <time>2014-01-05T11:36:14Z</time>
      </trkpt>
      <trkpt lat="44.65603" lon="-0.26276">
        <ele>76.08</ele>
        <time>2014-01-05T11:36:28Z</time>
      </trkpt>
      <trkpt lat="44.6559" lon="-0.26277">
        <ele>77.52</ele>
        <time>2014-01-05T11:36:43Z</time>
      </trkpt>
      <trkpt lat="44.65577" lon="-0.26271">
        <ele>77.04</ele>
        <time>2014-01-05T11:36:58Z</time>
      </trkpt>
      <trkpt lat="44.65564" lon="-0.26264">
        <ele>77.52</ele>
        <time>2014-01-05T11:37:15Z</time>
      </trkpt>
      <trkpt lat="44.65553" lon="-0.2626">
        <ele>78.48</ele>
        <time>2014-01-05T11:37:28Z</time>
      </trkpt>
      <trkpt lat="44.6555" lon="-0.26265">
        <ele>78.48</ele>
        <time>2014-01-05T11:37:42Z</time>
      </trkpt>
      <trkpt lat="44.6554" lon="-0.26257">
        <ele>78.97</ele>
        <time>2014-01-05T11:37:54Z</time>
      </trkpt>
      <trkpt lat="44.65538" lon="-0.26249">
        <ele>78.97</ele>
        <time>2014-01-05T11:38:05Z</time>
      </trkpt>
      <trkpt lat="44.65546" lon="-0.26249">
        <ele>78.48</ele>
        <time>2014-01-05T11:38:32Z</time>
      </trkpt>
      <trkpt lat="44.65534" lon="-0.26248">
        <ele>78.97</ele>
        <time>2014-01-05T11:38:54Z</time>
      </trkpt>
      <trkpt lat="44.65527" lon="-0.26233">
        <ele>79.45</ele>
        <time>2014-01-05T11:39:08Z</time>
      </trkpt>
      <trkpt lat="44.65524" lon="-0.26226">
        <ele>79.93</ele>
        <time>2014-01-05T11:39:14Z</time>
      </trkpt>
      <trkpt lat="44.65523" lon="-0.26223">
        <ele>79.93</ele>
        <time>2014-01-05T11:39:16Z</time>
      </trkpt>
      <trkpt lat="44.65519" lon="-0.26212">
        <ele>79.45</ele>
        <time>2014-01-05T11:39:26Z</time>
      </trkpt>
      <trkpt lat="44.65518" lon="-0.26208">
        <ele>79.45</ele>
        <time>2014-01-05T11:39:29Z</time>
      </trkpt>
      <trkpt lat="44.65511" lon="-0.26193">
        <ele>79.45</ele>
        <time>2014-01-05T11:39:43Z</time>
      </trkpt>
      <trkpt lat="44.65508" lon="-0.26187">
        <ele>78.97</ele>
        <time>2014-01-05T11:39:49Z</time>
      </trkpt>
      <trkpt lat="44.65499" lon="-0.26165">
        <ele>77.52</ele>
        <time>2014-01-05T11:40:06Z</time>
      </trkpt>
      <trkpt lat="44.65499" lon="-0.26164">
        <ele>77.04</ele>
        <time>2014-01-05T11:40:07Z</time>
      </trkpt>
      <trkpt lat="44.65494" lon="-0.2615">
        <ele>75.6</ele>
        <time>2014-01-05T11:40:19Z</time>
      </trkpt>
      <trkpt lat="44.65493" lon="-0.26145">
        <ele>74.64</ele>
        <time>2014-01-05T11:40:23Z</time>
      </trkpt>
      <trkpt lat="44.65499" lon="-0.26135">
        <ele>73.68</ele>
        <time>2014-01-05T11:40:31Z</time>
      </trkpt>
      <trkpt lat="44.65506" lon="-0.26132">
        <ele>72.24</ele>
        <time>2014-01-05T11:40:38Z</time>
      </trkpt>
      <trkpt lat="44.65508" lon="-0.2613">
        <ele>71.76</ele>
        <time>2014-01-05T11:40:40Z</time>
      </trkpt>
      <trkpt lat="44.6551" lon="-0.26128">
        <ele>71.76</ele>
        <time>2014-01-05T11:40:42Z</time>
      </trkpt>
      <trkpt lat="44.65511" lon="-0.26124">
        <ele>71.27</ele>
        <time>2014-01-05T11:40:46Z</time>
      </trkpt>
      <trkpt lat="44.65509" lon="-0.26108">
        <ele>70.79</ele>
        <time>2014-01-05T11:40:59Z</time>
      </trkpt>
      <trkpt lat="44.6551" lon="-0.26101">
        <ele>71.27</ele>
        <time>2014-01-05T11:41:04Z</time>
      </trkpt>
      <trkpt lat="44.65517" lon="-0.26077">
        <ele>71.27</ele>
        <time>2014-01-05T11:41:20Z</time>
      </trkpt>
      <trkpt lat="44.65525" lon="-0.26064">
        <ele>72.72</ele>
        <time>2014-01-05T11:41:34Z</time>
      </trkpt>
      <trkpt lat="44.65528" lon="-0.26062">
        <ele>73.2</ele>
        <time>2014-01-05T11:41:37Z</time>
      </trkpt>
      <trkpt lat="44.65541" lon="-0.26051">
        <ele>74.64</ele>
        <time>2014-01-05T11:41:53Z</time>
      </trkpt>
      <trkpt lat="44.65553" lon="-0.26041">
        <ele>75.12</ele>
        <time>2014-01-05T11:42:08Z</time>
      </trkpt>
      <trkpt lat="44.65563" lon="-0.26035">
        <ele>76.08</ele>
        <time>2014-01-05T11:42:21Z</time>
      </trkpt>
      <trkpt lat="44.65565" lon="-0.26034">
        <ele>76.08</ele>
        <time>2014-01-05T11:42:23Z</time>
      </trkpt>
      <trkpt lat="44.65577" lon="-0.26023">
        <ele>76.08</ele>
        <time>2014-01-05T11:42:37Z</time>
      </trkpt>
      <trkpt lat="44.65578" lon="-0.26022">
        <ele>75.6</ele>
        <time>2014-01-05T11:42:38Z</time>
      </trkpt>
      <trkpt lat="44.6558" lon="-0.26017">
        <ele>75.6</ele>
        <time>2014-01-05T11:42:45Z</time>
      </trkpt>
      <trkpt lat="44.65579" lon="-0.26009">
        <ele>76.08</ele>
        <time>2014-01-05T11:42:53Z</time>
      </trkpt>
      <trkpt lat="44.6557" lon="-0.26">
        <ele>76.08</ele>
        <time>2014-01-05T11:43:09Z</time>
      </trkpt>
      <trkpt lat="44.65568" lon="-0.26004">
        <ele>76.08</ele>
        <time>2014-01-05T11:43:22Z</time>
      </trkpt>
      <trkpt lat="44.6556" lon="-0.26008">
        <ele>76.56</ele>
        <time>2014-01-05T11:43:35Z</time>
      </trkpt>
      <trkpt lat="44.6555" lon="-0.26014">
        <ele>76.56</ele>
        <time>2014-01-05T11:43:49Z</time>
      </trkpt>
      <trkpt lat="44.65538" lon="-0.26018">
        <ele>75.6</ele>
        <time>2014-01-05T11:44:02Z</time>
      </trkpt>
      <trkpt lat="44.65542" lon="-0.26006">
        <ele>75.12</ele>
        <time>2014-01-05T11:44:11Z</time>
      </trkpt>
      <trkpt lat="44.65544" lon="-0.26003">
        <ele>75.12</ele>
        <time>2014-01-05T11:44:13Z</time>
      </trkpt>
      <trkpt lat="44.65545" lon="-0.26002">
        <ele>74.64</ele>
        <time>2014-01-05T11:44:15Z</time>
      </trkpt>
      <trkpt lat="44.6556" lon="-0.25991">
        <ele>73.2</ele>
        <time>2014-01-05T11:44:32Z</time>
      </trkpt>
      <trkpt lat="44.65573" lon="-0.25983">
        <ele>71.76</ele>
        <time>2014-01-05T11:44:47Z</time>
      </trkpt>
      <trkpt lat="44.65585" lon="-0.25974">
        <ele>69.35</ele>
        <time>2014-01-05T11:45:02Z</time>
      </trkpt>
      <trkpt lat="44.65596" lon="-0.25966">
        <ele>67.43</ele>
        <time>2014-01-05T11:45:18Z</time>
      </trkpt>
      <trkpt lat="44.65605" lon="-0.25956">
        <ele>65.51</ele>
        <time>2014-01-05T11:45:34Z</time>
      </trkpt>
      <trkpt lat="44.6562" lon="-0.25942">
        <ele>62.62</ele>
        <time>2014-01-05T11:45:51Z</time>
      </trkpt>
      <trkpt lat="44.65631" lon="-0.25931">
        <ele>61.18</ele>
        <time>2014-01-05T11:46:06Z</time>
      </trkpt>
      <trkpt lat="44.65642" lon="-0.25921">
        <ele>58.78</ele>
        <time>2014-01-05T11:46:21Z</time>
      </trkpt>
      <trkpt lat="44.65653" lon="-0.25904">
        <ele>57.34</ele>
        <time>2014-01-05T11:46:35Z</time>
      </trkpt>
      <trkpt lat="44.6566" lon="-0.25885">
        <ele>56.37</ele>
        <time>2014-01-05T11:46:49Z</time>
      </trkpt>
      <trkpt lat="44.65665" lon="-0.25875">
        <ele>56.86</ele>
        <time>2014-01-05T11:47:02Z</time>
      </trkpt>
      <trkpt lat="44.6567" lon="-0.25862">
        <ele>56.37</ele>
        <time>2014-01-05T11:47:15Z</time>
      </trkpt>
      <trkpt lat="44.65679" lon="-0.2585">
        <ele>56.86</ele>
        <time>2014-01-05T11:47:30Z</time>
      </trkpt>
      <trkpt lat="44.65683" lon="-0.25845">
        <ele>56.37</ele>
        <time>2014-01-05T11:47:43Z</time>
      </trkpt>
      <trkpt lat="44.65688" lon="-0.25833">
        <ele>56.86</ele>
        <time>2014-01-05T11:47:56Z</time>
      </trkpt>
      <trkpt lat="44.65693" lon="-0.25816">
        <ele>57.34</ele>
        <time>2014-01-05T11:48:09Z</time>
      </trkpt>
      <trkpt lat="44.65697" lon="-0.25799">
        <ele>57.82</ele>
        <time>2014-01-05T11:48:23Z</time>
      </trkpt>
      <trkpt lat="44.65703" lon="-0.25782">
        <ele>58.78</ele>
        <time>2014-01-05T11:48:39Z</time>
      </trkpt>
      <trkpt lat="44.65711" lon="-0.25763">
        <ele>59.74</ele>
        <time>2014-01-05T11:48:55Z</time>
      </trkpt>
      <trkpt lat="44.65718" lon="-0.25751">
        <ele>60.22</ele>
        <time>2014-01-05T11:49:09Z</time>
      </trkpt>
      <trkpt lat="44.65723" lon="-0.25739">
        <ele>60.22</ele>
        <time>2014-01-05T11:49:21Z</time>
      </trkpt>
      <trkpt lat="44.65728" lon="-0.25724">
        <ele>61.66</ele>
        <time>2014-01-05T11:49:36Z</time>
      </trkpt>
      <trkpt lat="44.6573" lon="-0.25713">
        <ele>61.66</ele>
        <time>2014-01-05T11:49:47Z</time>
      </trkpt>
      <trkpt lat="44.65734" lon="-0.25696">
        <ele>62.62</ele>
        <time>2014-01-05T11:50:01Z</time>
      </trkpt>
      <trkpt lat="44.6574" lon="-0.25678">
        <ele>63.1</ele>
        <time>2014-01-05T11:50:15Z</time>
      </trkpt>
      <trkpt lat="44.65742" lon="-0.25661">
        <ele>63.58</ele>
        <time>2014-01-05T11:50:28Z</time>
      </trkpt>
      <trkpt lat="44.65743" lon="-0.25645">
        <ele>65.03</ele>
        <time>2014-01-05T11:50:42Z</time>
      </trkpt>
      <trkpt lat="44.65744" lon="-0.25643">
        <ele>64.55</ele>
        <time>2014-01-05T11:50:44Z</time>
      </trkpt>
      <trkpt lat="44.65747" lon="-0.25619">
        <ele>64.55</ele>
        <time>2014-01-05T11:51:00Z</time>
      </trkpt>
      <trkpt lat="44.65749" lon="-0.25601">
        <ele>64.55</ele>
        <time>2014-01-05T11:51:14Z</time>
      </trkpt>
      <trkpt lat="44.65753" lon="-0.25585">
        <ele>64.55</ele>
        <time>2014-01-05T11:51:26Z</time>
      </trkpt>
      <trkpt lat="44.65753" lon="-0.25583">
        <ele>64.55</ele>
        <time>2014-01-05T11:51:27Z</time>
      </trkpt>
      <trkpt lat="44.65756" lon="-0.25565">
        <ele>64.07</ele>
        <time>2014-01-05T11:51:41Z</time>
      </trkpt>
      <trkpt lat="44.65756" lon="-0.2555">
        <ele>63.58</ele>
        <time>2014-01-05T11:51:53Z</time>
      </trkpt>
      <trkpt lat="44.65759" lon="-0.25556">
        <ele>63.58</ele>
        <time>2014-01-05T11:52:07Z</time>
      </trkpt>
      <trkpt lat="44.65757" lon="-0.25558">
        <ele>63.58</ele>
        <time>2014-01-05T11:52:21Z</time>
      </trkpt>
      <trkpt lat="44.65758" lon="-0.25543">
        <ele>62.62</ele>
        <time>2014-01-05T11:52:36Z</time>
      </trkpt>
      <trkpt lat="44.65758" lon="-0.2554">
        <ele>63.1</ele>
        <time>2014-01-05T11:52:39Z</time>
      </trkpt>
      <trkpt lat="44.65759" lon="-0.25537">
        <ele>62.62</ele>
        <time>2014-01-05T11:52:41Z</time>
      </trkpt>
      <trkpt lat="44.65759" lon="-0.25534">
        <ele>63.1</ele>
        <time>2014-01-05T11:52:43Z</time>
      </trkpt>
      <trkpt lat="44.65762" lon="-0.25517">
        <ele>63.1</ele>
        <time>2014-01-05T11:52:58Z</time>
      </trkpt>
      <trkpt lat="44.65764" lon="-0.25503">
        <ele>63.58</ele>
        <time>2014-01-05T11:53:10Z</time>
      </trkpt>
      <trkpt lat="44.65763" lon="-0.25483">
        <ele>63.58</ele>
        <time>2014-01-05T11:53:25Z</time>
      </trkpt>
      <trkpt lat="44.65761" lon="-0.25464">
        <ele>63.58</ele>
        <time>2014-01-05T11:53:39Z</time>
      </trkpt>
      <trkpt lat="44.65762" lon="-0.25453">
        <ele>63.1</ele>
        <time>2014-01-05T11:53:50Z</time>
      </trkpt>
      <trkpt lat="44.65762" lon="-0.25448">
        <ele>62.62</ele>
        <time>2014-01-05T11:53:54Z</time>
      </trkpt>
      <trkpt lat="44.65763" lon="-0.25443">
        <ele>63.1</ele>
        <time>2014-01-05T11:53:58Z</time>
      </trkpt>
      <trkpt lat="44.65766" lon="-0.25429">
        <ele>63.1</ele>
        <time>2014-01-05T11:54:13Z</time>
      </trkpt>
      <trkpt lat="44.6577" lon="-0.25417">
        <ele>63.58</ele>
        <time>2014-01-05T11:54:25Z</time>
      </trkpt>
      <trkpt lat="44.65772" lon="-0.25397">
        <ele>64.07</ele>
        <time>2014-01-05T11:54:41Z</time>
      </trkpt>
      <trkpt lat="44.65774" lon="-0.25382">
        <ele>64.55</ele>
        <time>2014-01-05T11:54:54Z</time>
      </trkpt>
      <trkpt lat="44.65778" lon="-0.25381">
        <ele>64.55</ele>
        <time>2014-01-05T11:55:15Z</time>
      </trkpt>
      <trkpt lat="44.65777" lon="-0.25382">
        <ele>64.07</ele>
        <time>2014-01-05T11:55:28Z</time>
      </trkpt>
      <trkpt lat="44.65782" lon="-0.25385">
        <ele>64.07</ele>
        <time>2014-01-05T11:55:47Z</time>
      </trkpt>
      <trkpt lat="44.65778" lon="-0.25388">
        <ele>63.58</ele>
        <time>2014-01-05T11:56:14Z</time>
      </trkpt>
      <trkpt lat="44.65778" lon="-0.25385">
        <ele>64.07</ele>
        <time>2014-01-05T11:56:29Z</time>
      </trkpt>
      <trkpt lat="44.65778" lon="-0.25383">
        <ele>63.1</ele>
        <time>2014-01-05T11:57:06Z</time>
      </trkpt>
      <trkpt lat="44.65778" lon="-0.2538">
        <ele>63.1</ele>
        <time>2014-01-05T11:57:31Z</time>
      </trkpt>
      <trkpt lat="44.65778" lon="-0.25381">
        <ele>62.62</ele>
        <time>2014-01-05T11:58:12Z</time>
      </trkpt>
      <trkpt lat="44.65779" lon="-0.25383">
        <ele>62.62</ele>
        <time>2014-01-05T11:58:46Z</time>
      </trkpt>
      <trkpt lat="44.65778" lon="-0.25382">
        <ele>62.14</ele>
        <time>2014-01-05T11:59:15Z</time>
      </trkpt>
      <trkpt lat="44.6578" lon="-0.25382">
        <ele>62.14</ele>
        <time>2014-01-05T11:59:50Z</time>
      </trkpt>
      <trkpt lat="44.65781" lon="-0.25383">
        <ele>61.18</ele>
        <time>2014-01-05T12:00:29Z</time>
      </trkpt>
      <trkpt lat="44.6578" lon="-0.25381">
        <ele>61.18</ele>
        <time>2014-01-05T12:01:08Z</time>
      </trkpt>
      <trkpt lat="44.6578" lon="-0.25383">
        <ele>61.66</ele>
        <time>2014-01-05T12:01:42Z</time>
      </trkpt>
      <trkpt lat="44.65776" lon="-0.25384">
        <ele>61.18</ele>
        <time>2014-01-05T12:02:34Z</time>
      </trkpt>
      <trkpt lat="44.65778" lon="-0.25383">
        <ele>60.7</ele>
        <time>2014-01-05T12:03:06Z</time>
      </trkpt>
      <trkpt lat="44.65775" lon="-0.25385">
        <ele>60.7</ele>
        <time>2014-01-05T12:03:50Z</time>
      </trkpt>
      <trkpt lat="44.6578" lon="-0.25381">
        <ele>60.7</ele>
        <time>2014-01-05T12:04:22Z</time>
      </trkpt>
      <trkpt lat="44.6578" lon="-0.25381">
        <ele>60.22</ele>
        <time>2014-01-05T12:04:56Z</time>
      </trkpt>
      <trkpt lat="44.65776" lon="-0.2538">
        <ele>60.22</ele>
        <time>2014-01-05T12:05:30Z</time>
      </trkpt>
      <trkpt lat="44.65779" lon="-0.25378">
        <ele>60.22</ele>
        <time>2014-01-05T12:06:08Z</time>
      </trkpt>
      <trkpt lat="44.65779" lon="-0.25378">
        <ele>59.74</ele>
        <time>2014-01-05T12:06:50Z</time>
      </trkpt>
      <trkpt lat="44.65777" lon="-0.25378">
        <ele>59.74</ele>
        <time>2014-01-05T12:07:31Z</time>
      </trkpt>
      <trkpt lat="44.65776" lon="-0.25378">
        <ele>59.74</ele>
        <time>2014-01-05T12:08:14Z</time>
      </trkpt>
      <trkpt lat="44.65779" lon="-0.2538">
        <ele>59.74</ele>
        <time>2014-01-05T12:08:53Z</time>
      </trkpt>
      <trkpt lat="44.65776" lon="-0.25379">
        <ele>59.26</ele>
        <time>2014-01-05T12:09:30Z</time>
      </trkpt>
      <trkpt lat="44.65777" lon="-0.25382">
        <ele>59.26</ele>
        <time>2014-01-05T12:10:09Z</time>
      </trkpt>
      <trkpt lat="44.65777" lon="-0.25381">
        <ele>59.26</ele>
        <time>2014-01-05T12:10:47Z</time>
      </trkpt>
      <trkpt lat="44.65775" lon="-0.25378">
        <ele>59.74</ele>
        <time>2014-01-05T12:11:10Z</time>
      </trkpt>
      <trkpt lat="44.65774" lon="-0.25378">
        <ele>59.74</ele>
        <time>2014-01-05T12:11:42Z</time>
      </trkpt>
      <trkpt lat="44.65774" lon="-0.25378">
        <ele>60.22</ele>
        <time>2014-01-05T12:12:17Z</time>
      </trkpt>
      <trkpt lat="44.65775" lon="-0.25381">
        <ele>60.22</ele>
        <time>2014-01-05T12:12:38Z</time>
      </trkpt>
      <trkpt lat="44.65776" lon="-0.2538">
        <ele>60.22</ele>
        <time>2014-01-05T12:12:58Z</time>
      </trkpt>
      <trkpt lat="44.65777" lon="-0.2538">
        <ele>60.7</ele>
        <time>2014-01-05T12:13:52Z</time>
      </trkpt>
      <trkpt lat="44.65777" lon="-0.25378">
        <ele>60.7</ele>
        <time>2014-01-05T12:14:35Z</time>
      </trkpt>
      <trkpt lat="44.65779" lon="-0.2538">
        <ele>60.22</ele>
        <time>2014-01-05T12:15:20Z</time>
      </trkpt>
      <trkpt lat="44.65778" lon="-0.25381">
        <ele>60.22</ele>
        <time>2014-01-05T12:16:05Z</time>
      </trkpt>
      <trkpt lat="44.65777" lon="-0.25378">
        <ele>60.22</ele>
        <time>2014-01-05T12:16:52Z</time>
      </trkpt>
      <trkpt lat="44.65778" lon="-0.25378">
        <ele>59.74</ele>
        <time>2014-01-05T12:17:33Z</time>
      </trkpt>
      <trkpt lat="44.65776" lon="-0.25378">
        <ele>60.22</ele>
        <time>2014-01-05T12:18:14Z</time>
      </trkpt>
      <trkpt lat="44.6578" lon="-0.25382">
        <ele>59.74</ele>
        <time>2014-01-05T12:18:58Z</time>
      </trkpt>
      <trkpt lat="44.65777" lon="-0.2538">
        <ele>59.26</ele>
        <time>2014-01-05T12:19:39Z</time>
      </trkpt>
      <trkpt lat="44.65779" lon="-0.25378">
        <ele>59.26</ele>
        <time>2014-01-05T12:20:19Z</time>
      </trkpt>
      <trkpt lat="44.65776" lon="-0.25379">
        <ele>58.78</ele>
        <time>2014-01-05T12:20:55Z</time>
      </trkpt>
      <trkpt lat="44.65778" lon="-0.25378">
        <ele>59.26</ele>
        <time>2014-01-05T12:21:35Z</time>
      </trkpt>
      <trkpt lat="44.65776" lon="-0.25377">
        <ele>59.26</ele>
        <time>2014-01-05T12:21:56Z</time>
      </trkpt>
      <trkpt lat="44.65778" lon="-0.25376">
        <ele>59.26</ele>
        <time>2014-01-05T12:22:23Z</time>
      </trkpt>
      <trkpt lat="44.65775" lon="-0.25385">
        <ele>59.74</ele>
        <time>2014-01-05T12:22:35Z</time>
      </trkpt>
      <trkpt lat="44.65778" lon="-0.2538">
        <ele>59.74</ele>
        <time>2014-01-05T12:22:47Z</time>
      </trkpt>
      <trkpt lat="44.6578" lon="-0.25381">
        <ele>59.74</ele>
        <time>2014-01-05T12:23:12Z</time>
      </trkpt>
      <trkpt lat="44.65777" lon="-0.25377">
        <ele>59.74</ele>
        <time>2014-01-05T12:23:26Z</time>
      </trkpt>
      <trkpt lat="44.65777" lon="-0.25369">
        <ele>60.22</ele>
        <time>2014-01-05T12:23:38Z</time>
      </trkpt>
      <trkpt lat="44.65778" lon="-0.25362">
        <ele>60.7</ele>
        <time>2014-01-05T12:23:51Z</time>
      </trkpt>
      <trkpt lat="44.65779" lon="-0.25362">
        <ele>60.7</ele>
        <time>2014-01-05T12:24:05Z</time>
      </trkpt>
      <trkpt lat="44.65781" lon="-0.25362">
        <ele>60.7</ele>
        <time>2014-01-05T12:24:20Z</time>
      </trkpt>
      <trkpt lat="44.65779" lon="-0.25362">
        <ele>60.7</ele>
        <time>2014-01-05T12:24:32Z</time>
      </trkpt>
      <trkpt lat="44.6578" lon="-0.25367">
        <ele>60.22</ele>
        <time>2014-01-05T12:24:50Z</time>
      </trkpt>
      <trkpt lat="44.65778" lon="-0.2536">
        <ele>60.7</ele>
        <time>2014-01-05T12:25:08Z</time>
      </trkpt>
      <trkpt lat="44.6578" lon="-0.25358">
        <ele>60.7</ele>
        <time>2014-01-05T12:25:17Z</time>
      </trkpt>
      <trkpt lat="44.6578" lon="-0.25364">
        <ele>60.7</ele>
        <time>2014-01-05T12:25:31Z</time>
      </trkpt>
      <trkpt lat="44.65781" lon="-0.25365">
        <ele>60.7</ele>
        <time>2014-01-05T12:25:50Z</time>
      </trkpt>
      <trkpt lat="44.65781" lon="-0.25367">
        <ele>60.7</ele>
        <time>2014-01-05T12:26:10Z</time>
      </trkpt>
      <trkpt lat="44.65781" lon="-0.25366">
        <ele>60.22</ele>
        <time>2014-01-05T12:26:27Z</time>
      </trkpt>
      <trkpt lat="44.65779" lon="-0.25365">
        <ele>60.7</ele>
        <time>2014-01-05T12:26:51Z</time>
      </trkpt>
      <trkpt lat="44.65779" lon="-0.25362">
        <ele>60.7</ele>
        <time>2014-01-05T12:27:01Z</time>
      </trkpt>
      <trkpt lat="44.65781" lon="-0.25364">
        <ele>60.7</ele>
        <time>2014-01-05T12:27:17Z</time>
      </trkpt>
      <trkpt lat="44.65781" lon="-0.25367">
        <ele>60.22</ele>
        <time>2014-01-05T12:27:36Z</time>
      </trkpt>
      <trkpt lat="44.6578" lon="-0.25369">
        <ele>60.22</ele>
        <time>2014-01-05T12:27:59Z</time>
      </trkpt>
      <trkpt lat="44.65781" lon="-0.25361">
        <ele>60.7</ele>
        <time>2014-01-05T12:28:14Z</time>
      </trkpt>
      <trkpt lat="44.65782" lon="-0.25352">
        <ele>60.7</ele>
        <time>2014-01-05T12:28:20Z</time>
      </trkpt>
      <trkpt lat="44.65784" lon="-0.25333">
        <ele>60.22</ele>
        <time>2014-01-05T12:28:36Z</time>
      </trkpt>
      <trkpt lat="44.65782" lon="-0.25317">
        <ele>59.74</ele>
        <time>2014-01-05T12:28:50Z</time>
      </trkpt>
      <trkpt lat="44.65778" lon="-0.25304">
        <ele>59.74</ele>
        <time>2014-01-05T12:29:04Z</time>
      </trkpt>
      <trkpt lat="44.65774" lon="-0.2529">
        <ele>58.3</ele>
        <time>2014-01-05T12:29:17Z</time>
      </trkpt>
      <trkpt lat="44.65773" lon="-0.25274">
        <ele>59.26</ele>
        <time>2014-01-05T12:29:28Z</time>
      </trkpt>
      <trkpt lat="44.65775" lon="-0.25252">
        <ele>59.74</ele>
        <time>2014-01-05T12:29:45Z</time>
      </trkpt>
      <trkpt lat="44.65772" lon="-0.25242">
        <ele>60.22</ele>
        <time>2014-01-05T12:30:00Z</time>
      </trkpt>
      <trkpt lat="44.65772" lon="-0.25236">
        <ele>59.74</ele>
        <time>2014-01-05T12:30:13Z</time>
      </trkpt>
      <trkpt lat="44.65768" lon="-0.25215">
        <ele>59.74</ele>
        <time>2014-01-05T12:30:30Z</time>
      </trkpt>
      <trkpt lat="44.65768" lon="-0.25197">
        <ele>59.26</ele>
        <time>2014-01-05T12:30:46Z</time>
      </trkpt>
      <trkpt lat="44.65767" lon="-0.25175">
        <ele>59.74</ele>
        <time>2014-01-05T12:31:01Z</time>
      </trkpt>
      <trkpt lat="44.65765" lon="-0.25166">
        <ele>59.74</ele>
        <time>2014-01-05T12:31:09Z</time>
      </trkpt>
      <trkpt lat="44.65759" lon="-0.2516">
        <ele>59.74</ele>
        <time>2014-01-05T12:31:15Z</time>
      </trkpt>
      <trkpt lat="44.6575" lon="-0.25151">
        <ele>59.74</ele>
        <time>2014-01-05T12:31:28Z</time>
      </trkpt>
      <trkpt lat="44.65748" lon="-0.25149">
        <ele>59.74</ele>
        <time>2014-01-05T12:31:31Z</time>
      </trkpt>
      <trkpt lat="44.65739" lon="-0.25135">
        <ele>59.26</ele>
        <time>2014-01-05T12:31:46Z</time>
      </trkpt>
      <trkpt lat="44.65738" lon="-0.25127">
        <ele>59.74</ele>
        <time>2014-01-05T12:31:51Z</time>
      </trkpt>
      <trkpt lat="44.65735" lon="-0.25117">
        <ele>59.74</ele>
        <time>2014-01-05T12:31:57Z</time>
      </trkpt>
      <trkpt lat="44.65734" lon="-0.25109">
        <ele>59.26</ele>
        <time>2014-01-05T12:32:02Z</time>
      </trkpt>
      <trkpt lat="44.65729" lon="-0.25099">
        <ele>59.26</ele>
        <time>2014-01-05T12:32:10Z</time>
      </trkpt>
      <trkpt lat="44.65724" lon="-0.25079">
        <ele>59.74</ele>
        <time>2014-01-05T12:32:26Z</time>
      </trkpt>
      <trkpt lat="44.65724" lon="-0.25077">
        <ele>59.74</ele>
        <time>2014-01-05T12:32:28Z</time>
      </trkpt>
      <trkpt lat="44.65721" lon="-0.25071">
        <ele>59.74</ele>
        <time>2014-01-05T12:32:33Z</time>
      </trkpt>
      <trkpt lat="44.65715" lon="-0.25052">
        <ele>60.7</ele>
        <time>2014-01-05T12:32:47Z</time>
      </trkpt>
      <trkpt lat="44.65715" lon="-0.25025">
        <ele>61.18</ele>
        <time>2014-01-05T12:33:03Z</time>
      </trkpt>
      <trkpt lat="44.65718" lon="-0.25008">
        <ele>61.66</ele>
        <time>2014-01-05T12:33:14Z</time>
      </trkpt>
      <trkpt lat="44.65719" lon="-0.25005">
        <ele>61.18</ele>
        <time>2014-01-05T12:33:16Z</time>
      </trkpt>
      <trkpt lat="44.6572" lon="-0.24993">
        <ele>61.18</ele>
        <time>2014-01-05T12:33:26Z</time>
      </trkpt>
      <trkpt lat="44.6572" lon="-0.24989">
        <ele>61.66</ele>
        <time>2014-01-05T12:33:29Z</time>
      </trkpt>
      <trkpt lat="44.65719" lon="-0.24975">
        <ele>61.66</ele>
        <time>2014-01-05T12:33:43Z</time>
      </trkpt>
      <trkpt lat="44.65717" lon="-0.2497">
        <ele>61.66</ele>
        <time>2014-01-05T12:33:47Z</time>
      </trkpt>
      <trkpt lat="44.65717" lon="-0.24949">
        <ele>62.14</ele>
        <time>2014-01-05T12:34:04Z</time>
      </trkpt>
      <trkpt lat="44.65715" lon="-0.24927">
        <ele>62.14</ele>
        <time>2014-01-05T12:34:19Z</time>
      </trkpt>
      <trkpt lat="44.65713" lon="-0.24905">
        <ele>62.14</ele>
        <time>2014-01-05T12:34:34Z</time>
      </trkpt>
      <trkpt lat="44.65713" lon="-0.24895">
        <ele>62.62</ele>
        <time>2014-01-05T12:34:41Z</time>
      </trkpt>
      <trkpt lat="44.65709" lon="-0.24871">
        <ele>63.1</ele>
        <time>2014-01-05T12:34:58Z</time>
      </trkpt>
      <trkpt lat="44.65706" lon="-0.24854">
        <ele>63.58</ele>
        <time>2014-01-05T12:35:10Z</time>
      </trkpt>
      <trkpt lat="44.65703" lon="-0.2483">
        <ele>63.58</ele>
        <time>2014-01-05T12:35:28Z</time>
      </trkpt>
      <trkpt lat="44.65705" lon="-0.24826">
        <ele>64.07</ele>
        <time>2014-01-05T12:35:41Z</time>
      </trkpt>
      <trkpt lat="44.65707" lon="-0.24827">
        <ele>63.58</ele>
        <time>2014-01-05T12:35:57Z</time>
      </trkpt>
      <trkpt lat="44.65708" lon="-0.24826">
        <ele>63.58</ele>
        <time>2014-01-05T12:36:13Z</time>
      </trkpt>
      <trkpt lat="44.65715" lon="-0.24816">
        <ele>65.51</ele>
        <time>2014-01-05T12:36:29Z</time>
      </trkpt>
      <trkpt lat="44.65722" lon="-0.24803">
        <ele>66.47</ele>
        <time>2014-01-05T12:36:43Z</time>
      </trkpt>
      <trkpt lat="44.65729" lon="-0.24789">
        <ele>67.91</ele>
        <time>2014-01-05T12:36:57Z</time>
      </trkpt>
      <trkpt lat="44.65731" lon="-0.24773">
        <ele>67.91</ele>
        <time>2014-01-05T12:37:12Z</time>
      </trkpt>
      <trkpt lat="44.65736" lon="-0.24754">
        <ele>67.91</ele>
        <time>2014-01-05T12:37:28Z</time>
      </trkpt>
      <trkpt lat="44.65741" lon="-0.24746">
        <ele>68.39</ele>
        <time>2014-01-05T12:37:41Z</time>
      </trkpt>
      <trkpt lat="44.6575" lon="-0.24739">
        <ele>68.87</ele>
        <time>2014-01-05T12:37:56Z</time>
      </trkpt>
      <trkpt lat="44.65748" lon="-0.24735">
        <ele>67.91</ele>
        <time>2014-01-05T12:38:07Z</time>
      </trkpt>
      <trkpt lat="44.65757" lon="-0.2472">
        <ele>67.91</ele>
        <time>2014-01-05T12:38:22Z</time>
      </trkpt>
      <trkpt lat="44.65764" lon="-0.24709">
        <ele>68.87</ele>
        <time>2014-01-05T12:38:35Z</time>
      </trkpt>
      <trkpt lat="44.65776" lon="-0.24699">
        <ele>70.31</ele>
        <time>2014-01-05T12:38:51Z</time>
      </trkpt>
      <trkpt lat="44.65789" lon="-0.24687">
        <ele>71.76</ele>
        <time>2014-01-05T12:39:07Z</time>
      </trkpt>
      <trkpt lat="44.65798" lon="-0.2468">
        <ele>73.2</ele>
        <time>2014-01-05T12:39:21Z</time>
      </trkpt>
      <trkpt lat="44.65804" lon="-0.24672">
        <ele>74.64</ele>
        <time>2014-01-05T12:39:36Z</time>
      </trkpt>
      <trkpt lat="44.65813" lon="-0.24666">
        <ele>75.6</ele>
        <time>2014-01-05T12:39:51Z</time>
      </trkpt>
      <trkpt lat="44.65813" lon="-0.24655">
        <ele>74.64</ele>
        <time>2014-01-05T12:40:03Z</time>
      </trkpt>
      <trkpt lat="44.65817" lon="-0.24644">
        <ele>74.16</ele>
        <time>2014-01-05T12:40:15Z</time>
      </trkpt>
      <trkpt lat="44.65821" lon="-0.24634">
        <ele>73.68</ele>
        <time>2014-01-05T12:40:28Z</time>
      </trkpt>
      <trkpt lat="44.65828" lon="-0.24622">
        <ele>74.16</ele>
        <time>2014-01-05T12:40:40Z</time>
      </trkpt>
      <trkpt lat="44.65838" lon="-0.24612">
        <ele>75.12</ele>
        <time>2014-01-05T12:40:55Z</time>
      </trkpt>
      <trkpt lat="44.65853" lon="-0.24597">
        <ele>77.04</ele>
        <time>2014-01-05T12:41:11Z</time>
      </trkpt>
      <trkpt lat="44.65865" lon="-0.24589">
        <ele>78</ele>
        <time>2014-01-05T12:41:25Z</time>
      </trkpt>
      <trkpt lat="44.65869" lon="-0.24582">
        <ele>78.48</ele>
        <time>2014-01-05T12:41:38Z</time>
      </trkpt>
      <trkpt lat="44.65866" lon="-0.24571">
        <ele>78.48</ele>
        <time>2014-01-05T12:41:50Z</time>
      </trkpt>
      <trkpt lat="44.65866" lon="-0.24558">
        <ele>78</ele>
        <time>2014-01-05T12:42:02Z</time>
      </trkpt>
      <trkpt lat="44.65868" lon="-0.2455">
        <ele>78</ele>
        <time>2014-01-05T12:42:22Z</time>
      </trkpt>
      <trkpt lat="44.6587" lon="-0.24535">
        <ele>78.48</ele>
        <time>2014-01-05T12:42:35Z</time>
      </trkpt>
      <trkpt lat="44.65869" lon="-0.24519">
        <ele>78.48</ele>
        <time>2014-01-05T12:42:49Z</time>
      </trkpt>
      <trkpt lat="44.65868" lon="-0.24506">
        <ele>78.97</ele>
        <time>2014-01-05T12:43:02Z</time>
      </trkpt>
      <trkpt lat="44.65871" lon="-0.24498">
        <ele>80.41</ele>
        <time>2014-01-05T12:43:13Z</time>
      </trkpt>
      <trkpt lat="44.65877" lon="-0.24486">
        <ele>81.37</ele>
        <time>2014-01-05T12:43:26Z</time>
      </trkpt>
      <trkpt lat="44.65875" lon="-0.24468">
        <ele>81.85</ele>
        <time>2014-01-05T12:43:41Z</time>
      </trkpt>
      <trkpt lat="44.65874" lon="-0.24465">
        <ele>81.85</ele>
        <time>2014-01-05T12:43:45Z</time>
      </trkpt>
      <trkpt lat="44.65875" lon="-0.24447">
        <ele>83.29</ele>
        <time>2014-01-05T12:43:59Z</time>
      </trkpt>
      <trkpt lat="44.65876" lon="-0.24429">
        <ele>84.25</ele>
        <time>2014-01-05T12:44:13Z</time>
      </trkpt>
      <trkpt lat="44.65873" lon="-0.24417">
        <ele>85.69</ele>
        <time>2014-01-05T12:44:26Z</time>
      </trkpt>
      <trkpt lat="44.65872" lon="-0.24406">
        <ele>86.66</ele>
        <time>2014-01-05T12:44:39Z</time>
      </trkpt>
      <trkpt lat="44.65879" lon="-0.24388">
        <ele>88.1</ele>
        <time>2014-01-05T12:44:54Z</time>
      </trkpt>
      <trkpt lat="44.65879" lon="-0.24378">
        <ele>90.02</ele>
        <time>2014-01-05T12:45:07Z</time>
      </trkpt>
      <trkpt lat="44.6588" lon="-0.24359">
        <ele>91.46</ele>
        <time>2014-01-05T12:45:23Z</time>
      </trkpt>
      <trkpt lat="44.65878" lon="-0.24346">
        <ele>92.42</ele>
        <time>2014-01-05T12:45:36Z</time>
      </trkpt>
      <trkpt lat="44.65871" lon="-0.24332">
        <ele>94.83</ele>
        <time>2014-01-05T12:45:49Z</time>
      </trkpt>
      <trkpt lat="44.65868" lon="-0.24313">
        <ele>96.75</ele>
        <time>2014-01-05T12:46:05Z</time>
      </trkpt>
      <trkpt lat="44.65866" lon="-0.24296">
        <ele>98.67</ele>
        <time>2014-01-05T12:46:18Z</time>
      </trkpt>
      <trkpt lat="44.65862" lon="-0.24279">
        <ele>101.56</ele>
        <time>2014-01-05T12:46:33Z</time>
      </trkpt>
      <trkpt lat="44.65858" lon="-0.24261">
        <ele>103</ele>
        <time>2014-01-05T12:46:47Z</time>
      </trkpt>
      <trkpt lat="44.65857" lon="-0.24247">
        <ele>104.92</ele>
        <time>2014-01-05T12:46:59Z</time>
      </trkpt>
      <trkpt lat="44.65858" lon="-0.2422">
        <ele>106.36</ele>
        <time>2014-01-05T12:47:15Z</time>
      </trkpt>
      <trkpt lat="44.6586" lon="-0.24196">
        <ele>107.32</ele>
        <time>2014-01-05T12:47:32Z</time>
      </trkpt>
      <trkpt lat="44.65862" lon="-0.24191">
        <ele>107.81</ele>
        <time>2014-01-05T12:47:47Z</time>
      </trkpt>
      <trkpt lat="44.65865" lon="-0.24194">
        <ele>107.81</ele>
        <time>2014-01-05T12:48:06Z</time>
      </trkpt>
      <trkpt lat="44.65866" lon="-0.24196">
        <ele>107.81</ele>
        <time>2014-01-05T12:48:24Z</time>
      </trkpt>
      <trkpt lat="44.65871" lon="-0.24195">
        <ele>107.32</ele>
        <time>2014-01-05T12:48:50Z</time>
      </trkpt>
      <trkpt lat="44.65873" lon="-0.24192">
        <ele>107.32</ele>
        <time>2014-01-05T12:49:16Z</time>
      </trkpt>
      <trkpt lat="44.6587" lon="-0.2419">
        <ele>107.32</ele>
        <time>2014-01-05T12:49:38Z</time>
      </trkpt>
      <trkpt lat="44.65869" lon="-0.2419">
        <ele>107.81</ele>
        <time>2014-01-05T12:50:15Z</time>
      </trkpt>
      <trkpt lat="44.65868" lon="-0.2419">
        <ele>107.32</ele>
        <time>2014-01-05T12:50:32Z</time>
      </trkpt>
      <trkpt lat="44.65874" lon="-0.24192">
        <ele>107.32</ele>
        <time>2014-01-05T12:50:44Z</time>
      </trkpt>
      <trkpt lat="44.6589" lon="-0.24197">
        <ele>106.84</ele>
        <time>2014-01-05T12:51:00Z</time>
      </trkpt>
      <trkpt lat="44.65896" lon="-0.24199">
        <ele>106.84</ele>
        <time>2014-01-05T12:51:06Z</time>
      </trkpt>
      <trkpt lat="44.65903" lon="-0.24201">
        <ele>106.84</ele>
        <time>2014-01-05T12:51:13Z</time>
      </trkpt>
      <trkpt lat="44.65919" lon="-0.24206">
        <ele>105.88</ele>
        <time>2014-01-05T12:51:29Z</time>
      </trkpt>
      <trkpt lat="44.65931" lon="-0.24213">
        <ele>105.88</ele>
        <time>2014-01-05T12:51:42Z</time>
      </trkpt>
      <trkpt lat="44.65952" lon="-0.2422">
        <ele>105.88</ele>
        <time>2014-01-05T12:52:00Z</time>
      </trkpt>
      <trkpt lat="44.6597" lon="-0.24229">
        <ele>106.36</ele>
        <time>2014-01-05T12:52:17Z</time>
      </trkpt>
      <trkpt lat="44.65989" lon="-0.24248">
        <ele>106.36</ele>
        <time>2014-01-05T12:52:34Z</time>
      </trkpt>
      <trkpt lat="44.66005" lon="-0.2427">
        <ele>105.88</ele>
        <time>2014-01-05T12:52:52Z</time>
      </trkpt>
      <trkpt lat="44.66019" lon="-0.24288">
        <ele>105.88</ele>
        <time>2014-01-05T12:53:08Z</time>
      </trkpt>
      <trkpt lat="44.66033" lon="-0.24306">
        <ele>105.4</ele>
        <time>2014-01-05T12:53:23Z</time>
      </trkpt>
      <trkpt lat="44.66048" lon="-0.24327">
        <ele>105.4</ele>
        <time>2014-01-05T12:53:41Z</time>
      </trkpt>
      <trkpt lat="44.66061" lon="-0.24345">
        <ele>105.4</ele>
        <time>2014-01-05T12:53:57Z</time>
      </trkpt>
      <trkpt lat="44.66063" lon="-0.24347">
        <ele>105.4</ele>
        <time>2014-01-05T12:53:59Z</time>
      </trkpt>
      <trkpt lat="44.66074" lon="-0.24354">
        <ele>105.4</ele>
        <time>2014-01-05T12:54:13Z</time>
      </trkpt>
      <trkpt lat="44.66076" lon="-0.24358">
        <ele>105.88</ele>
        <time>2014-01-05T12:54:17Z</time>
      </trkpt>
      <trkpt lat="44.66081" lon="-0.24386">
        <ele>107.32</ele>
        <time>2014-01-05T12:54:35Z</time>
      </trkpt>
      <trkpt lat="44.66082" lon="-0.24396">
        <ele>106.84</ele>
        <time>2014-01-05T12:54:43Z</time>
      </trkpt>
      <trkpt lat="44.66082" lon="-0.24406">
        <ele>107.32</ele>
        <time>2014-01-05T12:54:50Z</time>
      </trkpt>
      <trkpt lat="44.66083" lon="-0.24418">
        <ele>107.32</ele>
        <time>2014-01-05T12:54:58Z</time>
      </trkpt>
      <trkpt lat="44.66084" lon="-0.24447">
        <ele>108.29</ele>
        <time>2014-01-05T12:55:17Z</time>
      </trkpt>
      <trkpt lat="44.66083" lon="-0.24471">
        <ele>109.25</ele>
        <time>2014-01-05T12:55:34Z</time>
      </trkpt>
      <trkpt lat="44.66079" lon="-0.24491">
        <ele>110.21</ele>
        <time>2014-01-05T12:55:48Z</time>
      </trkpt>
      <trkpt lat="44.66082" lon="-0.2451">
        <ele>109.73</ele>
        <time>2014-01-05T12:56:03Z</time>
      </trkpt>
      <trkpt lat="44.66082" lon="-0.24514">
        <ele>110.21</ele>
        <time>2014-01-05T12:56:06Z</time>
      </trkpt>
      <trkpt lat="44.66085" lon="-0.24533">
        <ele>111.17</ele>
        <time>2014-01-05T12:56:21Z</time>
      </trkpt>
      <trkpt lat="44.66087" lon="-0.24535">
        <ele>111.65</ele>
        <time>2014-01-05T12:56:23Z</time>
      </trkpt>
      <trkpt lat="44.66099" lon="-0.24543">
        <ele>110.69</ele>
        <time>2014-01-05T12:56:37Z</time>
      </trkpt>
      <trkpt lat="44.66101" lon="-0.24545">
        <ele>111.17</ele>
        <time>2014-01-05T12:56:39Z</time>
      </trkpt>
      <trkpt lat="44.66106" lon="-0.24549">
        <ele>110.69</ele>
        <time>2014-01-05T12:56:45Z</time>
      </trkpt>
      <trkpt lat="44.66108" lon="-0.2455">
        <ele>110.21</ele>
        <time>2014-01-05T12:56:47Z</time>
      </trkpt>
      <trkpt lat="44.6611" lon="-0.24552">
        <ele>110.21</ele>
        <time>2014-01-05T12:56:49Z</time>
      </trkpt>
      <trkpt lat="44.66116" lon="-0.24556">
        <ele>109.73</ele>
        <time>2014-01-05T12:56:55Z</time>
      </trkpt>
      <trkpt lat="44.6612" lon="-0.24558">
        <ele>109.25</ele>
        <time>2014-01-05T12:57:00Z</time>
      </trkpt>
      <trkpt lat="44.66132" lon="-0.24564">
        <ele>109.25</ele>
        <time>2014-01-05T12:57:13Z</time>
      </trkpt>
      <trkpt lat="44.66134" lon="-0.24564">
        <ele>109.25</ele>
        <time>2014-01-05T12:57:15Z</time>
      </trkpt>
      <trkpt lat="44.66139" lon="-0.24568">
        <ele>108.77</ele>
        <time>2014-01-05T12:57:22Z</time>
      </trkpt>
      <trkpt lat="44.66142" lon="-0.24569">
        <ele>109.25</ele>
        <time>2014-01-05T12:57:28Z</time>
      </trkpt>
      <trkpt lat="44.66153" lon="-0.2457">
        <ele>108.77</ele>
        <time>2014-01-05T12:57:41Z</time>
      </trkpt>
      <trkpt lat="44.66158" lon="-0.24567">
        <ele>108.29</ele>
        <time>2014-01-05T12:57:46Z</time>
      </trkpt>
      <trkpt lat="44.6616" lon="-0.24567">
        <ele>108.29</ele>
        <time>2014-01-05T12:57:48Z</time>
      </trkpt>
      <trkpt lat="44.66178" lon="-0.2456">
        <ele>107.32</ele>
        <time>2014-01-05T12:58:05Z</time>
      </trkpt>
      <trkpt lat="44.66192" lon="-0.24552">
        <ele>105.88</ele>
        <time>2014-01-05T12:58:20Z</time>
      </trkpt>
      <trkpt lat="44.66208" lon="-0.24541">
        <ele>103</ele>
        <time>2014-01-05T12:58:37Z</time>
      </trkpt>
      <trkpt lat="44.66214" lon="-0.24536">
        <ele>102.52</ele>
        <time>2014-01-05T12:58:44Z</time>
      </trkpt>
      <trkpt lat="44.66217" lon="-0.24534">
        <ele>102.04</ele>
        <time>2014-01-05T12:58:47Z</time>
      </trkpt>
      <trkpt lat="44.6623" lon="-0.24521">
        <ele>100.11</ele>
        <time>2014-01-05T12:59:02Z</time>
      </trkpt>
      <trkpt lat="44.66233" lon="-0.24517">
        <ele>99.63</ele>
        <time>2014-01-05T12:59:06Z</time>
      </trkpt>
      <trkpt lat="44.66247" lon="-0.24502">
        <ele>97.23</ele>
        <time>2014-01-05T12:59:21Z</time>
      </trkpt>
      <trkpt lat="44.66256" lon="-0.24493">
        <ele>96.27</ele>
        <time>2014-01-05T12:59:31Z</time>
      </trkpt>
      <trkpt lat="44.6626" lon="-0.24489">
        <ele>95.31</ele>
        <time>2014-01-05T12:59:35Z</time>
      </trkpt>
      <trkpt lat="44.66267" lon="-0.24482">
        <ele>94.35</ele>
        <time>2014-01-05T12:59:44Z</time>
      </trkpt>
      <trkpt lat="44.66272" lon="-0.24477">
        <ele>93.39</ele>
        <time>2014-01-05T12:59:50Z</time>
      </trkpt>
      <trkpt lat="44.66285" lon="-0.24467">
        <ele>91.46</ele>
        <time>2014-01-05T13:00:05Z</time>
      </trkpt>
      <trkpt lat="44.66301" lon="-0.2446">
        <ele>90.02</ele>
        <time>2014-01-05T13:00:20Z</time>
      </trkpt>
      <trkpt lat="44.66317" lon="-0.24457">
        <ele>88.58</ele>
        <time>2014-01-05T13:00:34Z</time>
      </trkpt>
      <trkpt lat="44.66325" lon="-0.24456">
        <ele>87.62</ele>
        <time>2014-01-05T13:00:42Z</time>
      </trkpt>
      <trkpt lat="44.66342" lon="-0.24452">
        <ele>86.66</ele>
        <time>2014-01-05T13:00:57Z</time>
      </trkpt>
      <trkpt lat="44.66359" lon="-0.24448">
        <ele>86.18</ele>
        <time>2014-01-05T13:01:11Z</time>
      </trkpt>
      <trkpt lat="44.66375" lon="-0.24443">
        <ele>85.21</ele>
        <time>2014-01-05T13:01:26Z</time>
      </trkpt>
      <trkpt lat="44.66392" lon="-0.24436">
        <ele>84.25</ele>
        <time>2014-01-05T13:01:41Z</time>
      </trkpt>
      <trkpt lat="44.66403" lon="-0.24432">
        <ele>84.25</ele>
        <time>2014-01-05T13:01:51Z</time>
      </trkpt>
      <trkpt lat="44.66405" lon="-0.24431">
        <ele>83.77</ele>
        <time>2014-01-05T13:01:54Z</time>
      </trkpt>
      <trkpt lat="44.66427" lon="-0.24431">
        <ele>83.77</ele>
        <time>2014-01-05T13:02:10Z</time>
      </trkpt>
      <trkpt lat="44.66446" lon="-0.24432">
        <ele>83.77</ele>
        <time>2014-01-05T13:02:27Z</time>
      </trkpt>
      <trkpt lat="44.66466" lon="-0.24433">
        <ele>83.29</ele>
        <time>2014-01-05T13:02:45Z</time>
      </trkpt>
      <trkpt lat="44.66485" lon="-0.24438">
        <ele>83.77</ele>
        <time>2014-01-05T13:03:00Z</time>
      </trkpt>
      <trkpt lat="44.66505" lon="-0.24446">
        <ele>84.25</ele>
        <time>2014-01-05T13:03:15Z</time>
      </trkpt>
      <trkpt lat="44.66512" lon="-0.2445">
        <ele>83.77</ele>
        <time>2014-01-05T13:03:20Z</time>
      </trkpt>
      <trkpt lat="44.66523" lon="-0.2447">
        <ele>83.77</ele>
        <time>2014-01-05T13:03:37Z</time>
      </trkpt>
      <trkpt lat="44.66531" lon="-0.24495">
        <ele>83.77</ele>
        <time>2014-01-05T13:03:53Z</time>
      </trkpt>
      <trkpt lat="44.66539" lon="-0.2452">
        <ele>83.77</ele>
        <time>2014-01-05T13:04:10Z</time>
      </trkpt>
      <trkpt lat="44.66548" lon="-0.24545">
        <ele>83.29</ele>
        <time>2014-01-05T13:04:27Z</time>
      </trkpt>
      <trkpt lat="44.6655" lon="-0.24549">
        <ele>83.77</ele>
        <time>2014-01-05T13:04:30Z</time>
      </trkpt>
      <trkpt lat="44.66557" lon="-0.24574">
        <ele>83.29</ele>
        <time>2014-01-05T13:04:47Z</time>
      </trkpt>
      <trkpt lat="44.66565" lon="-0.24599">
        <ele>82.81</ele>
        <time>2014-01-05T13:05:03Z</time>
      </trkpt>
      <trkpt lat="44.66571" lon="-0.24616">
        <ele>82.33</ele>
        <time>2014-01-05T13:05:14Z</time>
      </trkpt>
      <trkpt lat="44.66576" lon="-0.2463">
        <ele>81.85</ele>
        <time>2014-01-05T13:05:23Z</time>
      </trkpt>
      <trkpt lat="44.66586" lon="-0.24658">
        <ele>80.41</ele>
        <time>2014-01-05T13:05:40Z</time>
      </trkpt>
      <trkpt lat="44.66593" lon="-0.24683">
        <ele>78.97</ele>
        <time>2014-01-05T13:05:56Z</time>
      </trkpt>
      <trkpt lat="44.66602" lon="-0.24711">
        <ele>78</ele>
        <time>2014-01-05T13:06:14Z</time>
      </trkpt>
      <trkpt lat="44.6661" lon="-0.24736">
        <ele>77.52</ele>
        <time>2014-01-05T13:06:30Z</time>
      </trkpt>
      <trkpt lat="44.66616" lon="-0.24761">
        <ele>77.04</ele>
        <time>2014-01-05T13:06:45Z</time>
      </trkpt>
      <trkpt lat="44.66623" lon="-0.24787">
        <ele>75.6</ele>
        <time>2014-01-05T13:07:02Z</time>
      </trkpt>
      <trkpt lat="44.66629" lon="-0.24815">
        <ele>74.64</ele>
        <time>2014-01-05T13:07:19Z</time>
      </trkpt>
      <trkpt lat="44.66634" lon="-0.24838">
        <ele>73.2</ele>
        <time>2014-01-05T13:07:34Z</time>
      </trkpt>
      <trkpt lat="44.6664" lon="-0.24869">
        <ele>71.27</ele>
        <time>2014-01-05T13:07:53Z</time>
      </trkpt>
      <trkpt lat="44.66646" lon="-0.24895">
        <ele>69.35</ele>
        <time>2014-01-05T13:08:10Z</time>
      </trkpt>
      <trkpt lat="44.66651" lon="-0.24921">
        <ele>67.91</ele>
        <time>2014-01-05T13:08:26Z</time>
      </trkpt>
      <trkpt lat="44.66655" lon="-0.24933">
        <ele>66.95</ele>
        <time>2014-01-05T13:08:34Z</time>
      </trkpt>
      <trkpt lat="44.6666" lon="-0.24946">
        <ele>66.47</ele>
        <time>2014-01-05T13:08:43Z</time>
      </trkpt>
      <trkpt lat="44.66671" lon="-0.24971">
        <ele>65.99</ele>
        <time>2014-01-05T13:09:01Z</time>
      </trkpt>
      <trkpt lat="44.66672" lon="-0.24974">
        <ele>65.51</ele>
        <time>2014-01-05T13:09:03Z</time>
      </trkpt>
      <trkpt lat="44.66676" lon="-0.2498">
        <ele>66.47</ele>
        <time>2014-01-05T13:09:08Z</time>
      </trkpt>
      <trkpt lat="44.66686" lon="-0.24993">
        <ele>66.47</ele>
        <time>2014-01-05T13:09:20Z</time>
      </trkpt>
      <trkpt lat="44.66699" lon="-0.25005">
        <ele>65.99</ele>
        <time>2014-01-05T13:09:33Z</time>
      </trkpt>
      <trkpt lat="44.66702" lon="-0.25009">
        <ele>66.47</ele>
        <time>2014-01-05T13:09:37Z</time>
      </trkpt>
      <trkpt lat="44.66717" lon="-0.25021">
        <ele>66.95</ele>
        <time>2014-01-05T13:09:53Z</time>
      </trkpt>
      <trkpt lat="44.66732" lon="-0.25034">
        <ele>66.95</ele>
        <time>2014-01-05T13:10:08Z</time>
      </trkpt>
      <trkpt lat="44.66743" lon="-0.2505">
        <ele>66.95</ele>
        <time>2014-01-05T13:10:24Z</time>
      </trkpt>
      <trkpt lat="44.66759" lon="-0.25065">
        <ele>66.95</ele>
        <time>2014-01-05T13:10:41Z</time>
      </trkpt>
      <trkpt lat="44.66768" lon="-0.25072">
        <ele>66.95</ele>
        <time>2014-01-05T13:10:51Z</time>
      </trkpt>
      <trkpt lat="44.66774" lon="-0.2508">
        <ele>66.95</ele>
        <time>2014-01-05T13:11:05Z</time>
      </trkpt>
      <trkpt lat="44.66769" lon="-0.25082">
        <ele>66.47</ele>
        <time>2014-01-05T13:11:13Z</time>
      </trkpt>
      <trkpt lat="44.66766" lon="-0.25079">
        <ele>66.95</ele>
        <time>2014-01-05T13:11:17Z</time>
      </trkpt>
      <trkpt lat="44.66751" lon="-0.25067">
        <ele>67.43</ele>
        <time>2014-01-05T13:11:34Z</time>
      </trkpt>
      <trkpt lat="44.66732" lon="-0.25054">
        <ele>67.43</ele>
        <time>2014-01-05T13:11:52Z</time>
      </trkpt>
      <trkpt lat="44.66728" lon="-0.25052">
        <ele>67.43</ele>
        <time>2014-01-05T13:11:56Z</time>
      </trkpt>
      <trkpt lat="44.66723" lon="-0.25057">
        <ele>66.95</ele>
        <time>2014-01-05T13:12:03Z</time>
      </trkpt>
      <trkpt lat="44.66721" lon="-0.25059">
        <ele>66.47</ele>
        <time>2014-01-05T13:12:06Z</time>
      </trkpt>
      <trkpt lat="44.66713" lon="-0.25065">
        <ele>66.47</ele>
        <time>2014-01-05T13:12:14Z</time>
      </trkpt>
      <trkpt lat="44.66696" lon="-0.25069">
        <ele>65.03</ele>
        <time>2014-01-05T13:12:29Z</time>
      </trkpt>
      <trkpt lat="44.66679" lon="-0.25064">
        <ele>63.58</ele>
        <time>2014-01-05T13:12:44Z</time>
      </trkpt>
      <trkpt lat="44.66668" lon="-0.2506">
        <ele>63.1</ele>
        <time>2014-01-05T13:12:55Z</time>
      </trkpt>
      <trkpt lat="44.66657" lon="-0.25048">
        <ele>62.62</ele>
        <time>2014-01-05T13:13:08Z</time>
      </trkpt>
      <trkpt lat="44.66643" lon="-0.25043">
        <ele>62.14</ele>
        <time>2014-01-05T13:13:22Z</time>
      </trkpt>
      <trkpt lat="44.66633" lon="-0.25045">
        <ele>60.7</ele>
        <time>2014-01-05T13:13:37Z</time>
      </trkpt>
      <trkpt lat="44.66619" lon="-0.25049">
        <ele>60.7</ele>
        <time>2014-01-05T13:13:52Z</time>
      </trkpt>
      <trkpt lat="44.66609" lon="-0.25045">
        <ele>60.22</ele>
        <time>2014-01-05T13:14:06Z</time>
      </trkpt>
      <trkpt lat="44.66603" lon="-0.25046">
        <ele>60.7</ele>
        <time>2014-01-05T13:14:19Z</time>
      </trkpt>
      <trkpt lat="44.66602" lon="-0.25047">
        <ele>60.22</ele>
        <time>2014-01-05T13:14:21Z</time>
      </trkpt>
      <trkpt lat="44.66599" lon="-0.25047">
        <ele>60.22</ele>
        <time>2014-01-05T13:14:24Z</time>
      </trkpt>
      <trkpt lat="44.66594" lon="-0.25055">
        <ele>61.18</ele>
        <time>2014-01-05T13:14:36Z</time>
      </trkpt>
      <trkpt lat="44.66585" lon="-0.25071">
        <ele>61.18</ele>
        <time>2014-01-05T13:14:52Z</time>
      </trkpt>
      <trkpt lat="44.66577" lon="-0.25083">
        <ele>61.66</ele>
        <time>2014-01-05T13:15:06Z</time>
      </trkpt>
      <trkpt lat="44.66565" lon="-0.25092">
        <ele>62.14</ele>
        <time>2014-01-05T13:15:19Z</time>
      </trkpt>
      <trkpt lat="44.66559" lon="-0.25104">
        <ele>63.1</ele>
        <time>2014-01-05T13:15:31Z</time>
      </trkpt>
      <trkpt lat="44.6655" lon="-0.25116">
        <ele>64.07</ele>
        <time>2014-01-05T13:15:45Z</time>
      </trkpt>
      <trkpt lat="44.66541" lon="-0.25125">
        <ele>64.55</ele>
        <time>2014-01-05T13:15:59Z</time>
      </trkpt>
      <trkpt lat="44.66533" lon="-0.25133">
        <ele>65.51</ele>
        <time>2014-01-05T13:16:12Z</time>
      </trkpt>
      <trkpt lat="44.66526" lon="-0.25141">
        <ele>65.99</ele>
        <time>2014-01-05T13:16:26Z</time>
      </trkpt>
      <trkpt lat="44.66526" lon="-0.25146">
        <ele>67.91</ele>
        <time>2014-01-05T13:16:42Z</time>
      </trkpt>
      <trkpt lat="44.66526" lon="-0.25157">
        <ele>68.39</ele>
        <time>2014-01-05T13:16:55Z</time>
      </trkpt>
      <trkpt lat="44.66521" lon="-0.25167">
        <ele>69.35</ele>
        <time>2014-01-05T13:17:10Z</time>
      </trkpt>
      <trkpt lat="44.66519" lon="-0.25179">
        <ele>70.31</ele>
        <time>2014-01-05T13:17:23Z</time>
      </trkpt>
      <trkpt lat="44.66509" lon="-0.2519">
        <ele>70.79</ele>
        <time>2014-01-05T13:17:36Z</time>
      </trkpt>
      <trkpt lat="44.66504" lon="-0.25198">
        <ele>70.79</ele>
        <time>2014-01-05T13:17:49Z</time>
      </trkpt>
      <trkpt lat="44.66497" lon="-0.25213">
        <ele>69.83</ele>
        <time>2014-01-05T13:18:03Z</time>
      </trkpt>
      <trkpt lat="44.66488" lon="-0.25222">
        <ele>69.83</ele>
        <time>2014-01-05T13:18:17Z</time>
      </trkpt>
      <trkpt lat="44.66478" lon="-0.25231">
        <ele>69.83</ele>
        <time>2014-01-05T13:18:31Z</time>
      </trkpt>
      <trkpt lat="44.66475" lon="-0.25234">
        <ele>69.35</ele>
        <time>2014-01-05T13:18:35Z</time>
      </trkpt>
      <trkpt lat="44.66466" lon="-0.25242">
        <ele>69.83</ele>
        <time>2014-01-05T13:18:46Z</time>
      </trkpt>
      <trkpt lat="44.66465" lon="-0.25241">
        <ele>70.31</ele>
        <time>2014-01-05T13:18:52Z</time>
      </trkpt>
      <trkpt lat="44.66458" lon="-0.25245">
        <ele>70.31</ele>
        <time>2014-01-05T13:19:04Z</time>
      </trkpt>
      <trkpt lat="44.66448" lon="-0.25256">
        <ele>69.35</ele>
        <time>2014-01-05T13:19:18Z</time>
      </trkpt>
      <trkpt lat="44.66442" lon="-0.2526">
        <ele>69.83</ele>
        <time>2014-01-05T13:19:24Z</time>
      </trkpt>
      <trkpt lat="44.66441" lon="-0.25262">
        <ele>69.35</ele>
        <time>2014-01-05T13:19:26Z</time>
      </trkpt>
      <trkpt lat="44.66439" lon="-0.25263">
        <ele>68.87</ele>
        <time>2014-01-05T13:19:28Z</time>
      </trkpt>
      <trkpt lat="44.66426" lon="-0.25276">
        <ele>68.39</ele>
        <time>2014-01-05T13:19:43Z</time>
      </trkpt>
      <trkpt lat="44.66421" lon="-0.25281">
        <ele>67.91</ele>
        <time>2014-01-05T13:19:49Z</time>
      </trkpt>
      <trkpt lat="44.66407" lon="-0.25295">
        <ele>65.99</ele>
        <time>2014-01-05T13:20:05Z</time>
      </trkpt>
      <trkpt lat="44.66397" lon="-0.25307">
        <ele>65.03</ele>
        <time>2014-01-05T13:20:18Z</time>
      </trkpt>
      <trkpt lat="44.66388" lon="-0.25321">
        <ele>64.07</ele>
        <time>2014-01-05T13:20:33Z</time>
      </trkpt>
      <trkpt lat="44.66384" lon="-0.25323">
        <ele>64.07</ele>
        <time>2014-01-05T13:20:37Z</time>
      </trkpt>
      <trkpt lat="44.66375" lon="-0.2533">
        <ele>63.58</ele>
        <time>2014-01-05T13:20:47Z</time>
      </trkpt>
      <trkpt lat="44.66373" lon="-0.25332">
        <ele>63.1</ele>
        <time>2014-01-05T13:20:49Z</time>
      </trkpt>
      <trkpt lat="44.66372" lon="-0.25334">
        <ele>62.62</ele>
        <time>2014-01-05T13:20:51Z</time>
      </trkpt>
      <trkpt lat="44.66367" lon="-0.25337">
        <ele>63.1</ele>
        <time>2014-01-05T13:21:01Z</time>
      </trkpt>
      <trkpt lat="44.66367" lon="-0.2534">
        <ele>63.1</ele>
        <time>2014-01-05T13:21:03Z</time>
      </trkpt>
      <trkpt lat="44.6636" lon="-0.25354">
        <ele>62.62</ele>
        <time>2014-01-05T13:21:15Z</time>
      </trkpt>
      <trkpt lat="44.66364" lon="-0.2537">
        <ele>63.1</ele>
        <time>2014-01-05T13:21:28Z</time>
      </trkpt>
      <trkpt lat="44.66365" lon="-0.25375">
        <ele>63.58</ele>
        <time>2014-01-05T13:21:32Z</time>
      </trkpt>
      <trkpt lat="44.66368" lon="-0.25378">
        <ele>63.58</ele>
        <time>2014-01-05T13:21:36Z</time>
      </trkpt>
      <trkpt lat="44.66373" lon="-0.25387">
        <ele>63.58</ele>
        <time>2014-01-05T13:21:44Z</time>
      </trkpt>
      <trkpt lat="44.66384" lon="-0.25409">
        <ele>64.07</ele>
        <time>2014-01-05T13:22:01Z</time>
      </trkpt>
      <trkpt lat="44.66388" lon="-0.2543">
        <ele>65.51</ele>
        <time>2014-01-05T13:22:17Z</time>
      </trkpt>
      <trkpt lat="44.66389" lon="-0.25438">
        <ele>65.99</ele>
        <time>2014-01-05T13:22:31Z</time>
      </trkpt>
      <trkpt lat="44.66389" lon="-0.25437">
        <ele>65.99</ele>
        <time>2014-01-05T13:22:34Z</time>
      </trkpt>
      <trkpt lat="44.66393" lon="-0.25436">
        <ele>65.51</ele>
        <time>2014-01-05T13:22:39Z</time>
      </trkpt>
      <trkpt lat="44.66402" lon="-0.25429">
        <ele>64.07</ele>
        <time>2014-01-05T13:22:49Z</time>
      </trkpt>
      <trkpt lat="44.66415" lon="-0.2542">
        <ele>62.62</ele>
        <time>2014-01-05T13:23:04Z</time>
      </trkpt>
      <trkpt lat="44.66418" lon="-0.25418">
        <ele>62.62</ele>
        <time>2014-01-05T13:23:07Z</time>
      </trkpt>
      <trkpt lat="44.66421" lon="-0.25417">
        <ele>62.14</ele>
        <time>2014-01-05T13:23:10Z</time>
      </trkpt>
      <trkpt lat="44.66423" lon="-0.25415">
        <ele>61.66</ele>
        <time>2014-01-05T13:23:12Z</time>
      </trkpt>
      <trkpt lat="44.66425" lon="-0.25414">
        <ele>61.66</ele>
        <time>2014-01-05T13:23:14Z</time>
      </trkpt>
      <trkpt lat="44.66439" lon="-0.25405">
        <ele>59.26</ele>
        <time>2014-01-05T13:23:30Z</time>
      </trkpt>
      <trkpt lat="44.66445" lon="-0.25403">
        <ele>58.78</ele>
        <time>2014-01-05T13:23:37Z</time>
      </trkpt>
      <trkpt lat="44.66452" lon="-0.25409">
        <ele>58.78</ele>
        <time>2014-01-05T13:23:51Z</time>
      </trkpt>
      <trkpt lat="44.66456" lon="-0.25414">
        <ele>58.78</ele>
        <time>2014-01-05T13:23:57Z</time>
      </trkpt>
      <trkpt lat="44.66468" lon="-0.25431">
        <ele>58.78</ele>
        <time>2014-01-05T13:24:14Z</time>
      </trkpt>
      <trkpt lat="44.66472" lon="-0.25439">
        <ele>58.78</ele>
        <time>2014-01-05T13:24:22Z</time>
      </trkpt>
      <trkpt lat="44.66482" lon="-0.25455">
        <ele>58.3</ele>
        <time>2014-01-05T13:24:37Z</time>
      </trkpt>
      <trkpt lat="44.6649" lon="-0.25466">
        <ele>58.78</ele>
        <time>2014-01-05T13:24:52Z</time>
      </trkpt>
      <trkpt lat="44.66501" lon="-0.25462">
        <ele>58.3</ele>
        <time>2014-01-05T13:25:07Z</time>
      </trkpt>
      <trkpt lat="44.66513" lon="-0.25455">
        <ele>58.78</ele>
        <time>2014-01-05T13:25:22Z</time>
      </trkpt>
      <trkpt lat="44.66525" lon="-0.25452">
        <ele>58.3</ele>
        <time>2014-01-05T13:25:35Z</time>
      </trkpt>
      <trkpt lat="44.66534" lon="-0.25449">
        <ele>57.82</ele>
        <time>2014-01-05T13:25:45Z</time>
      </trkpt>
      <trkpt lat="44.66549" lon="-0.25442">
        <ele>56.86</ele>
        <time>2014-01-05T13:26:00Z</time>
      </trkpt>
      <trkpt lat="44.6656" lon="-0.25442">
        <ele>57.34</ele>
        <time>2014-01-05T13:26:13Z</time>
      </trkpt>
      <trkpt lat="44.66563" lon="-0.25443">
        <ele>56.86</ele>
        <time>2014-01-05T13:26:17Z</time>
      </trkpt>
      <trkpt lat="44.6657" lon="-0.25445">
        <ele>57.34</ele>
        <time>2014-01-05T13:26:23Z</time>
      </trkpt>
      <trkpt lat="44.66584" lon="-0.2545">
        <ele>56.37</ele>
        <time>2014-01-05T13:26:38Z</time>
      </trkpt>
      <trkpt lat="44.66594" lon="-0.25451">
        <ele>55.89</ele>
        <time>2014-01-05T13:26:53Z</time>
      </trkpt>
      <trkpt lat="44.66598" lon="-0.25452">
        <ele>55.89</ele>
        <time>2014-01-05T13:26:59Z</time>
      </trkpt>
      <trkpt lat="44.66602" lon="-0.25462">
        <ele>56.37</ele>
        <time>2014-01-05T13:27:12Z</time>
      </trkpt>
      <trkpt lat="44.66605" lon="-0.25474">
        <ele>55.89</ele>
        <time>2014-01-05T13:27:24Z</time>
      </trkpt>
      <trkpt lat="44.66609" lon="-0.25495">
        <ele>56.37</ele>
        <time>2014-01-05T13:27:40Z</time>
      </trkpt>
      <trkpt lat="44.66614" lon="-0.2551">
        <ele>56.86</ele>
        <time>2014-01-05T13:27:55Z</time>
      </trkpt>
      <trkpt lat="44.66616" lon="-0.25526">
        <ele>57.82</ele>
        <time>2014-01-05T13:28:09Z</time>
      </trkpt>
      <trkpt lat="44.66619" lon="-0.25546">
        <ele>58.78</ele>
        <time>2014-01-05T13:28:24Z</time>
      </trkpt>
      <trkpt lat="44.66622" lon="-0.25564">
        <ele>59.74</ele>
        <time>2014-01-05T13:28:39Z</time>
      </trkpt>
      <trkpt lat="44.66625" lon="-0.25583">
        <ele>60.7</ele>
        <time>2014-01-05T13:28:54Z</time>
      </trkpt>
      <trkpt lat="44.66626" lon="-0.256">
        <ele>61.66</ele>
        <time>2014-01-05T13:29:09Z</time>
      </trkpt>
      <trkpt lat="44.66628" lon="-0.25624">
        <ele>63.1</ele>
        <time>2014-01-05T13:29:28Z</time>
      </trkpt>
      <trkpt lat="44.6663" lon="-0.25645">
        <ele>63.58</ele>
        <time>2014-01-05T13:29:44Z</time>
      </trkpt>
      <trkpt lat="44.66633" lon="-0.25667">
        <ele>64.55</ele>
        <time>2014-01-05T13:30:00Z</time>
      </trkpt>
      <trkpt lat="44.66636" lon="-0.25685">
        <ele>65.51</ele>
        <time>2014-01-05T13:30:13Z</time>
      </trkpt>
      <trkpt lat="44.66637" lon="-0.25704">
        <ele>65.99</ele>
        <time>2014-01-05T13:30:27Z</time>
      </trkpt>
      <trkpt lat="44.66638" lon="-0.25707">
        <ele>66.47</ele>
        <time>2014-01-05T13:30:29Z</time>
      </trkpt>
      <trkpt lat="44.66643" lon="-0.25729">
        <ele>67.43</ele>
        <time>2014-01-05T13:30:44Z</time>
      </trkpt>
      <trkpt lat="44.66648" lon="-0.25741">
        <ele>67.91</ele>
        <time>2014-01-05T13:30:57Z</time>
      </trkpt>
      <trkpt lat="44.66648" lon="-0.25743">
        <ele>68.39</ele>
        <time>2014-01-05T13:30:58Z</time>
      </trkpt>
      <trkpt lat="44.6665" lon="-0.25755">
        <ele>68.87</ele>
        <time>2014-01-05T13:31:06Z</time>
      </trkpt>
      <trkpt lat="44.66652" lon="-0.25762">
        <ele>68.87</ele>
        <time>2014-01-05T13:31:11Z</time>
      </trkpt>
      <trkpt lat="44.66652" lon="-0.25764">
        <ele>68.87</ele>
        <time>2014-01-05T13:31:13Z</time>
      </trkpt>
      <trkpt lat="44.66653" lon="-0.25785">
        <ele>69.83</ele>
        <time>2014-01-05T13:31:29Z</time>
      </trkpt>
      <trkpt lat="44.66654" lon="-0.25787">
        <ele>69.83</ele>
        <time>2014-01-05T13:31:30Z</time>
      </trkpt>
      <trkpt lat="44.66656" lon="-0.25803">
        <ele>70.79</ele>
        <time>2014-01-05T13:31:43Z</time>
      </trkpt>
      <trkpt lat="44.66659" lon="-0.25815">
        <ele>71.27</ele>
        <time>2014-01-05T13:31:55Z</time>
      </trkpt>
      <trkpt lat="44.66656" lon="-0.25821">
        <ele>71.27</ele>
        <time>2014-01-05T13:32:10Z</time>
      </trkpt>
      <trkpt lat="44.66655" lon="-0.25818">
        <ele>70.31</ele>
        <time>2014-01-05T13:32:34Z</time>
      </trkpt>
      <trkpt lat="44.66657" lon="-0.2582">
        <ele>70.31</ele>
        <time>2014-01-05T13:32:54Z</time>
      </trkpt>
      <trkpt lat="44.66658" lon="-0.25821">
        <ele>67.43</ele>
        <time>2014-01-05T13:33:11Z</time>
      </trkpt>
      <trkpt lat="44.66658" lon="-0.25821">
        <ele>71.76</ele>
        <time>2014-01-05T13:33:12Z</time>
      </trkpt>
      <trkpt lat="44.66659" lon="-0.2582">
        <ele>71.76</ele>
        <time>2014-01-05T13:33:13Z</time>
      </trkpt>
      <trkpt lat="44.66658" lon="-0.25819">
        <ele>69.83</ele>
        <time>2014-01-05T13:33:34Z</time>
      </trkpt>
      <trkpt lat="44.66656" lon="-0.25818">
        <ele>70.31</ele>
        <time>2014-01-05T13:33:46Z</time>
      </trkpt>
      <trkpt lat="44.66655" lon="-0.25821">
        <ele>70.79</ele>
        <time>2014-01-05T13:33:58Z</time>
      </trkpt>
      <trkpt lat="44.66656" lon="-0.2582">
        <ele>70.79</ele>
        <time>2014-01-05T13:34:16Z</time>
      </trkpt>
      <trkpt lat="44.66657" lon="-0.25819">
        <ele>70.79</ele>
        <time>2014-01-05T13:34:33Z</time>
      </trkpt>
      <trkpt lat="44.66657" lon="-0.25818">
        <ele>70.79</ele>
        <time>2014-01-05T13:34:52Z</time>
      </trkpt>
      <trkpt lat="44.66665" lon="-0.25816">
        <ele>70.31</ele>
        <time>2014-01-05T13:35:00Z</time>
      </trkpt>
      <trkpt lat="44.66682" lon="-0.2581">
        <ele>69.83</ele>
        <time>2014-01-05T13:35:16Z</time>
      </trkpt>
      <trkpt lat="44.66687" lon="-0.25807">
        <ele>68.87</ele>
        <time>2014-01-05T13:35:22Z</time>
      </trkpt>
      <trkpt lat="44.66696" lon="-0.25802">
        <ele>68.87</ele>
        <time>2014-01-05T13:35:31Z</time>
      </trkpt>
      <trkpt lat="44.66704" lon="-0.25795">
        <ele>68.39</ele>
        <time>2014-01-05T13:35:40Z</time>
      </trkpt>
      <trkpt lat="44.66712" lon="-0.25788">
        <ele>67.91</ele>
        <time>2014-01-05T13:35:49Z</time>
      </trkpt>
      <trkpt lat="44.66716" lon="-0.25783">
        <ele>67.43</ele>
        <time>2014-01-05T13:35:54Z</time>
      </trkpt>
      <trkpt lat="44.66732" lon="-0.25779">
        <ele>65.99</ele>
        <time>2014-01-05T13:36:11Z</time>
      </trkpt>
      <trkpt lat="44.66743" lon="-0.25795">
        <ele>65.51</ele>
        <time>2014-01-05T13:36:25Z</time>
      </trkpt>
      <trkpt lat="44.66744" lon="-0.25798">
        <ele>65.03</ele>
        <time>2014-01-05T13:36:28Z</time>
      </trkpt>
      <trkpt lat="44.66737" lon="-0.2581">
        <ele>66.47</ele>
        <time>2014-01-05T13:36:41Z</time>
      </trkpt>
      <trkpt lat="44.66725" lon="-0.25819">
        <ele>67.43</ele>
        <time>2014-01-05T13:36:54Z</time>
      </trkpt>
      <trkpt lat="44.66714" lon="-0.2583">
        <ele>68.39</ele>
        <time>2014-01-05T13:37:07Z</time>
      </trkpt>
      <trkpt lat="44.66702" lon="-0.25847">
        <ele>68.87</ele>
        <time>2014-01-05T13:37:23Z</time>
      </trkpt>
      <trkpt lat="44.66692" lon="-0.25863">
        <ele>69.83</ele>
        <time>2014-01-05T13:37:38Z</time>
      </trkpt>
      <trkpt lat="44.66681" lon="-0.25874">
        <ele>70.79</ele>
        <time>2014-01-05T13:37:51Z</time>
      </trkpt>
      <trkpt lat="44.66674" lon="-0.25882">
        <ele>71.27</ele>
        <time>2014-01-05T13:38:01Z</time>
      </trkpt>
      <trkpt lat="44.66673" lon="-0.25885">
        <ele>71.76</ele>
        <time>2014-01-05T13:38:03Z</time>
      </trkpt>
      <trkpt lat="44.66661" lon="-0.25898">
        <ele>72.24</ele>
        <time>2014-01-05T13:38:18Z</time>
      </trkpt>
      <trkpt lat="44.66657" lon="-0.25902">
        <ele>72.24</ele>
        <time>2014-01-05T13:38:23Z</time>
      </trkpt>
      <trkpt lat="44.66647" lon="-0.25917">
        <ele>72.72</ele>
        <time>2014-01-05T13:38:37Z</time>
      </trkpt>
      <trkpt lat="44.66635" lon="-0.25933">
        <ele>73.68</ele>
        <time>2014-01-05T13:38:52Z</time>
      </trkpt>
      <trkpt lat="44.66633" lon="-0.25937">
        <ele>73.68</ele>
        <time>2014-01-05T13:38:56Z</time>
      </trkpt>
      <trkpt lat="44.66621" lon="-0.25951">
        <ele>74.16</ele>
        <time>2014-01-05T13:39:11Z</time>
      </trkpt>
      <trkpt lat="44.66612" lon="-0.25963">
        <ele>74.64</ele>
        <time>2014-01-05T13:39:25Z</time>
      </trkpt>
      <trkpt lat="44.66604" lon="-0.25982">
        <ele>74.64</ele>
        <time>2014-01-05T13:39:40Z</time>
      </trkpt>
      <trkpt lat="44.66595" lon="-0.25999">
        <ele>75.6</ele>
        <time>2014-01-05T13:39:54Z</time>
      </trkpt>
      <trkpt lat="44.66586" lon="-0.26015">
        <ele>76.56</ele>
        <time>2014-01-05T13:40:09Z</time>
      </trkpt>
      <trkpt lat="44.66581" lon="-0.26021">
        <ele>77.04</ele>
        <time>2014-01-05T13:40:15Z</time>
      </trkpt>
      <trkpt lat="44.66578" lon="-0.2603">
        <ele>77.52</ele>
        <time>2014-01-05T13:40:22Z</time>
      </trkpt>
      <trkpt lat="44.66567" lon="-0.26048">
        <ele>77.52</ele>
        <time>2014-01-05T13:40:38Z</time>
      </trkpt>
      <trkpt lat="44.66557" lon="-0.26059">
        <ele>76.56</ele>
        <time>2014-01-05T13:40:50Z</time>
      </trkpt>
      <trkpt lat="44.66556" lon="-0.2606">
        <ele>76.56</ele>
        <time>2014-01-05T13:40:51Z</time>
      </trkpt>
      <trkpt lat="44.66553" lon="-0.2607">
        <ele>76.08</ele>
        <time>2014-01-05T13:41:00Z</time>
      </trkpt>
      <trkpt lat="44.66548" lon="-0.26074">
        <ele>76.56</ele>
        <time>2014-01-05T13:41:05Z</time>
      </trkpt>
      <trkpt lat="44.6654" lon="-0.26093">
        <ele>75.6</ele>
        <time>2014-01-05T13:41:19Z</time>
      </trkpt>
      <trkpt lat="44.66539" lon="-0.26095">
        <ele>75.6</ele>
        <time>2014-01-05T13:41:21Z</time>
      </trkpt>
      <trkpt lat="44.66529" lon="-0.26113">
        <ele>76.08</ele>
        <time>2014-01-05T13:41:36Z</time>
      </trkpt>
      <trkpt lat="44.66521" lon="-0.2613">
        <ele>77.04</ele>
        <time>2014-01-05T13:41:50Z</time>
      </trkpt>
      <trkpt lat="44.66517" lon="-0.26147">
        <ele>77.04</ele>
        <time>2014-01-05T13:42:01Z</time>
      </trkpt>
      <trkpt lat="44.66514" lon="-0.26166">
        <ele>77.52</ele>
        <time>2014-01-05T13:42:15Z</time>
      </trkpt>
      <trkpt lat="44.66514" lon="-0.26186">
        <ele>78.48</ele>
        <time>2014-01-05T13:42:29Z</time>
      </trkpt>
      <trkpt lat="44.66507" lon="-0.26209">
        <ele>80.41</ele>
        <time>2014-01-05T13:42:44Z</time>
      </trkpt>
      <trkpt lat="44.66499" lon="-0.26227">
        <ele>81.85</ele>
        <time>2014-01-05T13:42:58Z</time>
      </trkpt>
      <trkpt lat="44.66495" lon="-0.26249">
        <ele>83.29</ele>
        <time>2014-01-05T13:43:13Z</time>
      </trkpt>
      <trkpt lat="44.66488" lon="-0.26263">
        <ele>83.77</ele>
        <time>2014-01-05T13:43:24Z</time>
      </trkpt>
      <trkpt lat="44.66487" lon="-0.26279">
        <ele>83.29</ele>
        <time>2014-01-05T13:43:34Z</time>
      </trkpt>
      <trkpt lat="44.66486" lon="-0.26283">
        <ele>83.29</ele>
        <time>2014-01-05T13:43:36Z</time>
      </trkpt>
      <trkpt lat="44.66481" lon="-0.26308">
        <ele>83.29</ele>
        <time>2014-01-05T13:43:53Z</time>
      </trkpt>
      <trkpt lat="44.66475" lon="-0.26323">
        <ele>84.25</ele>
        <time>2014-01-05T13:44:02Z</time>
      </trkpt>
      <trkpt lat="44.66472" lon="-0.26329">
        <ele>84.73</ele>
        <time>2014-01-05T13:44:06Z</time>
      </trkpt>
      <trkpt lat="44.66468" lon="-0.26345">
        <ele>84.73</ele>
        <time>2014-01-05T13:44:19Z</time>
      </trkpt>
      <trkpt lat="44.66469" lon="-0.26364">
        <ele>85.69</ele>
        <time>2014-01-05T13:44:31Z</time>
      </trkpt>
      <trkpt lat="44.66459" lon="-0.26388">
        <ele>87.14</ele>
        <time>2014-01-05T13:44:47Z</time>
      </trkpt>
      <trkpt lat="44.66445" lon="-0.264">
        <ele>89.54</ele>
        <time>2014-01-05T13:45:02Z</time>
      </trkpt>
      <trkpt lat="44.66434" lon="-0.26408">
        <ele>90.98</ele>
        <time>2014-01-05T13:45:17Z</time>
      </trkpt>
      <trkpt lat="44.66432" lon="-0.26401">
        <ele>90.5</ele>
        <time>2014-01-05T13:45:30Z</time>
      </trkpt>
      <trkpt lat="44.66433" lon="-0.26404">
        <ele>90.5</ele>
        <time>2014-01-05T13:45:51Z</time>
      </trkpt>
      <trkpt lat="44.66431" lon="-0.26402">
        <ele>90.5</ele>
        <time>2014-01-05T13:46:20Z</time>
      </trkpt>
      <trkpt lat="44.66435" lon="-0.26403">
        <ele>90.5</ele>
        <time>2014-01-05T13:46:47Z</time>
      </trkpt>
      <trkpt lat="44.66434" lon="-0.26407">
        <ele>90.5</ele>
        <time>2014-01-05T13:47:04Z</time>
      </trkpt>
      <trkpt lat="44.66432" lon="-0.2641">
        <ele>90.02</ele>
        <time>2014-01-05T13:47:31Z</time>
      </trkpt>
      <trkpt lat="44.66434" lon="-0.26407">
        <ele>90.02</ele>
        <time>2014-01-05T13:47:47Z</time>
      </trkpt>
      <trkpt lat="44.66433" lon="-0.26404">
        <ele>90.02</ele>
        <time>2014-01-05T13:48:06Z</time>
      </trkpt>
      <trkpt lat="44.66434" lon="-0.26413">
        <ele>90.02</ele>
        <time>2014-01-05T13:48:25Z</time>
      </trkpt>
      <trkpt lat="44.66434" lon="-0.26413">
        <ele>89.54</ele>
        <time>2014-01-05T13:48:40Z</time>
      </trkpt>
      <trkpt lat="44.66436" lon="-0.26417">
        <ele>89.54</ele>
        <time>2014-01-05T13:49:07Z</time>
      </trkpt>
      <trkpt lat="44.6644" lon="-0.26436">
        <ele>87.14</ele>
        <time>2014-01-05T13:49:22Z</time>
      </trkpt>
      <trkpt lat="44.66442" lon="-0.26448">
        <ele>86.66</ele>
        <time>2014-01-05T13:49:31Z</time>
      </trkpt>
      <trkpt lat="44.66442" lon="-0.26451">
        <ele>86.66</ele>
        <time>2014-01-05T13:49:33Z</time>
      </trkpt>
      <trkpt lat="44.66446" lon="-0.26474">
        <ele>85.21</ele>
        <time>2014-01-05T13:49:50Z</time>
      </trkpt>
      <trkpt lat="44.66448" lon="-0.26487">
        <ele>84.25</ele>
        <time>2014-01-05T13:50:00Z</time>
      </trkpt>
      <trkpt lat="44.66448" lon="-0.2649">
        <ele>84.25</ele>
        <time>2014-01-05T13:50:02Z</time>
      </trkpt>
      <trkpt lat="44.66452" lon="-0.2651">
        <ele>83.29</ele>
        <time>2014-01-05T13:50:16Z</time>
      </trkpt>
      <trkpt lat="44.66457" lon="-0.26531">
        <ele>82.81</ele>
        <time>2014-01-05T13:50:31Z</time>
      </trkpt>
      <trkpt lat="44.66461" lon="-0.26558">
        <ele>82.33</ele>
        <time>2014-01-05T13:50:48Z</time>
      </trkpt>
      <trkpt lat="44.66466" lon="-0.26582">
        <ele>83.29</ele>
        <time>2014-01-05T13:51:04Z</time>
      </trkpt>
      <trkpt lat="44.6647" lon="-0.26602">
        <ele>84.25</ele>
        <time>2014-01-05T13:51:17Z</time>
      </trkpt>
      <trkpt lat="44.66474" lon="-0.26625">
        <ele>86.18</ele>
        <time>2014-01-05T13:51:34Z</time>
      </trkpt>
      <trkpt lat="44.66475" lon="-0.26637">
        <ele>87.14</ele>
        <time>2014-01-05T13:51:46Z</time>
      </trkpt>
      <trkpt lat="44.66469" lon="-0.26644">
        <ele>88.1</ele>
        <time>2014-01-05T13:51:57Z</time>
      </trkpt>
      <trkpt lat="44.66465" lon="-0.26645">
        <ele>88.1</ele>
        <time>2014-01-05T13:52:10Z</time>
      </trkpt>
      <trkpt lat="44.66466" lon="-0.26642">
        <ele>87.62</ele>
        <time>2014-01-05T13:52:36Z</time>
      </trkpt>
      <trkpt lat="44.66456" lon="-0.26657">
        <ele>87.62</ele>
        <time>2014-01-05T13:52:49Z</time>
      </trkpt>
      <trkpt lat="44.66455" lon="-0.26662">
        <ele>87.62</ele>
        <time>2014-01-05T13:52:53Z</time>
      </trkpt>
      <trkpt lat="44.66441" lon="-0.2668">
        <ele>87.62</ele>
        <time>2014-01-05T13:53:09Z</time>
      </trkpt>
      <trkpt lat="44.66427" lon="-0.26699">
        <ele>87.14</ele>
        <time>2014-01-05T13:53:24Z</time>
      </trkpt>
      <trkpt lat="44.66419" lon="-0.26711">
        <ele>86.66</ele>
        <time>2014-01-05T13:53:34Z</time>
      </trkpt>
      <trkpt lat="44.66415" lon="-0.26731">
        <ele>87.14</ele>
        <time>2014-01-05T13:53:49Z</time>
      </trkpt>
      <trkpt lat="44.66415" lon="-0.26734">
        <ele>87.14</ele>
        <time>2014-01-05T13:53:51Z</time>
      </trkpt>
      <trkpt lat="44.66413" lon="-0.26747">
        <ele>87.14</ele>
        <time>2014-01-05T13:54:00Z</time>
      </trkpt>
      <trkpt lat="44.6641" lon="-0.26774">
        <ele>86.18</ele>
        <time>2014-01-05T13:54:17Z</time>
      </trkpt>
      <trkpt lat="44.66419" lon="-0.26797">
        <ele>87.14</ele>
        <time>2014-01-05T13:54:34Z</time>
      </trkpt>
      <trkpt lat="44.66427" lon="-0.26817">
        <ele>88.1</ele>
        <time>2014-01-05T13:54:51Z</time>
      </trkpt>
      <trkpt lat="44.66432" lon="-0.26833">
        <ele>88.58</ele>
        <time>2014-01-05T13:55:06Z</time>
      </trkpt>
      <trkpt lat="44.66432" lon="-0.26842">
        <ele>88.58</ele>
        <time>2014-01-05T13:55:12Z</time>
      </trkpt>
      <trkpt lat="44.66429" lon="-0.26854">
        <ele>87.62</ele>
        <time>2014-01-05T13:55:20Z</time>
      </trkpt>
      <trkpt lat="44.66416" lon="-0.26873">
        <ele>86.66</ele>
        <time>2014-01-05T13:55:35Z</time>
      </trkpt>
      <trkpt lat="44.66405" lon="-0.26888">
        <ele>85.69</ele>
        <time>2014-01-05T13:55:50Z</time>
      </trkpt>
      <trkpt lat="44.66397" lon="-0.26902">
        <ele>85.69</ele>
        <time>2014-01-05T13:56:04Z</time>
      </trkpt>
      <trkpt lat="44.66393" lon="-0.26908">
        <ele>86.18</ele>
        <time>2014-01-05T13:56:10Z</time>
      </trkpt>
      <trkpt lat="44.66379" lon="-0.26926">
        <ele>86.18</ele>
        <time>2014-01-05T13:56:27Z</time>
      </trkpt>
      <trkpt lat="44.66377" lon="-0.2693">
        <ele>86.18</ele>
        <time>2014-01-05T13:56:30Z</time>
      </trkpt>
      <trkpt lat="44.66364" lon="-0.26951">
        <ele>85.69</ele>
        <time>2014-01-05T13:56:48Z</time>
      </trkpt>
      <trkpt lat="44.66356" lon="-0.26961">
        <ele>86.18</ele>
        <time>2014-01-05T13:57:02Z</time>
      </trkpt>
      <trkpt lat="44.66354" lon="-0.26963">
        <ele>86.18</ele>
        <time>2014-01-05T13:57:06Z</time>
      </trkpt>
      <trkpt lat="44.66341" lon="-0.26965">
        <ele>85.69</ele>
        <time>2014-01-05T13:57:20Z</time>
      </trkpt>
      <trkpt lat="44.66326" lon="-0.26971">
        <ele>86.18</ele>
        <time>2014-01-05T13:57:37Z</time>
      </trkpt>
      <trkpt lat="44.66314" lon="-0.26976">
        <ele>86.66</ele>
        <time>2014-01-05T13:57:51Z</time>
      </trkpt>
      <trkpt lat="44.663" lon="-0.26983">
        <ele>87.14</ele>
        <time>2014-01-05T13:58:07Z</time>
      </trkpt>
      <trkpt lat="44.66287" lon="-0.26989">
        <ele>87.62</ele>
        <time>2014-01-05T13:58:22Z</time>
      </trkpt>
      <trkpt lat="44.66274" lon="-0.26996">
        <ele>88.1</ele>
        <time>2014-01-05T13:58:36Z</time>
      </trkpt>
      <trkpt lat="44.6626" lon="-0.27003">
        <ele>88.58</ele>
        <time>2014-01-05T13:58:51Z</time>
      </trkpt>
      <trkpt lat="44.66253" lon="-0.27013">
        <ele>90.02</ele>
        <time>2014-01-05T13:59:04Z</time>
      </trkpt>
      <trkpt lat="44.66254" lon="-0.27028">
        <ele>91.46</ele>
        <time>2014-01-05T13:59:18Z</time>
      </trkpt>
      <trkpt lat="44.66262" lon="-0.27039">
        <ele>91.46</ele>
        <time>2014-01-05T13:59:32Z</time>
      </trkpt>
      <trkpt lat="44.66267" lon="-0.27053">
        <ele>90.5</ele>
        <time>2014-01-05T13:59:47Z</time>
      </trkpt>
      <trkpt lat="44.66272" lon="-0.27069">
        <ele>88.58</ele>
        <time>2014-01-05T14:00:03Z</time>
      </trkpt>
      <trkpt lat="44.66277" lon="-0.27081">
        <ele>86.66</ele>
        <time>2014-01-05T14:00:19Z</time>
      </trkpt>
      <trkpt lat="44.66274" lon="-0.27091">
        <ele>85.21</ele>
        <time>2014-01-05T14:00:32Z</time>
      </trkpt>
      <trkpt lat="44.66277" lon="-0.27099">
        <ele>83.77</ele>
        <time>2014-01-05T14:00:39Z</time>
      </trkpt>
      <trkpt lat="44.66278" lon="-0.27109">
        <ele>83.29</ele>
        <time>2014-01-05T14:00:58Z</time>
      </trkpt>
      <trkpt lat="44.6628" lon="-0.27113">
        <ele>83.77</ele>
        <time>2014-01-05T14:01:10Z</time>
      </trkpt>
      <trkpt lat="44.66276" lon="-0.27113">
        <ele>83.77</ele>
        <time>2014-01-05T14:01:22Z</time>
      </trkpt>
      <trkpt lat="44.66282" lon="-0.27122">
        <ele>83.77</ele>
        <time>2014-01-05T14:01:34Z</time>
      </trkpt>
      <trkpt lat="44.6629" lon="-0.27141">
        <ele>81.85</ele>
        <time>2014-01-05T14:01:50Z</time>
      </trkpt>
      <trkpt lat="44.66295" lon="-0.27155">
        <ele>81.37</ele>
        <time>2014-01-05T14:02:04Z</time>
      </trkpt>
      <trkpt lat="44.66297" lon="-0.27171">
        <ele>79.45</ele>
        <time>2014-01-05T14:02:18Z</time>
      </trkpt>
      <trkpt lat="44.66296" lon="-0.27191">
        <ele>77.52</ele>
        <time>2014-01-05T14:02:34Z</time>
      </trkpt>
      <trkpt lat="44.66295" lon="-0.27208">
        <ele>77.04</ele>
        <time>2014-01-05T14:02:48Z</time>
      </trkpt>
      <trkpt lat="44.66292" lon="-0.27222">
        <ele>76.08</ele>
        <time>2014-01-05T14:03:01Z</time>
      </trkpt>
      <trkpt lat="44.66284" lon="-0.27231">
        <ele>73.2</ele>
        <time>2014-01-05T14:03:16Z</time>
      </trkpt>
      <trkpt lat="44.66281" lon="-0.27237">
        <ele>71.76</ele>
        <time>2014-01-05T14:03:24Z</time>
      </trkpt>
      <trkpt lat="44.66274" lon="-0.27249">
        <ele>71.76</ele>
        <time>2014-01-05T14:03:33Z</time>
      </trkpt>
      <trkpt lat="44.66268" lon="-0.27261">
        <ele>70.31</ele>
        <time>2014-01-05T14:03:46Z</time>
      </trkpt>
      <trkpt lat="44.66261" lon="-0.27273">
        <ele>68.87</ele>
        <time>2014-01-05T14:04:01Z</time>
      </trkpt>
      <trkpt lat="44.6626" lon="-0.27278">
        <ele>68.39</ele>
        <time>2014-01-05T14:04:05Z</time>
      </trkpt>
      <trkpt lat="44.66257" lon="-0.27284">
        <ele>67.91</ele>
        <time>2014-01-05T14:04:09Z</time>
      </trkpt>
      <trkpt lat="44.66249" lon="-0.27275">
        <ele>66.95</ele>
        <time>2014-01-05T14:04:19Z</time>
      </trkpt>
      <trkpt lat="44.66248" lon="-0.27273">
        <ele>66.95</ele>
        <time>2014-01-05T14:04:21Z</time>
      </trkpt>
      <trkpt lat="44.66243" lon="-0.27252">
        <ele>65.51</ele>
        <time>2014-01-05T14:04:38Z</time>
      </trkpt>
      <trkpt lat="44.66243" lon="-0.27253">
        <ele>65.99</ele>
        <time>2014-01-05T14:04:39Z</time>
      </trkpt>
      <trkpt lat="44.66245" lon="-0.27271">
        <ele>66.47</ele>
        <time>2014-01-05T14:04:50Z</time>
      </trkpt>
      <trkpt lat="44.66235" lon="-0.27282">
        <ele>64.55</ele>
        <time>2014-01-05T14:05:02Z</time>
      </trkpt>
      <trkpt lat="44.66227" lon="-0.27292">
        <ele>62.14</ele>
        <time>2014-01-05T14:05:14Z</time>
      </trkpt>
      <trkpt lat="44.66211" lon="-0.27306">
        <ele>58.78</ele>
        <time>2014-01-05T14:05:32Z</time>
      </trkpt>
      <trkpt lat="44.6621" lon="-0.27307">
        <ele>59.26</ele>
        <time>2014-01-05T14:05:33Z</time>
      </trkpt>
      <trkpt lat="44.66195" lon="-0.2732">
        <ele>56.37</ele>
        <time>2014-01-05T14:05:50Z</time>
      </trkpt>
      <trkpt lat="44.66183" lon="-0.27334">
        <ele>53.97</ele>
        <time>2014-01-05T14:06:06Z</time>
      </trkpt>
      <trkpt lat="44.66175" lon="-0.27343">
        <ele>53.01</ele>
        <time>2014-01-05T14:06:17Z</time>
      </trkpt>
      <trkpt lat="44.6616" lon="-0.27357">
        <ele>50.13</ele>
        <time>2014-01-05T14:06:36Z</time>
      </trkpt>
      <trkpt lat="44.6615" lon="-0.2737">
        <ele>48.68</ele>
        <time>2014-01-05T14:06:51Z</time>
      </trkpt>
      <trkpt lat="44.6614" lon="-0.2738">
        <ele>47.72</ele>
        <time>2014-01-05T14:07:05Z</time>
      </trkpt>
      <trkpt lat="44.6613" lon="-0.27389">
        <ele>46.76</ele>
        <time>2014-01-05T14:07:18Z</time>
      </trkpt>
      <trkpt lat="44.66123" lon="-0.27391">
        <ele>45.8</ele>
        <time>2014-01-05T14:07:26Z</time>
      </trkpt>
      <trkpt lat="44.66106" lon="-0.27394">
        <ele>42.92</ele>
        <time>2014-01-05T14:07:43Z</time>
      </trkpt>
      <trkpt lat="44.66093" lon="-0.27396">
        <ele>40.51</ele>
        <time>2014-01-05T14:07:58Z</time>
      </trkpt>
      <trkpt lat="44.6608" lon="-0.27397">
        <ele>38.11</ele>
        <time>2014-01-05T14:08:11Z</time>
      </trkpt>
      <trkpt lat="44.66069" lon="-0.27398">
        <ele>36.19</ele>
        <time>2014-01-05T14:08:24Z</time>
      </trkpt>
      <trkpt lat="44.66056" lon="-0.27396">
        <ele>35.23</ele>
        <time>2014-01-05T14:08:37Z</time>
      </trkpt>
      <trkpt lat="44.66051" lon="-0.27402">
        <ele>32.82</ele>
        <time>2014-01-05T14:08:50Z</time>
      </trkpt>
      <trkpt lat="44.66047" lon="-0.27416">
        <ele>30.9</ele>
        <time>2014-01-05T14:09:04Z</time>
      </trkpt>
      <trkpt lat="44.66047" lon="-0.27417">
        <ele>30.9</ele>
        <time>2014-01-05T14:09:05Z</time>
      </trkpt>
      <trkpt lat="44.66041" lon="-0.27436">
        <ele>29.46</ele>
        <time>2014-01-05T14:09:19Z</time>
      </trkpt>
      <trkpt lat="44.66039" lon="-0.27456">
        <ele>28.98</ele>
        <time>2014-01-05T14:09:32Z</time>
      </trkpt>
      <trkpt lat="44.66037" lon="-0.27474">
        <ele>28.98</ele>
        <time>2014-01-05T14:09:45Z</time>
      </trkpt>
      <trkpt lat="44.66032" lon="-0.27491">
        <ele>28.98</ele>
        <time>2014-01-05T14:09:59Z</time>
      </trkpt>
      <trkpt lat="44.66029" lon="-0.27506">
        <ele>28.5</ele>
        <time>2014-01-05T14:10:13Z</time>
      </trkpt>
      <trkpt lat="44.66026" lon="-0.27519">
        <ele>28.98</ele>
        <time>2014-01-05T14:10:26Z</time>
      </trkpt>
      <trkpt lat="44.66024" lon="-0.2754">
        <ele>28.98</ele>
        <time>2014-01-05T14:10:42Z</time>
      </trkpt>
      <trkpt lat="44.66021" lon="-0.2755">
        <ele>29.94</ele>
        <time>2014-01-05T14:10:55Z</time>
      </trkpt>
      <trkpt lat="44.66012" lon="-0.27558">
        <ele>30.42</ele>
        <time>2014-01-05T14:11:08Z</time>
      </trkpt>
      <trkpt lat="44.6601" lon="-0.27569">
        <ele>30.42</ele>
        <time>2014-01-05T14:11:21Z</time>
      </trkpt>
      <trkpt lat="44.66006" lon="-0.27587">
        <ele>30.9</ele>
        <time>2014-01-05T14:11:36Z</time>
      </trkpt>
      <trkpt lat="44.66004" lon="-0.27592">
        <ele>30.9</ele>
        <time>2014-01-05T14:11:40Z</time>
      </trkpt>
      <trkpt lat="44.66002" lon="-0.27604">
        <ele>31.38</ele>
        <time>2014-01-05T14:11:55Z</time>
      </trkpt>
      <trkpt lat="44.66002" lon="-0.27608">
        <ele>30.9</ele>
        <time>2014-01-05T14:12:15Z</time>
      </trkpt>
      <trkpt lat="44.66002" lon="-0.2761">
        <ele>30.9</ele>
        <time>2014-01-05T14:12:32Z</time>
      </trkpt>
      <trkpt lat="44.66004" lon="-0.27608">
        <ele>31.38</ele>
        <time>2014-01-05T14:12:42Z</time>
      </trkpt>
      <trkpt lat="44.6602" lon="-0.27607">
        <ele>30.42</ele>
        <time>2014-01-05T14:12:59Z</time>
      </trkpt>
      <trkpt lat="44.66031" lon="-0.27612">
        <ele>29.94</ele>
        <time>2014-01-05T14:13:12Z</time>
      </trkpt>
      <trkpt lat="44.66042" lon="-0.2763">
        <ele>29.94</ele>
        <time>2014-01-05T14:13:26Z</time>
      </trkpt>
      <trkpt lat="44.6605" lon="-0.27646">
        <ele>29.94</ele>
        <time>2014-01-05T14:13:33Z</time>
      </trkpt>
      <trkpt lat="44.66052" lon="-0.27648">
        <ele>29.46</ele>
        <time>2014-01-05T14:13:35Z</time>
      </trkpt>
      <trkpt lat="44.66054" lon="-0.27657">
        <ele>29.94</ele>
        <time>2014-01-05T14:13:41Z</time>
      </trkpt>
      <trkpt lat="44.66056" lon="-0.27661">
        <ele>29.46</ele>
        <time>2014-01-05T14:13:44Z</time>
      </trkpt>
      <trkpt lat="44.66062" lon="-0.27681">
        <ele>28.98</ele>
        <time>2014-01-05T14:13:58Z</time>
      </trkpt>
      <trkpt lat="44.66063" lon="-0.27702">
        <ele>28.98</ele>
        <time>2014-01-05T14:14:11Z</time>
      </trkpt>
      <trkpt lat="44.66067" lon="-0.27727">
        <ele>28.5</ele>
        <time>2014-01-05T14:14:27Z</time>
      </trkpt>
      <trkpt lat="44.66071" lon="-0.27751">
        <ele>28.02</ele>
        <time>2014-01-05T14:14:41Z</time>
      </trkpt>
      <trkpt lat="44.66075" lon="-0.27771">
        <ele>28.02</ele>
        <time>2014-01-05T14:14:54Z</time>
      </trkpt>
      <trkpt lat="44.66074" lon="-0.27786">
        <ele>28.02</ele>
        <time>2014-01-05T14:15:02Z</time>
      </trkpt>
      <trkpt lat="44.66076" lon="-0.2779">
        <ele>28.02</ele>
        <time>2014-01-05T14:15:05Z</time>
      </trkpt>
      <trkpt lat="44.66076" lon="-0.27805">
        <ele>28.02</ele>
        <time>2014-01-05T14:15:16Z</time>
      </trkpt>
      <trkpt lat="44.66076" lon="-0.27821">
        <ele>27.53</ele>
        <time>2014-01-05T14:15:28Z</time>
      </trkpt>
      <trkpt lat="44.66081" lon="-0.2784">
        <ele>27.05</ele>
        <time>2014-01-05T14:15:42Z</time>
      </trkpt>
      <trkpt lat="44.66082" lon="-0.27847">
        <ele>27.05</ele>
        <time>2014-01-05T14:15:46Z</time>
      </trkpt>
      <trkpt lat="44.66086" lon="-0.2787">
        <ele>27.53</ele>
        <time>2014-01-05T14:16:02Z</time>
      </trkpt>
      <trkpt lat="44.66087" lon="-0.27874">
        <ele>27.05</ele>
        <time>2014-01-05T14:16:06Z</time>
      </trkpt>
      <trkpt lat="44.66097" lon="-0.27896">
        <ele>26.57</ele>
        <time>2014-01-05T14:16:22Z</time>
      </trkpt>
      <trkpt lat="44.66099" lon="-0.27898">
        <ele>26.57</ele>
        <time>2014-01-05T14:16:24Z</time>
      </trkpt>
      <trkpt lat="44.66103" lon="-0.27917">
        <ele>26.57</ele>
        <time>2014-01-05T14:16:39Z</time>
      </trkpt>
      <trkpt lat="44.66107" lon="-0.2793">
        <ele>26.57</ele>
        <time>2014-01-05T14:16:53Z</time>
      </trkpt>
      <trkpt lat="44.66109" lon="-0.27935">
        <ele>27.05</ele>
        <time>2014-01-05T14:17:06Z</time>
      </trkpt>
      <trkpt lat="44.66119" lon="-0.27941">
        <ele>26.57</ele>
        <time>2014-01-05T14:17:18Z</time>
      </trkpt>
      <trkpt lat="44.66126" lon="-0.27954">
        <ele>26.57</ele>
        <time>2014-01-05T14:17:32Z</time>
      </trkpt>
      <trkpt lat="44.6613" lon="-0.27962">
        <ele>27.05</ele>
        <time>2014-01-05T14:17:37Z</time>
      </trkpt>
      <trkpt lat="44.66136" lon="-0.27969">
        <ele>26.57</ele>
        <time>2014-01-05T14:17:42Z</time>
      </trkpt>
      <trkpt lat="44.66142" lon="-0.27991">
        <ele>26.57</ele>
        <time>2014-01-05T14:17:57Z</time>
      </trkpt>
      <trkpt lat="44.66148" lon="-0.27999">
        <ele>26.09</ele>
        <time>2014-01-05T14:18:11Z</time>
      </trkpt>
      <trkpt lat="44.66156" lon="-0.28013">
        <ele>26.09</ele>
        <time>2014-01-05T14:18:25Z</time>
      </trkpt>
      <trkpt lat="44.66161" lon="-0.28023">
        <ele>26.09</ele>
        <time>2014-01-05T14:18:32Z</time>
      </trkpt>
      <trkpt lat="44.66164" lon="-0.28033">
        <ele>26.09</ele>
        <time>2014-01-05T14:18:37Z</time>
      </trkpt>
      <trkpt lat="44.66166" lon="-0.28039">
        <ele>25.61</ele>
        <time>2014-01-05T14:18:41Z</time>
      </trkpt>
      <trkpt lat="44.66171" lon="-0.28052">
        <ele>26.09</ele>
        <time>2014-01-05T14:18:50Z</time>
      </trkpt>
      <trkpt lat="44.66177" lon="-0.28061">
        <ele>25.61</ele>
        <time>2014-01-05T14:18:56Z</time>
      </trkpt>
      <trkpt lat="44.66179" lon="-0.28066">
        <ele>25.13</ele>
        <time>2014-01-05T14:18:59Z</time>
      </trkpt>
      <trkpt lat="44.66189" lon="-0.28081">
        <ele>25.61</ele>
        <time>2014-01-05T14:19:14Z</time>
      </trkpt>
      <trkpt lat="44.66191" lon="-0.28083">
        <ele>25.13</ele>
        <time>2014-01-05T14:19:17Z</time>
      </trkpt>
      <trkpt lat="44.66205" lon="-0.28095">
        <ele>25.13</ele>
        <time>2014-01-05T14:19:31Z</time>
      </trkpt>
      <trkpt lat="44.66214" lon="-0.28114">
        <ele>25.13</ele>
        <time>2014-01-05T14:19:44Z</time>
      </trkpt>
      <trkpt lat="44.66226" lon="-0.28131">
        <ele>25.13</ele>
        <time>2014-01-05T14:19:56Z</time>
      </trkpt>
      <trkpt lat="44.66242" lon="-0.2815">
        <ele>24.65</ele>
        <time>2014-01-05T14:20:10Z</time>
      </trkpt>
      <trkpt lat="44.6625" lon="-0.28168">
        <ele>24.17</ele>
        <time>2014-01-05T14:20:23Z</time>
      </trkpt>
      <trkpt lat="44.66259" lon="-0.28195">
        <ele>24.17</ele>
        <time>2014-01-05T14:20:39Z</time>
      </trkpt>
      <trkpt lat="44.66262" lon="-0.28204">
        <ele>24.65</ele>
        <time>2014-01-05T14:20:46Z</time>
      </trkpt>
      <trkpt lat="44.66273" lon="-0.28221">
        <ele>24.17</ele>
        <time>2014-01-05T14:21:01Z</time>
      </trkpt>
      <trkpt lat="44.66282" lon="-0.28234">
        <ele>24.17</ele>
        <time>2014-01-05T14:21:13Z</time>
      </trkpt>
      <trkpt lat="44.66286" lon="-0.28244">
        <ele>24.17</ele>
        <time>2014-01-05T14:21:19Z</time>
      </trkpt>
      <trkpt lat="44.66298" lon="-0.28258">
        <ele>23.69</ele>
        <time>2014-01-05T14:21:34Z</time>
      </trkpt>
      <trkpt lat="44.66298" lon="-0.2826">
        <ele>24.17</ele>
        <time>2014-01-05T14:21:46Z</time>
      </trkpt>
      <trkpt lat="44.66301" lon="-0.28267">
        <ele>23.69</ele>
        <time>2014-01-05T14:22:05Z</time>
      </trkpt>
      <trkpt lat="44.663" lon="-0.28268">
        <ele>23.69</ele>
        <time>2014-01-05T14:22:29Z</time>
      </trkpt>
      <trkpt lat="44.663" lon="-0.28262">
        <ele>23.69</ele>
        <time>2014-01-05T14:22:50Z</time>
      </trkpt>
      <trkpt lat="44.66296" lon="-0.28258">
        <ele>23.69</ele>
        <time>2014-01-05T14:23:06Z</time>
      </trkpt>
      <trkpt lat="44.663" lon="-0.28261">
        <ele>23.69</ele>
        <time>2014-01-05T14:23:28Z</time>
      </trkpt>
      <trkpt lat="44.66298" lon="-0.28259">
        <ele>23.69</ele>
        <time>2014-01-05T14:23:45Z</time>
      </trkpt>
      <trkpt lat="44.66299" lon="-0.28258">
        <ele>23.69</ele>
        <time>2014-01-05T14:24:05Z</time>
      </trkpt>
      <trkpt lat="44.66296" lon="-0.28268">
        <ele>24.17</ele>
        <time>2014-01-05T14:24:19Z</time>
      </trkpt>
      <trkpt lat="44.66305" lon="-0.28279">
        <ele>24.65</ele>
        <time>2014-01-05T14:24:33Z</time>
      </trkpt>
      <trkpt lat="44.66312" lon="-0.28292">
        <ele>24.17</ele>
        <time>2014-01-05T14:24:46Z</time>
      </trkpt>
      <trkpt lat="44.66314" lon="-0.28308">
        <ele>24.17</ele>
        <time>2014-01-05T14:24:59Z</time>
      </trkpt>
      <trkpt lat="44.66318" lon="-0.28323">
        <ele>24.17</ele>
        <time>2014-01-05T14:25:11Z</time>
      </trkpt>
      <trkpt lat="44.66329" lon="-0.28328">
        <ele>24.65</ele>
        <time>2014-01-05T14:25:26Z</time>
      </trkpt>
      <trkpt lat="44.6633" lon="-0.28329">
        <ele>24.65</ele>
        <time>2014-01-05T14:25:40Z</time>
      </trkpt>
      <trkpt lat="44.66332" lon="-0.28343">
        <ele>24.17</ele>
        <time>2014-01-05T14:25:54Z</time>
      </trkpt>
      <trkpt lat="44.66334" lon="-0.28359">
        <ele>24.65</ele>
        <time>2014-01-05T14:26:06Z</time>
      </trkpt>
      <trkpt lat="44.66339" lon="-0.28373">
        <ele>25.13</ele>
        <time>2014-01-05T14:26:17Z</time>
      </trkpt>
      <trkpt lat="44.66348" lon="-0.28379">
        <ele>24.17</ele>
        <time>2014-01-05T14:26:29Z</time>
      </trkpt>
      <trkpt lat="44.66358" lon="-0.28399">
        <ele>24.65</ele>
        <time>2014-01-05T14:26:44Z</time>
      </trkpt>
      <trkpt lat="44.66364" lon="-0.28418">
        <ele>25.61</ele>
        <time>2014-01-05T14:27:00Z</time>
      </trkpt>
      <trkpt lat="44.66364" lon="-0.28418">
        <ele>25.61</ele>
        <time>2014-01-05T14:27:03Z</time>
      </trkpt>
      <trkpt lat="44.66367" lon="-0.28421">
        <ele>25.61</ele>
        <time>2014-01-05T14:27:07Z</time>
      </trkpt>
      <trkpt lat="44.66367" lon="-0.28437">
        <ele>25.61</ele>
        <time>2014-01-05T14:27:18Z</time>
      </trkpt>
      <trkpt lat="44.66369" lon="-0.28442">
        <ele>25.61</ele>
        <time>2014-01-05T14:27:21Z</time>
      </trkpt>
      <trkpt lat="44.66382" lon="-0.28444">
        <ele>25.13</ele>
        <time>2014-01-05T14:27:36Z</time>
      </trkpt>
      <trkpt lat="44.66391" lon="-0.28446">
        <ele>25.13</ele>
        <time>2014-01-05T14:27:46Z</time>
      </trkpt>
      <trkpt lat="44.66404" lon="-0.28449">
        <ele>25.61</ele>
        <time>2014-01-05T14:27:57Z</time>
      </trkpt>
      <trkpt lat="44.66417" lon="-0.2845">
        <ele>25.13</ele>
        <time>2014-01-05T14:28:11Z</time>
      </trkpt>
      <trkpt lat="44.66425" lon="-0.28452">
        <ele>25.61</ele>
        <time>2014-01-05T14:28:21Z</time>
      </trkpt>
      <trkpt lat="44.66436" lon="-0.28466">
        <ele>25.13</ele>
        <time>2014-01-05T14:28:31Z</time>
      </trkpt>
      <trkpt lat="44.66446" lon="-0.28484">
        <ele>25.61</ele>
        <time>2014-01-05T14:28:43Z</time>
      </trkpt>
      <trkpt lat="44.66452" lon="-0.28502">
        <ele>25.61</ele>
        <time>2014-01-05T14:28:54Z</time>
      </trkpt>
      <trkpt lat="44.66456" lon="-0.28517">
        <ele>25.61</ele>
        <time>2014-01-05T14:29:04Z</time>
      </trkpt>
      <trkpt lat="44.66456" lon="-0.28521">
        <ele>26.09</ele>
        <time>2014-01-05T14:29:07Z</time>
      </trkpt>
      <trkpt lat="44.66458" lon="-0.28526">
        <ele>25.61</ele>
        <time>2014-01-05T14:29:11Z</time>
      </trkpt>
      <trkpt lat="44.66459" lon="-0.28529">
        <ele>25.61</ele>
        <time>2014-01-05T14:29:13Z</time>
      </trkpt>
      <trkpt lat="44.6646" lon="-0.28534">
        <ele>26.09</ele>
        <time>2014-01-05T14:29:16Z</time>
      </trkpt>
      <trkpt lat="44.66466" lon="-0.28558">
        <ele>24.65</ele>
        <time>2014-01-05T14:29:32Z</time>
      </trkpt>
      <trkpt lat="44.66472" lon="-0.28576">
        <ele>25.61</ele>
        <time>2014-01-05T14:29:45Z</time>
      </trkpt>
      <trkpt lat="44.66473" lon="-0.2858">
        <ele>25.61</ele>
        <time>2014-01-05T14:29:48Z</time>
      </trkpt>
      <trkpt lat="44.66483" lon="-0.28596">
        <ele>25.13</ele>
        <time>2014-01-05T14:30:03Z</time>
      </trkpt>
      <trkpt lat="44.66501" lon="-0.2861">
        <ele>26.57</ele>
        <time>2014-01-05T14:30:20Z</time>
      </trkpt>
      <trkpt lat="44.66518" lon="-0.28621">
        <ele>27.53</ele>
        <time>2014-01-05T14:30:36Z</time>
      </trkpt>
      <trkpt lat="44.66522" lon="-0.28624">
        <ele>27.53</ele>
        <time>2014-01-05T14:30:40Z</time>
      </trkpt>
      <trkpt lat="44.6654" lon="-0.28642">
        <ele>29.46</ele>
        <time>2014-01-05T14:30:57Z</time>
      </trkpt>
      <trkpt lat="44.66548" lon="-0.28654">
        <ele>30.42</ele>
        <time>2014-01-05T14:31:06Z</time>
      </trkpt>
      <trkpt lat="44.66558" lon="-0.2867">
        <ele>31.38</ele>
        <time>2014-01-05T14:31:18Z</time>
      </trkpt>
      <trkpt lat="44.66562" lon="-0.28674">
        <ele>31.86</ele>
        <time>2014-01-05T14:31:22Z</time>
      </trkpt>
      <trkpt lat="44.66583" lon="-0.28692">
        <ele>32.82</ele>
        <time>2014-01-05T14:31:40Z</time>
      </trkpt>
      <trkpt lat="44.66583" lon="-0.28693">
        <ele>32.82</ele>
        <time>2014-01-05T14:31:41Z</time>
      </trkpt>
      <trkpt lat="44.66597" lon="-0.28709">
        <ele>34.26</ele>
        <time>2014-01-05T14:31:55Z</time>
      </trkpt>
      <trkpt lat="44.666" lon="-0.28712">
        <ele>34.26</ele>
        <time>2014-01-05T14:31:58Z</time>
      </trkpt>
      <trkpt lat="44.66602" lon="-0.28718">
        <ele>34.74</ele>
        <time>2014-01-05T14:32:02Z</time>
      </trkpt>
      <trkpt lat="44.66605" lon="-0.28724">
        <ele>35.23</ele>
        <time>2014-01-05T14:32:06Z</time>
      </trkpt>
      <trkpt lat="44.66607" lon="-0.28729">
        <ele>35.71</ele>
        <time>2014-01-05T14:32:09Z</time>
      </trkpt>
      <trkpt lat="44.66617" lon="-0.28762">
        <ele>36.67</ele>
        <time>2014-01-05T14:32:27Z</time>
      </trkpt>
      <trkpt lat="44.66623" lon="-0.2878">
        <ele>37.63</ele>
        <time>2014-01-05T14:32:37Z</time>
      </trkpt>
      <trkpt lat="44.66624" lon="-0.28785">
        <ele>38.11</ele>
        <time>2014-01-05T14:32:40Z</time>
      </trkpt>
      <trkpt lat="44.66629" lon="-0.28812">
        <ele>39.07</ele>
        <time>2014-01-05T14:32:56Z</time>
      </trkpt>
      <trkpt lat="44.6663" lon="-0.28834">
        <ele>40.51</ele>
        <time>2014-01-05T14:33:09Z</time>
      </trkpt>
      <trkpt lat="44.66632" lon="-0.28843">
        <ele>40.99</ele>
        <time>2014-01-05T14:33:13Z</time>
      </trkpt>
      <trkpt lat="44.66626" lon="-0.28872">
        <ele>41.95</ele>
        <time>2014-01-05T14:33:28Z</time>
      </trkpt>
      <trkpt lat="44.66619" lon="-0.28898">
        <ele>43.4</ele>
        <time>2014-01-05T14:33:44Z</time>
      </trkpt>
      <trkpt lat="44.66617" lon="-0.28906">
        <ele>44.36</ele>
        <time>2014-01-05T14:33:50Z</time>
      </trkpt>
      <trkpt lat="44.66608" lon="-0.28926">
        <ele>44.84</ele>
        <time>2014-01-05T14:34:07Z</time>
      </trkpt>
      <trkpt lat="44.666" lon="-0.28934">
        <ele>45.32</ele>
        <time>2014-01-05T14:34:22Z</time>
      </trkpt>
      <trkpt lat="44.666" lon="-0.28929">
        <ele>45.8</ele>
        <time>2014-01-05T14:34:50Z</time>
      </trkpt>
      <trkpt lat="44.66601" lon="-0.28927">
        <ele>45.8</ele>
        <time>2014-01-05T14:35:20Z</time>
      </trkpt>
      <trkpt lat="44.66603" lon="-0.28935">
        <ele>46.28</ele>
        <time>2014-01-05T14:35:36Z</time>
      </trkpt>
      <trkpt lat="44.66602" lon="-0.28937">
        <ele>45.8</ele>
        <time>2014-01-05T14:36:05Z</time>
      </trkpt>
      <trkpt lat="44.66603" lon="-0.28935">
        <ele>46.28</ele>
        <time>2014-01-05T14:36:37Z</time>
      </trkpt>
      <trkpt lat="44.66605" lon="-0.28944">
        <ele>46.28</ele>
        <time>2014-01-05T14:37:08Z</time>
      </trkpt>
      <trkpt lat="44.66603" lon="-0.28941">
        <ele>46.28</ele>
        <time>2014-01-05T14:37:29Z</time>
      </trkpt>
      <trkpt lat="44.66601" lon="-0.28935">
        <ele>46.28</ele>
        <time>2014-01-05T14:37:46Z</time>
      </trkpt>
      <trkpt lat="44.66597" lon="-0.28943">
        <ele>46.28</ele>
        <time>2014-01-05T14:37:53Z</time>
      </trkpt>
      <trkpt lat="44.66593" lon="-0.28949">
        <ele>45.8</ele>
        <time>2014-01-05T14:37:59Z</time>
      </trkpt>
      <trkpt lat="44.66592" lon="-0.28952">
        <ele>45.32</ele>
        <time>2014-01-05T14:38:01Z</time>
      </trkpt>
      <trkpt lat="44.66588" lon="-0.28956">
        <ele>45.32</ele>
        <time>2014-01-05T14:38:05Z</time>
      </trkpt>
      <trkpt lat="44.6658" lon="-0.28965">
        <ele>43.88</ele>
        <time>2014-01-05T14:38:16Z</time>
      </trkpt>
      <trkpt lat="44.66567" lon="-0.28976">
        <ele>42.44</ele>
        <time>2014-01-05T14:38:31Z</time>
      </trkpt>
      <trkpt lat="44.66561" lon="-0.28981">
        <ele>40.99</ele>
        <time>2014-01-05T14:38:37Z</time>
      </trkpt>
      <trkpt lat="44.66546" lon="-0.28991">
        <ele>40.03</ele>
        <time>2014-01-05T14:38:51Z</time>
      </trkpt>
      <trkpt lat="44.66528" lon="-0.28999">
        <ele>39.07</ele>
        <time>2014-01-05T14:39:06Z</time>
      </trkpt>
      <trkpt lat="44.66509" lon="-0.29011">
        <ele>38.11</ele>
        <time>2014-01-05T14:39:22Z</time>
      </trkpt>
      <trkpt lat="44.66501" lon="-0.29016">
        <ele>37.63</ele>
        <time>2014-01-05T14:39:29Z</time>
      </trkpt>
      <trkpt lat="44.66489" lon="-0.29032">
        <ele>37.63</ele>
        <time>2014-01-05T14:39:44Z</time>
      </trkpt>
      <trkpt lat="44.66487" lon="-0.29033">
        <ele>37.15</ele>
        <time>2014-01-05T14:39:46Z</time>
      </trkpt>
      <trkpt lat="44.66473" lon="-0.29053">
        <ele>37.15</ele>
        <time>2014-01-05T14:40:03Z</time>
      </trkpt>
      <trkpt lat="44.66466" lon="-0.29069">
        <ele>36.67</ele>
        <time>2014-01-05T14:40:16Z</time>
      </trkpt>
      <trkpt lat="44.66461" lon="-0.2908">
        <ele>35.71</ele>
        <time>2014-01-05T14:40:22Z</time>
      </trkpt>
      <trkpt lat="44.66459" lon="-0.29084">
        <ele>35.23</ele>
        <time>2014-01-05T14:40:25Z</time>
      </trkpt>
      <trkpt lat="44.66452" lon="-0.29106">
        <ele>35.23</ele>
        <time>2014-01-05T14:40:39Z</time>
      </trkpt>
      <trkpt lat="44.66446" lon="-0.29134">
        <ele>35.23</ele>
        <time>2014-01-05T14:40:55Z</time>
      </trkpt>
      <trkpt lat="44.66446" lon="-0.29158">
        <ele>35.23</ele>
        <time>2014-01-05T14:41:10Z</time>
      </trkpt>
      <trkpt lat="44.66453" lon="-0.29189">
        <ele>35.23</ele>
        <time>2014-01-05T14:41:29Z</time>
      </trkpt>
      <trkpt lat="44.66454" lon="-0.29193">
        <ele>34.74</ele>
        <time>2014-01-05T14:41:32Z</time>
      </trkpt>
      <trkpt lat="44.66459" lon="-0.29216">
        <ele>33.78</ele>
        <time>2014-01-05T14:41:47Z</time>
      </trkpt>
      <trkpt lat="44.6646" lon="-0.2922">
        <ele>33.78</ele>
        <time>2014-01-05T14:41:50Z</time>
      </trkpt>
      <trkpt lat="44.66462" lon="-0.29234">
        <ele>33.78</ele>
        <time>2014-01-05T14:41:57Z</time>
      </trkpt>
      <trkpt lat="44.66468" lon="-0.29261">
        <ele>32.82</ele>
        <time>2014-01-05T14:42:13Z</time>
      </trkpt>
      <trkpt lat="44.66471" lon="-0.29275">
        <ele>32.82</ele>
        <time>2014-01-05T14:42:22Z</time>
      </trkpt>
      <trkpt lat="44.66475" lon="-0.29302">
        <ele>32.34</ele>
        <time>2014-01-05T14:42:41Z</time>
      </trkpt>
      <trkpt lat="44.66479" lon="-0.29327">
        <ele>33.3</ele>
        <time>2014-01-05T14:42:57Z</time>
      </trkpt>
      <trkpt lat="44.66481" lon="-0.29341">
        <ele>33.3</ele>
        <time>2014-01-05T14:43:06Z</time>
      </trkpt>
      <trkpt lat="44.66485" lon="-0.29365">
        <ele>34.26</ele>
        <time>2014-01-05T14:43:22Z</time>
      </trkpt>
      <trkpt lat="44.6649" lon="-0.29392">
        <ele>34.74</ele>
        <time>2014-01-05T14:43:38Z</time>
      </trkpt>
      <trkpt lat="44.66495" lon="-0.29417">
        <ele>34.74</ele>
        <time>2014-01-05T14:43:55Z</time>
      </trkpt>
      <trkpt lat="44.66498" lon="-0.29436">
        <ele>33.78</ele>
        <time>2014-01-05T14:44:09Z</time>
      </trkpt>
      <trkpt lat="44.66506" lon="-0.29462">
        <ele>32.82</ele>
        <time>2014-01-05T14:44:22Z</time>
      </trkpt>
      <trkpt lat="44.66513" lon="-0.2948">
        <ele>32.34</ele>
        <time>2014-01-05T14:44:37Z</time>
      </trkpt>
      <trkpt lat="44.6652" lon="-0.29503">
        <ele>31.86</ele>
        <time>2014-01-05T14:44:50Z</time>
      </trkpt>
      <trkpt lat="44.66523" lon="-0.29511">
        <ele>31.86</ele>
        <time>2014-01-05T14:44:54Z</time>
      </trkpt>
      <trkpt lat="44.66527" lon="-0.29523">
        <ele>31.38</ele>
        <time>2014-01-05T14:45:00Z</time>
      </trkpt>
      <trkpt lat="44.66533" lon="-0.29548">
        <ele>31.86</ele>
        <time>2014-01-05T14:45:15Z</time>
      </trkpt>
      <trkpt lat="44.66531" lon="-0.29564">
        <ele>31.86</ele>
        <time>2014-01-05T14:45:31Z</time>
      </trkpt>
      <trkpt lat="44.66528" lon="-0.29564">
        <ele>32.82</ele>
        <time>2014-01-05T14:45:47Z</time>
      </trkpt>
      <trkpt lat="44.66529" lon="-0.29559">
        <ele>32.34</ele>
        <time>2014-01-05T14:46:08Z</time>
      </trkpt>
      <trkpt lat="44.6653" lon="-0.29556">
        <ele>32.34</ele>
        <time>2014-01-05T14:46:32Z</time>
      </trkpt>
      <trkpt lat="44.66528" lon="-0.29562">
        <ele>33.3</ele>
        <time>2014-01-05T14:46:51Z</time>
      </trkpt>
      <trkpt lat="44.66512" lon="-0.29564">
        <ele>35.23</ele>
        <time>2014-01-05T14:47:07Z</time>
      </trkpt>
      <trkpt lat="44.66505" lon="-0.2956">
        <ele>36.19</ele>
        <time>2014-01-05T14:47:13Z</time>
      </trkpt>
      <trkpt lat="44.66494" lon="-0.29551">
        <ele>37.15</ele>
        <time>2014-01-05T14:47:26Z</time>
      </trkpt>
      <trkpt lat="44.66486" lon="-0.29546">
        <ele>39.07</ele>
        <time>2014-01-05T14:47:39Z</time>
      </trkpt>
      <trkpt lat="44.66477" lon="-0.29547">
        <ele>41.47</ele>
        <time>2014-01-05T14:47:54Z</time>
      </trkpt>
      <trkpt lat="44.66466" lon="-0.29553">
        <ele>43.88</ele>
        <time>2014-01-05T14:48:08Z</time>
      </trkpt>
      <trkpt lat="44.66459" lon="-0.29557">
        <ele>46.28</ele>
        <time>2014-01-05T14:48:20Z</time>
      </trkpt>
      <trkpt lat="44.66448" lon="-0.29559">
        <ele>48.68</ele>
        <time>2014-01-05T14:48:36Z</time>
      </trkpt>
      <trkpt lat="44.66438" lon="-0.2956">
        <ele>50.13</ele>
        <time>2014-01-05T14:48:48Z</time>
      </trkpt>
      <trkpt lat="44.66423" lon="-0.29566">
        <ele>52.53</ele>
        <time>2014-01-05T14:49:06Z</time>
      </trkpt>
      <trkpt lat="44.66413" lon="-0.29567">
        <ele>54.93</ele>
        <time>2014-01-05T14:49:21Z</time>
      </trkpt>
      <trkpt lat="44.66399" lon="-0.29567">
        <ele>56.86</ele>
        <time>2014-01-05T14:49:36Z</time>
      </trkpt>
      <trkpt lat="44.66386" lon="-0.29572">
        <ele>59.26</ele>
        <time>2014-01-05T14:49:52Z</time>
      </trkpt>
      <trkpt lat="44.66376" lon="-0.29574">
        <ele>59.74</ele>
        <time>2014-01-05T14:50:05Z</time>
      </trkpt>
      <trkpt lat="44.66362" lon="-0.29575">
        <ele>61.66</ele>
        <time>2014-01-05T14:50:22Z</time>
      </trkpt>
      <trkpt lat="44.66355" lon="-0.29579">
        <ele>62.14</ele>
        <time>2014-01-05T14:50:37Z</time>
      </trkpt>
      <trkpt lat="44.66345" lon="-0.29588">
        <ele>63.58</ele>
        <time>2014-01-05T14:50:52Z</time>
      </trkpt>
      <trkpt lat="44.66335" lon="-0.29596">
        <ele>64.55</ele>
        <time>2014-01-05T14:51:06Z</time>
      </trkpt>
      <trkpt lat="44.66326" lon="-0.29604">
        <ele>65.51</ele>
        <time>2014-01-05T14:51:19Z</time>
      </trkpt>
      <trkpt lat="44.66317" lon="-0.29618">
        <ele>66.47</ele>
        <time>2014-01-05T14:51:36Z</time>
      </trkpt>
      <trkpt lat="44.66306" lon="-0.2963">
        <ele>67.43</ele>
        <time>2014-01-05T14:51:51Z</time>
      </trkpt>
      <trkpt lat="44.66297" lon="-0.29641">
        <ele>67.43</ele>
        <time>2014-01-05T14:52:07Z</time>
      </trkpt>
      <trkpt lat="44.66291" lon="-0.29653">
        <ele>67.43</ele>
        <time>2014-01-05T14:52:21Z</time>
      </trkpt>
      <trkpt lat="44.66292" lon="-0.29653">
        <ele>67.43</ele>
        <time>2014-01-05T14:52:50Z</time>
      </trkpt>
      <trkpt lat="44.66292" lon="-0.29651">
        <ele>66.95</ele>
        <time>2014-01-05T14:53:22Z</time>
      </trkpt>
      <trkpt lat="44.66293" lon="-0.29653">
        <ele>66.47</ele>
        <time>2014-01-05T14:53:57Z</time>
      </trkpt>
      <trkpt lat="44.66293" lon="-0.29652">
        <ele>66.47</ele>
        <time>2014-01-05T14:54:24Z</time>
      </trkpt>
      <trkpt lat="44.66294" lon="-0.29651">
        <ele>65.99</ele>
        <time>2014-01-05T14:54:49Z</time>
      </trkpt>
      <trkpt lat="44.66293" lon="-0.29647">
        <ele>65.51</ele>
        <time>2014-01-05T14:55:16Z</time>
      </trkpt>
      <trkpt lat="44.66293" lon="-0.29647">
        <ele>65.03</ele>
        <time>2014-01-05T14:55:55Z</time>
      </trkpt>
      <trkpt lat="44.66295" lon="-0.2965">
        <ele>65.03</ele>
        <time>2014-01-05T14:56:21Z</time>
      </trkpt>
      <trkpt lat="44.66293" lon="-0.29648">
        <ele>64.55</ele>
        <time>2014-01-05T14:56:53Z</time>
      </trkpt>
      <trkpt lat="44.66292" lon="-0.29652">
        <ele>64.55</ele>
        <time>2014-01-05T14:57:09Z</time>
      </trkpt>
      <trkpt lat="44.66295" lon="-0.2965">
        <ele>64.07</ele>
        <time>2014-01-05T14:57:35Z</time>
      </trkpt>
      <trkpt lat="44.66296" lon="-0.29655">
        <ele>64.07</ele>
        <time>2014-01-05T14:58:07Z</time>
      </trkpt>
      <trkpt lat="44.66293" lon="-0.29664">
        <ele>64.07</ele>
        <time>2014-01-05T14:58:38Z</time>
      </trkpt>
      <trkpt lat="44.66293" lon="-0.29669">
        <ele>64.07</ele>
        <time>2014-01-05T14:58:42Z</time>
      </trkpt>
      <trkpt lat="44.66293" lon="-0.29691">
        <ele>65.03</ele>
        <time>2014-01-05T14:58:58Z</time>
      </trkpt>
      <trkpt lat="44.66291" lon="-0.29711">
        <ele>65.99</ele>
        <time>2014-01-05T14:59:13Z</time>
      </trkpt>
      <trkpt lat="44.66289" lon="-0.29727">
        <ele>66.95</ele>
        <time>2014-01-05T14:59:27Z</time>
      </trkpt>
      <trkpt lat="44.66288" lon="-0.29751">
        <ele>68.39</ele>
        <time>2014-01-05T14:59:43Z</time>
      </trkpt>
      <trkpt lat="44.66286" lon="-0.29776">
        <ele>71.27</ele>
        <time>2014-01-05T15:00:01Z</time>
      </trkpt>
      <trkpt lat="44.66284" lon="-0.29797">
        <ele>72.72</ele>
        <time>2014-01-05T15:00:18Z</time>
      </trkpt>
      <trkpt lat="44.66283" lon="-0.29821">
        <ele>74.64</ele>
        <time>2014-01-05T15:00:35Z</time>
      </trkpt>
      <trkpt lat="44.66282" lon="-0.29845">
        <ele>76.08</ele>
        <time>2014-01-05T15:00:52Z</time>
      </trkpt>
      <trkpt lat="44.66283" lon="-0.29867">
        <ele>77.52</ele>
        <time>2014-01-05T15:01:08Z</time>
      </trkpt>
      <trkpt lat="44.66287" lon="-0.29891">
        <ele>79.45</ele>
        <time>2014-01-05T15:01:24Z</time>
      </trkpt>
      <trkpt lat="44.66287" lon="-0.29894">
        <ele>79.45</ele>
        <time>2014-01-05T15:01:27Z</time>
      </trkpt>
      <trkpt lat="44.6628" lon="-0.29911">
        <ele>80.89</ele>
        <time>2014-01-05T15:01:43Z</time>
      </trkpt>
      <trkpt lat="44.66267" lon="-0.29919">
        <ele>79.93</ele>
        <time>2014-01-05T15:01:58Z</time>
      </trkpt>
      <trkpt lat="44.66252" lon="-0.29929">
        <ele>76.56</ele>
        <time>2014-01-05T15:02:15Z</time>
      </trkpt>
      <trkpt lat="44.66238" lon="-0.29938">
        <ele>73.68</ele>
        <time>2014-01-05T15:02:30Z</time>
      </trkpt>
      <trkpt lat="44.66223" lon="-0.29948">
        <ele>70.31</ele>
        <time>2014-01-05T15:02:45Z</time>
      </trkpt>
      <trkpt lat="44.66211" lon="-0.29954">
        <ele>68.39</ele>
        <time>2014-01-05T15:03:00Z</time>
      </trkpt>
      <trkpt lat="44.66211" lon="-0.29959">
        <ele>68.39</ele>
        <time>2014-01-05T15:03:13Z</time>
      </trkpt>
      <trkpt lat="44.66211" lon="-0.29961">
        <ele>68.39</ele>
        <time>2014-01-05T15:03:15Z</time>
      </trkpt>
      <trkpt lat="44.66216" lon="-0.29974">
        <ele>68.39</ele>
        <time>2014-01-05T15:03:25Z</time>
      </trkpt>
      <trkpt lat="44.66224" lon="-0.3">
        <ele>68.87</ele>
        <time>2014-01-05T15:03:45Z</time>
      </trkpt>
      <trkpt lat="44.66233" lon="-0.30023">
        <ele>69.35</ele>
        <time>2014-01-05T15:04:03Z</time>
      </trkpt>
      <trkpt lat="44.66234" lon="-0.30023">
        <ele>68.87</ele>
        <time>2014-01-05T15:04:05Z</time>
      </trkpt>
      <trkpt lat="44.66238" lon="-0.30023">
        <ele>69.35</ele>
        <time>2014-01-05T15:04:08Z</time>
      </trkpt>
      <trkpt lat="44.66244" lon="-0.30026">
        <ele>70.31</ele>
        <time>2014-01-05T15:04:15Z</time>
      </trkpt>
      <trkpt lat="44.66245" lon="-0.30048">
        <ele>69.35</ele>
        <time>2014-01-05T15:04:29Z</time>
      </trkpt>
      <trkpt lat="44.66246" lon="-0.30076">
        <ele>67.43</ele>
        <time>2014-01-05T15:04:46Z</time>
      </trkpt>
      <trkpt lat="44.66246" lon="-0.30079">
        <ele>66.47</ele>
        <time>2014-01-05T15:04:48Z</time>
      </trkpt>
      <trkpt lat="44.66242" lon="-0.30106">
        <ele>64.07</ele>
        <time>2014-01-05T15:05:06Z</time>
      </trkpt>
      <trkpt lat="44.66238" lon="-0.30121">
        <ele>62.62</ele>
        <time>2014-01-05T15:05:20Z</time>
      </trkpt>
      <trkpt lat="44.66237" lon="-0.30128">
        <ele>62.62</ele>
        <time>2014-01-05T15:05:25Z</time>
      </trkpt>
      <trkpt lat="44.66232" lon="-0.30147">
        <ele>61.66</ele>
        <time>2014-01-05T15:05:38Z</time>
      </trkpt>
      <trkpt lat="44.66226" lon="-0.30171">
        <ele>59.74</ele>
        <time>2014-01-05T15:05:55Z</time>
      </trkpt>
      <trkpt lat="44.66221" lon="-0.30188">
        <ele>59.74</ele>
        <time>2014-01-05T15:06:09Z</time>
      </trkpt>
      <trkpt lat="44.66215" lon="-0.30208">
        <ele>58.78</ele>
        <time>2014-01-05T15:06:23Z</time>
      </trkpt>
      <trkpt lat="44.66209" lon="-0.30233">
        <ele>56.86</ele>
        <time>2014-01-05T15:06:39Z</time>
      </trkpt>
      <trkpt lat="44.66203" lon="-0.30244">
        <ele>55.41</ele>
        <time>2014-01-05T15:06:51Z</time>
      </trkpt>
      <trkpt lat="44.662" lon="-0.30245">
        <ele>54.93</ele>
        <time>2014-01-05T15:06:54Z</time>
      </trkpt>
      <trkpt lat="44.66188" lon="-0.30247">
        <ele>53.49</ele>
        <time>2014-01-05T15:07:05Z</time>
      </trkpt>
      <trkpt lat="44.66177" lon="-0.30249">
        <ele>51.09</ele>
        <time>2014-01-05T15:07:16Z</time>
      </trkpt>
      <trkpt lat="44.66166" lon="-0.30255">
        <ele>49.16</ele>
        <time>2014-01-05T15:07:26Z</time>
      </trkpt>
      <trkpt lat="44.66164" lon="-0.30256">
        <ele>48.68</ele>
        <time>2014-01-05T15:07:28Z</time>
      </trkpt>
      <trkpt lat="44.66148" lon="-0.30266">
        <ele>45.8</ele>
        <time>2014-01-05T15:07:42Z</time>
      </trkpt>
      <trkpt lat="44.66142" lon="-0.30269">
        <ele>44.36</ele>
        <time>2014-01-05T15:07:47Z</time>
      </trkpt>
      <trkpt lat="44.66141" lon="-0.30269">
        <ele>44.36</ele>
        <time>2014-01-05T15:07:48Z</time>
      </trkpt>
      <trkpt lat="44.66126" lon="-0.30278">
        <ele>41.47</ele>
        <time>2014-01-05T15:08:04Z</time>
      </trkpt>
      <trkpt lat="44.66113" lon="-0.30288">
        <ele>39.07</ele>
        <time>2014-01-05T15:08:20Z</time>
      </trkpt>
      <trkpt lat="44.66104" lon="-0.303">
        <ele>36.19</ele>
        <time>2014-01-05T15:08:33Z</time>
      </trkpt>
      <trkpt lat="44.66089" lon="-0.30314">
        <ele>34.26</ele>
        <time>2014-01-05T15:08:48Z</time>
      </trkpt>
      <trkpt lat="44.66072" lon="-0.3033">
        <ele>32.34</ele>
        <time>2014-01-05T15:09:05Z</time>
      </trkpt>
      <trkpt lat="44.66069" lon="-0.30336">
        <ele>32.34</ele>
        <time>2014-01-05T15:09:11Z</time>
      </trkpt>
      <trkpt lat="44.66065" lon="-0.30338">
        <ele>31.86</ele>
        <time>2014-01-05T15:09:15Z</time>
      </trkpt>
      <trkpt lat="44.66064" lon="-0.30344">
        <ele>31.86</ele>
        <time>2014-01-05T15:09:19Z</time>
      </trkpt>
      <trkpt lat="44.66054" lon="-0.30365">
        <ele>32.82</ele>
        <time>2014-01-05T15:09:35Z</time>
      </trkpt>
      <trkpt lat="44.6605" lon="-0.30372">
        <ele>33.3</ele>
        <time>2014-01-05T15:09:41Z</time>
      </trkpt>
      <trkpt lat="44.66043" lon="-0.3038">
        <ele>33.78</ele>
        <time>2014-01-05T15:09:53Z</time>
      </trkpt>
      <trkpt lat="44.66042" lon="-0.30383">
        <ele>34.26</ele>
        <time>2014-01-05T15:09:56Z</time>
      </trkpt>
      <trkpt lat="44.66038" lon="-0.30388">
        <ele>34.74</ele>
        <time>2014-01-05T15:10:11Z</time>
      </trkpt>
      <trkpt lat="44.66033" lon="-0.30395">
        <ele>35.71</ele>
        <time>2014-01-05T15:10:22Z</time>
      </trkpt>
      <trkpt lat="44.66019" lon="-0.30407">
        <ele>37.63</ele>
        <time>2014-01-05T15:10:37Z</time>
      </trkpt>
      <trkpt lat="44.66006" lon="-0.30417">
        <ele>40.51</ele>
        <time>2014-01-05T15:10:53Z</time>
      </trkpt>
      <trkpt lat="44.65995" lon="-0.30424">
        <ele>43.4</ele>
        <time>2014-01-05T15:11:06Z</time>
      </trkpt>
      <trkpt lat="44.65981" lon="-0.30427">
        <ele>45.32</ele>
        <time>2014-01-05T15:11:22Z</time>
      </trkpt>
      <trkpt lat="44.65963" lon="-0.30428">
        <ele>46.76</ele>
        <time>2014-01-05T15:11:39Z</time>
      </trkpt>
      <trkpt lat="44.65953" lon="-0.30435">
        <ele>46.76</ele>
        <time>2014-01-05T15:11:52Z</time>
      </trkpt>
      <trkpt lat="44.65949" lon="-0.30443">
        <ele>47.72</ele>
        <time>2014-01-05T15:12:01Z</time>
      </trkpt>
      <trkpt lat="44.65947" lon="-0.30447">
        <ele>47.72</ele>
        <time>2014-01-05T15:12:08Z</time>
      </trkpt>
      <trkpt lat="44.65944" lon="-0.3045">
        <ele>48.68</ele>
        <time>2014-01-05T15:12:24Z</time>
      </trkpt>
      <trkpt lat="44.65943" lon="-0.30457">
        <ele>48.2</ele>
        <time>2014-01-05T15:12:39Z</time>
      </trkpt>
      <trkpt lat="44.65944" lon="-0.30457">
        <ele>48.68</ele>
        <time>2014-01-05T15:13:02Z</time>
      </trkpt>
      <trkpt lat="44.65942" lon="-0.30468">
        <ele>48.68</ele>
        <time>2014-01-05T15:13:17Z</time>
      </trkpt>
      <trkpt lat="44.65943" lon="-0.30478">
        <ele>48.68</ele>
        <time>2014-01-05T15:13:31Z</time>
      </trkpt>
      <trkpt lat="44.65951" lon="-0.30486">
        <ele>48.68</ele>
        <time>2014-01-05T15:13:46Z</time>
      </trkpt>
      <trkpt lat="44.65956" lon="-0.30505">
        <ele>48.68</ele>
        <time>2014-01-05T15:14:03Z</time>
      </trkpt>
      <trkpt lat="44.65958" lon="-0.30517">
        <ele>48.68</ele>
        <time>2014-01-05T15:14:11Z</time>
      </trkpt>
      <trkpt lat="44.65959" lon="-0.3052">
        <ele>54.45</ele>
        <time>2014-01-05T15:14:13Z</time>
      </trkpt>
      <trkpt lat="44.65959" lon="-0.30535">
        <ele>54.93</ele>
        <time>2014-01-05T15:14:23Z</time>
      </trkpt>
    </trkseg>
  </trk>
</gpx>